Provisional Data: Little Pine Creek near Waterville, PA


Please select a monitoring station.
Please select start date.
Please select start date.

Toggle Unit: C/F Toggle Unit: C/F
Sample Time Temperature (C) Temperature (F) Specific Conductivity (mS/cm) pH   Turbidity (NTU+) DO (mg/L)
10/17/2022 12:00:00 AM 11.07 51.926 0.145 7.27 3.2 10.31
10/17/2022 12:15:00 AM 11.05 51.89 0.145 7.27 1.68 10.32
10/17/2022 12:30:00 AM 11.04 51.872 0.144 7.27 1.61 10.31
10/17/2022 12:45:00 AM 11.02 51.836 0.144 7.27 1.62 10.31
10/17/2022 1:00:00 AM 11.01 51.818 0.144 7.27 1.65 10.32
10/17/2022 1:15:00 AM 11 51.8 0.142 7.27 3.13 10.32
10/17/2022 1:30:00 AM 10.98 51.764 0.144 7.27 1.68 10.32
10/17/2022 1:45:00 AM 10.97 51.746 0.144 7.27 1.65 10.32
10/17/2022 2:00:00 AM 10.95 51.71 0.144 7.26 1.75 10.31
10/17/2022 2:15:00 AM 10.93 51.674 0.144 7.26 3.34 10.32
10/17/2022 2:30:00 AM 10.91 51.638 0.081 7.26 3.25 10.32
10/17/2022 2:45:00 AM 10.9 51.62 0.144 7.27 3.19 10.32
10/17/2022 3:00:00 AM 10.88 51.584 0.143 7.27 3.1 10.33
10/17/2022 3:15:00 AM 10.87 51.566 0.142 7.27 3.01 10.33
10/17/2022 3:30:00 AM 10.86 51.548 0.144 7.27 3.01 10.33
10/17/2022 3:45:00 AM 10.85 51.53 0.144 7.27 1.64 10.32
10/17/2022 4:00:00 AM 10.85 51.53 0.143 7.26 3.08 10.33
10/17/2022 4:15:00 AM 10.84 51.512 0.085 7.26 3.18 10.32
10/17/2022 4:30:00 AM 10.83 51.494 0.144 7.27 1.7 10.32
10/17/2022 4:45:00 AM 10.83 51.494 0.143 7.26 3.1 10.33
10/17/2022 5:00:00 AM 10.82 51.476 0.144 7.26 1.74 10.33
10/17/2022 5:15:00 AM 10.81 51.458 0.144 7.26 1.7 10.33
10/17/2022 5:30:00 AM 10.81 51.458 0.082 7.26 3.18 10.33
10/17/2022 5:45:00 AM 10.8 51.44 0.142 7.26 3.09 10.33
10/17/2022 6:00:00 AM 10.8 51.44 0.144 7.27 1.58 10.33
10/17/2022 6:15:00 AM 10.79 51.422 0.144 7.26 1.61 10.33
10/17/2022 6:30:00 AM 10.78 51.404 0.142 7.25 3.04 10.33
10/17/2022 6:45:00 AM 10.77 51.386 0.143 7.26 1.68 10.34
10/17/2022 7:00:00 AM 10.77 51.386 0.143 7.25 1.62 10.34
10/17/2022 7:15:00 AM 10.75 51.35 0.143 7.25 3.11 10.34
10/17/2022 7:30:00 AM 10.74 51.332 0.143 7.26 1.71 10.35
10/17/2022 7:45:00 AM 10.75 51.35 0.143 7.25 1.63 10.37
10/17/2022 8:00:00 AM 10.76 51.368 0.141 7.25 3.14 10.39
10/17/2022 8:15:00 AM 10.77 51.386 0.143 7.27 1.56 10.42
10/17/2022 8:30:00 AM 10.79 51.422 0.143 7.27 1.72 10.48
10/17/2022 8:45:00 AM 10.81 51.458 0.143 7.28 3.16 10.55
10/17/2022 9:00:00 AM 10.83 51.494 0.143 7.31 1.62 10.64
10/17/2022 9:15:00 AM 10.86 51.548 0.143 7.31 1.46 10.74
10/17/2022 9:30:00 AM 10.9 51.62 0.143 7.34 1.57 10.86
10/17/2022 9:45:00 AM 10.94 51.692 0.143 7.36 1.56 10.94
10/17/2022 10:00:00 AM 10.97 51.746 0.142 7.37 1.52 11.03
10/17/2022 10:15:00 AM 11.02 51.836 0.141 7.39 3.13 11.08
10/17/2022 10:30:00 AM 11.08 51.944 0.142 7.41 1.49 11.17
10/17/2022 10:45:00 AM 11.14 52.052 0.142 7.42 3.12 11.23
10/17/2022 11:00:00 AM 11.17 52.106 0.142 7.45 1.48 11.28
10/17/2022 11:15:00 AM 11.22 52.196 0.142 7.46 3 11.33
10/17/2022 11:30:00 AM 11.24 52.232 0.141 7.47 3.06 11.28
10/17/2022 11:45:00 AM 11.26 52.268 0.08 7.47 3.09 11.24
10/17/2022 12:00:00 PM 11.3 52.34 0.084 7.47 3.29 11.22
10/17/2022 12:15:00 PM 11.41 52.538 0.097 7.49 3.54 11.31
10/17/2022 12:30:00 PM 11.5 52.7 0.086 7.51 3.07 11.35
10/17/2022 12:45:00 PM 11.61 52.898 0.142 7.54 1.48 11.42
10/17/2022 1:00:00 PM 11.69 53.042 0.142 7.56 1.45 11.45
10/17/2022 1:15:00 PM 11.73 53.114 0.142 7.57 1.53 11.46
10/17/2022 1:30:00 PM 11.78 53.204 0.142 7.59 1.45 11.5
10/17/2022 1:45:00 PM 11.83 53.294 0.142 7.61 1.5 11.53
10/17/2022 2:00:00 PM 11.92 53.456 0.142 7.63 1.49 11.56
10/17/2022 2:15:00 PM 11.99 53.582 0.142 7.65 1.52 11.56
10/17/2022 2:30:00 PM 12.04 53.672 0.142 7.66 1.46 11.57
10/17/2022 2:45:00 PM 12.08 53.744 0.142 7.66 1.51 11.55
10/17/2022 3:00:00 PM 12.19 53.942 0.142 7.67 2.99 11.56
10/17/2022 3:15:00 PM 12.17 53.906 0.142 7.68 1.42 11.52
10/17/2022 3:30:00 PM 12.2 53.96 0.142 7.69 2.9 11.53
10/17/2022 3:45:00 PM 12.21 53.978 0.142 7.69 2.94 11.51
10/17/2022 4:00:00 PM 12.16 53.888 0.142 7.7 1.49 11.49
10/17/2022 4:15:00 PM 12.17 53.906 0.142 7.7 1.53 11.46
10/17/2022 4:30:00 PM 12.16 53.888 0.143 7.69 3.5 11.45
10/17/2022 4:45:00 PM 12.12 53.816 0.143 7.7 1.55 11.42
10/17/2022 5:00:00 PM 12.01 53.618 0.143 7.67 1.6 11.36
10/17/2022 5:15:00 PM 11.93 53.474 0.143 7.66 1.5 11.31
10/17/2022 5:30:00 PM 11.83 53.294 0.081 7.62 3.56 11.21
10/17/2022 5:45:00 PM 11.76 53.168 0.144 7.6 1.55 11.13
10/17/2022 6:00:00 PM 11.66 52.988 0.144 7.56 3.45 11.03
10/17/2022 6:15:00 PM 11.55 52.79 0.145 7.54 1.49 10.92
10/17/2022 6:30:00 PM 11.45 52.61 0.139 7.5 3.63 10.81
10/17/2022 6:45:00 PM 11.35 52.43 0.146 7.48 1.68 10.73
10/17/2022 7:00:00 PM 11.26 52.268 0.147 7.45 1.63 10.65
10/17/2022 7:15:00 PM 11.16 52.088 0.147 7.42 3.25 10.6
10/17/2022 7:30:00 PM 11.07 51.926 0.147 7.41 3.55 10.55
10/17/2022 7:45:00 PM 10.96 51.728 0.148 7.4 1.58 10.52
10/17/2022 8:00:00 PM 10.85 51.53 0.148 7.39 1.68 10.49
10/17/2022 8:15:00 PM 10.76 51.368 0.148 7.37 1.83 10.49
10/17/2022 8:30:00 PM 10.68 51.224 0.148 7.36 1.62 10.48
10/17/2022 8:45:00 PM 10.59 51.062 0.146 7.35 3.07 10.49
10/17/2022 9:00:00 PM 10.5 50.9 0.149 7.35 1.69 10.48
10/17/2022 9:15:00 PM 10.42 50.756 0.149 7.34 1.72 10.49
10/17/2022 9:30:00 PM 10.34 50.612 0.149 7.34 1.54 10.49
10/17/2022 9:45:00 PM 10.25 50.45 0.149 7.33 1.56 10.5
10/17/2022 10:00:00 PM 10.18 50.324 0.149 7.33 1.58 10.51
10/17/2022 10:15:00 PM 10.11 50.198 0.149 7.33 1.63 10.52
10/17/2022 10:30:00 PM 10.08 50.144 0.149 7.32 1.58 10.52
10/17/2022 10:45:00 PM 10.04 50.072 0.149 7.32 3.21 10.53
10/17/2022 11:00:00 PM 9.99 49.982 0.149 7.32 1.59 10.53
10/17/2022 11:15:00 PM 9.93 49.874 0.149 7.32 1.59 10.54
10/17/2022 11:30:00 PM 9.87 49.766 0.148 7.31 1.56 10.54
10/17/2022 11:45:00 PM 9.84 49.712 0.09 7.3 3.15 10.55
10/18/2022 12:00:00 AM 9.83 49.694 0.148 7.31 1.54 10.55
10/18/2022 12:15:00 AM 9.82 49.676 0.148 7.3 1.59 10.55
10/18/2022 12:30:00 AM 9.78 49.604 0.148 7.3 1.58 10.55
10/18/2022 12:45:00 AM 9.76 49.568 0.148 7.29 1.55 10.55
10/18/2022 1:00:00 AM 9.74 49.532 0.147 7.29 1.56 10.55
10/18/2022 1:15:00 AM 9.72 49.496 0.147 7.29 1.67 10.55
10/18/2022 1:30:00 AM 9.71 49.478 0.147 7.29 1.59 10.55
10/18/2022 1:45:00 AM 9.68 49.424 0.147 7.29 1.56 10.56
10/18/2022 2:00:00 AM 9.66 49.388 0.147 7.28 1.58 10.57
10/18/2022 2:15:00 AM 9.65 49.37 0.147 7.28 1.62 10.56
10/18/2022 2:30:00 AM 9.62 49.316 0.147 7.27 1.62 10.57
10/18/2022 2:45:00 AM 9.58 49.244 0.147 7.27 1.62 10.57
10/18/2022 3:00:00 AM 9.55 49.19 0.146 7.27 1.6 10.58
10/18/2022 3:15:00 AM 9.51 49.118 0.146 7.29 1.59 10.59
10/18/2022 3:30:00 AM 9.47 49.046 0.146 7.27 1.66 10.6
10/18/2022 3:45:00 AM 9.44 48.992 0.146 7.26 1.6 10.61
10/18/2022 4:00:00 AM 9.42 48.956 0.146 7.26 1.58 10.61
10/18/2022 4:15:00 AM 9.4 48.92 0.146 7.26 3.11 10.63
10/18/2022 4:30:00 AM 9.37 48.866 0.146 7.28 1.57 10.63
10/18/2022 4:45:00 AM 9.34 48.812 0.146 7.26 1.54 10.64
10/18/2022 5:00:00 AM 9.32 48.776 0.146 7.27 1.68 10.64
10/18/2022 5:15:00 AM 9.29 48.722 0.146 7.26 1.52 10.65
10/18/2022 5:30:00 AM 9.27 48.686 0.145 7.26 3.21 10.66
10/18/2022 5:45:00 AM 9.24 48.632 0.146 7.27 1.64 10.67
10/18/2022 6:00:00 AM 9.21 48.578 0.146 7.25 1.74 10.67
10/18/2022 6:15:00 AM 9.18 48.524 0.146 7.25 1.54 10.68
10/18/2022 6:30:00 AM 9.15 48.47 0.146 7.25 1.67 10.69
10/18/2022 6:45:00 AM 9.12 48.416 0.146 7.25 1.63 10.7
10/18/2022 7:00:00 AM 9.1 48.38 0.146 7.25 1.63 10.7
10/18/2022 7:15:00 AM 9.08 48.344 0.146 7.27 1.65 10.71
10/18/2022 7:30:00 AM 9.07 48.326 0.146 7.26 1.62 10.72
10/18/2022 7:45:00 AM 9.06 48.308 0.146 7.27 3.02 10.76
10/18/2022 8:00:00 AM 9.06 48.308 0.146 7.28 1.52 10.82
10/18/2022 8:15:00 AM 9.06 48.308 0.146 7.28 1.55 10.87
10/18/2022 8:30:00 AM 9.07 48.326 0.146 7.29 1.74 10.95
10/18/2022 8:45:00 AM 9.1 48.38 0.146 7.31 1.58 11.04
10/18/2022 9:00:00 AM 9.15 48.47 0.145 7.33 1.55 11.16
10/18/2022 9:15:00 AM 9.19 48.542 0.145 7.36 1.51 11.26
10/18/2022 9:30:00 AM 9.21 48.578 0.145 7.37 1.51 11.32
10/18/2022 9:45:00 AM 9.24 48.632 0.145 7.39 1.6 11.41
10/18/2022 10:00:00 AM 9.31 48.758 0.145 7.41 1.47 11.5
10/18/2022 10:15:00 AM 9.45 49.01 0.144 7.44 1.51 11.62
10/18/2022 10:30:00 AM 9.5 49.1 0.144 7.46 1.53 11.67
10/18/2022 10:45:00 AM 9.56 49.208 0.144 7.48 1.52 11.72
10/18/2022 11:00:00 AM 9.61 49.298 0.144 7.5 1.61 11.77
10/18/2022 11:15:00 AM 9.64 49.352 0.144 7.51 1.47 11.79
10/18/2022 11:30:00 AM 9.71 49.478 0.144 7.53 1.5 11.8
10/18/2022 11:45:00 AM 9.75 49.55 0.144 7.53 1.48 11.8
10/18/2022 12:00:00 PM 9.78 49.604 0.144 7.54 1.52 11.8
10/18/2022 12:15:00 PM 9.82 49.676 0.144 7.56 1.48 11.82
10/18/2022 12:30:00 PM 9.89 49.802 0.143 7.57 1.51 11.85
10/18/2022 12:45:00 PM 9.96 49.928 0.143 7.58 1.49 11.87
10/18/2022 1:00:00 PM 10.01 50.018 0.143 7.6 1.56 11.88
10/18/2022 1:15:00 PM 10.07 50.126 0.143 7.61 3.1 11.88
10/18/2022 1:30:00 PM 10.11 50.198 0.143 7.62 1.44 11.86
10/18/2022 1:45:00 PM 10.13 50.234 0.143 7.62 1.52 11.84
10/18/2022 2:00:00 PM 10.17 50.306 0.143 7.63 1.49 11.83
10/18/2022 2:15:00 PM 10.19 50.342 0.143 7.62 1.49 11.79
10/18/2022 2:30:00 PM 10.21 50.378 0.143 7.61 1.49 11.74
10/18/2022 2:45:00 PM 10.2 50.36 0.143 7.6 1.57 11.69
10/18/2022 3:00:00 PM 10.2 50.36 0.143 7.59 1.5 11.64
10/18/2022 3:15:00 PM 10.22 50.396 0.143 7.58 1.54 11.62
10/18/2022 3:30:00 PM 10.24 50.432 0.143 7.59 1.5 11.61
10/18/2022 3:45:00 PM 10.24 50.432 0.143 7.58 1.54 11.59
10/18/2022 4:00:00 PM 10.26 50.468 0.143 7.59 1.45 11.61
10/18/2022 4:15:00 PM 10.26 50.468 0.143 7.59 1.52 11.61
10/18/2022 4:30:00 PM 10.25 50.45 0.143 7.58 1.48 11.57
10/18/2022 4:45:00 PM 10.23 50.414 0.143 7.57 1.47 11.52
10/18/2022 5:00:00 PM 10.23 50.414 0.143 7.57 1.6 11.51
10/18/2022 5:15:00 PM 10.21 50.378 0.143 7.55 2.96 11.45
10/18/2022 5:30:00 PM 10.17 50.306 0.104 7.53 2.99 11.35
10/18/2022 5:45:00 PM 10.13 50.234 0.144 7.51 1.53 11.26
10/18/2022 6:00:00 PM 10.08 50.144 0.144 7.49 1.55 11.19
10/18/2022 6:15:00 PM 10.03 50.054 0.144 7.47 1.53 11.11
10/18/2022 6:30:00 PM 9.98 49.964 0.145 7.45 1.49 11.04
10/18/2022 6:45:00 PM 9.92 49.856 0.145 7.43 1.5 10.98
10/18/2022 7:00:00 PM 9.87 49.766 0.145 7.41 2.96 10.93
10/18/2022 7:15:00 PM 9.82 49.676 0.145 7.4 1.51 10.89
10/18/2022 7:30:00 PM 9.78 49.604 0.145 7.39 1.58 10.86
10/18/2022 7:45:00 PM 9.74 49.532 0.145 7.38 1.61 10.84
10/18/2022 8:00:00 PM 9.69 49.442 0.145 7.36 1.79 10.82
10/18/2022 8:15:00 PM 9.66 49.388 0.145 7.36 1.5 10.81
10/18/2022 8:30:00 PM 9.64 49.352 0.145 7.35 1.59 10.79
10/18/2022 8:45:00 PM 9.61 49.298 0.146 7.34 1.59 10.78
10/18/2022 9:00:00 PM 9.58 49.244 0.146 7.34 3.2 10.77
10/18/2022 9:15:00 PM 9.54 49.172 0.146 7.35 1.57 10.77
10/18/2022 9:30:00 PM 9.5 49.1 0.146 7.32 1.57 10.76
10/18/2022 9:45:00 PM 9.46 49.028 0.146 7.32 1.65 10.76
10/18/2022 10:00:00 PM 9.42 48.956 0.146 7.31 1.6 10.75
10/18/2022 10:15:00 PM 9.38 48.884 0.146 7.3 1.6 10.76
10/18/2022 10:30:00 PM 9.35 48.83 0.146 7.3 1.56 10.76
10/18/2022 10:45:00 PM 9.32 48.776 0.146 7.29 1.57 10.76
10/18/2022 11:00:00 PM 9.3 48.74 0.146 7.29 1.6 10.77
10/18/2022 11:15:00 PM 9.26 48.668 0.146 7.29 1.59 10.77
10/18/2022 11:30:00 PM 9.24 48.632 0.146 7.29 1.57 10.77
10/18/2022 11:45:00 PM 9.22 48.596 0.146 7.31 1.78 10.78
10/19/2022 12:00:00 AM 9.19 48.542 0.146 7.29 1.66 10.78
10/19/2022 12:15:00 AM 9.16 48.488 0.146 7.29 1.62 10.78
10/19/2022 12:30:00 AM 9.12 48.416 0.146 7.29 1.6 10.79
10/19/2022 12:45:00 AM 9.1 48.38 0.146 7.29 1.64 10.8
10/19/2022 1:00:00 AM 9.1 48.38 0.146 7.29 1.61 10.8
10/19/2022 1:15:00 AM 9.09 48.362 0.146 7.3 1.7 10.81
10/19/2022 1:30:00 AM 9.09 48.362 0.146 7.29 1.74 10.81
10/19/2022 1:45:00 AM 9.08 48.344 0.146 7.29 1.64 10.81
10/19/2022 2:00:00 AM 9.08 48.344 0.146 7.28 1.65 10.81
10/19/2022 2:15:00 AM 9.08 48.344 0.146 7.29 1.9 10.82
10/19/2022 2:30:00 AM 9.07 48.326 0.146 7.29 1.61 10.82
10/19/2022 2:45:00 AM 9.07 48.326 0.146 7.29 1.69 10.83
10/19/2022 3:00:00 AM 9.06 48.308 0.146 7.29 1.67 10.83
10/19/2022 3:15:00 AM 9.04 48.272 0.146 7.29 1.73 10.84
10/19/2022 3:30:00 AM 9.03 48.254 0.146 7.29 1.69 10.83
10/19/2022 3:45:00 AM 9.02 48.236 0.146 7.3 1.6 10.84
10/19/2022 4:00:00 AM 9.01 48.218 0.146 7.29 1.67 10.84
10/19/2022 4:15:00 AM 9.01 48.218 0.146 7.29 1.61 10.84
10/19/2022 4:30:00 AM 9.01 48.218 0.146 7.29 1.62 10.85
10/19/2022 4:45:00 AM 9 48.2 0.146 7.29 1.61 10.85
10/19/2022 5:00:00 AM 8.98 48.164 0.146 7.28 1.59 10.85
10/19/2022 5:15:00 AM 8.97 48.146 0.146 7.3 1.61 10.85
10/19/2022 5:30:00 AM 8.97 48.146 0.146 7.29 1.57 10.85
10/19/2022 5:45:00 AM 8.97 48.146 0.146 7.29 2.14 10.86
10/19/2022 6:00:00 AM 8.97 48.146 0.146 7.28 1.55 10.86
10/19/2022 6:15:00 AM 8.96 48.128 0.146 7.28 1.69 10.86
10/19/2022 6:30:00 AM 8.95 48.11 0.146 7.3 1.6 10.85
10/19/2022 6:45:00 AM 8.95 48.11 0.146 7.28 1.62 10.86
10/19/2022 7:00:00 AM 8.95 48.11 0.146 7.28 3 10.86
10/19/2022 7:15:00 AM 8.94 48.092 0.146 7.29 1.65 10.86
10/19/2022 7:30:00 AM 8.94 48.092 0.146 7.28 1.71 10.87
10/19/2022 7:45:00 AM 8.94 48.092 0.146 7.29 1.72 10.89
10/19/2022 8:00:00 AM 8.93 48.074 0.146 7.31 1.62 10.94
10/19/2022 8:15:00 AM 8.94 48.092 0.146 7.31 1.6 11.02
10/19/2022 8:30:00 AM 8.96 48.128 0.146 7.33 1.61 11.13
10/19/2022 8:45:00 AM 8.98 48.164 0.146 7.34 1.69 11.22
10/19/2022 9:00:00 AM 9 48.2 0.145 7.35 1.57 11.32
10/19/2022 9:15:00 AM 9.02 48.236 0.145 7.37 1.59 11.41
10/19/2022 9:30:00 AM 9.06 48.308 0.145 7.39 1.61 11.52
10/19/2022 9:45:00 AM 9.07 48.326 0.145 7.41 1.6 11.57
10/19/2022 10:00:00 AM 9.08 48.344 0.145 7.42 1.56 11.64
10/19/2022 10:15:00 AM 9.1 48.38 0.145 7.43 3.12 11.69
10/19/2022 10:30:00 AM 9.12 48.416 0.145 7.46 1.57 11.75
10/19/2022 10:45:00 AM 9.16 48.488 0.146 7.46 1.56 11.82
10/19/2022 11:00:00 AM 9.19 48.542 0.146 7.48 1.55 11.87
10/19/2022 11:15:00 AM 9.2 48.56 0.146 7.5 1.53 11.9
10/19/2022 11:30:00 AM 9.2 48.56 0.147 7.51 1.5 11.93
10/19/2022 11:45:00 AM 9.2 48.56 0.147 7.52 1.57 11.96
10/19/2022 12:00:00 PM 9.21 48.578 0.148 7.53 1.5 12
10/19/2022 12:15:00 PM 9.26 48.668 0.149 7.54 1.45 12.05
10/19/2022 12:30:00 PM 9.3 48.74 0.149 7.56 1.53 12.09
10/19/2022 12:45:00 PM 9.33 48.794 0.15 7.58 1.5 12.13
10/19/2022 1:00:00 PM 9.34 48.812 0.15 7.58 1.54 12.14
10/19/2022 1:15:00 PM 9.35 48.83 0.151 7.6 1.51 12.17
10/19/2022 1:30:00 PM 9.37 48.866 0.151 7.6 1.51 12.19
10/19/2022 1:45:00 PM 9.37 48.866 0.151 7.45 588.13 12.06
10/19/2022 2:00:00 PM 9.49 49.082 0.146 7.43 2.02 12.31
10/19/2022 2:15:00 PM 9.47 49.046 0.146 7.41 1.7 12.32
10/19/2022 2:30:00 PM 9.46 49.028 0.147 7.42 1.7 12.32
10/19/2022 2:45:00 PM 9.44 48.992 0.147 7.44 1.68 12.3
10/19/2022 3:00:00 PM 9.42 48.956 0.147 7.43 1.63 12.3
10/19/2022 3:15:00 PM 9.43 48.974 0.148 7.44 1.65 12.31
10/19/2022 3:30:00 PM 9.48 49.064 0.148 7.45 1.65 12.33
10/19/2022 3:45:00 PM 9.5 49.1 0.148 7.46 1.65 12.33
10/19/2022 4:00:00 PM 9.47 49.046 0.148 7.46 1.73 12.31
10/19/2022 4:15:00 PM 9.45 49.01 0.148 7.47 1.68 12.29
10/19/2022 4:30:00 PM 9.4 48.92 0.148 7.46 1.68 12.27
10/19/2022 4:45:00 PM 9.38 48.884 0.148 7.45 1.68 12.22
10/19/2022 5:00:00 PM 9.36 48.848 0.148 7.45 1.72 12.16
10/19/2022 5:15:00 PM 9.35 48.83 0.148 7.44 1.69 12.11
10/19/2022 5:30:00 PM 9.32 48.776 0.147 7.42 1.66 12.01
10/19/2022 5:45:00 PM 9.29 48.722 0.147 7.4 1.72 11.95
10/19/2022 6:00:00 PM 9.25 48.65 0.148 7.37 1.64 11.83
10/19/2022 6:15:00 PM 9.22 48.596 0.148 7.34 1.69 11.71
10/19/2022 6:30:00 PM 9.18 48.524 0.148 7.32 1.72 11.6
10/19/2022 6:45:00 PM 9.14 48.452 0.148 7.29 1.71 11.5
10/19/2022 7:00:00 PM 9.1 48.38 0.148 7.27 1.77 11.42
10/19/2022 7:15:00 PM 9.05 48.29 0.148 7.25 1.75 11.36
10/19/2022 7:30:00 PM 8.99 48.182 0.148 7.22 1.79 11.31
10/19/2022 7:45:00 PM 8.95 48.11 0.148 7.2 1.76 11.27
10/19/2022 8:00:00 PM 8.92 48.056 0.148 7.19 1.75 11.24
10/19/2022 8:15:00 PM 8.87 47.966 0.148 7.18 1.73 11.22
10/19/2022 8:30:00 PM 8.83 47.894 0.148 7.17 1.72 11.2
10/19/2022 8:45:00 PM 8.78 47.804 0.148 7.16 1.68 11.19
10/19/2022 9:00:00 PM 8.74 47.732 0.148 7.16 1.77 11.18
10/19/2022 9:15:00 PM 8.69 47.642 0.149 7.16 1.72 11.18
10/19/2022 9:30:00 PM 8.64 47.552 0.149 7.15 1.66 11.18
10/19/2022 9:45:00 PM 8.62 47.516 0.149 7.15 1.75 11.17
10/19/2022 10:00:00 PM 8.6 47.48 0.149 7.15 1.71 11.17
10/19/2022 10:15:00 PM 8.58 47.444 0.149 7.15 1.78 11.17
10/19/2022 10:30:00 PM 8.56 47.408 0.149 7.15 1.74 11.17
10/19/2022 10:45:00 PM 8.54 47.372 0.149 7.14 1.69 11.18
10/19/2022 11:00:00 PM 8.52 47.336 0.148 7.14 1.72 11.18
10/19/2022 11:15:00 PM 8.51 47.318 0.148 7.14 1.73 11.18
10/19/2022 11:30:00 PM 8.49 47.282 0.148 7.14 1.76 11.19
10/19/2022 11:45:00 PM 8.48 47.264 0.148 7.14 1.77 11.19
10/20/2022 12:00:00 AM 8.47 47.246 0.148 7.14 1.7 11.19
10/20/2022 12:15:00 AM 8.46 47.228 0.148 7.14 1.68 11.19
10/20/2022 12:30:00 AM 8.46 47.228 0.148 7.14 1.76 11.19
10/20/2022 12:45:00 AM 8.46 47.228 0.147 7.13 1.75 11.19
10/20/2022 1:00:00 AM 8.46 47.228 0.147 7.13 1.69 11.19
10/20/2022 1:15:00 AM 8.47 47.246 0.147 7.13 1.85 11.19
10/20/2022 1:30:00 AM 8.47 47.246 0.147 7.14 1.78 11.19
10/20/2022 1:45:00 AM 8.46 47.228 0.147 7.14 1.73 11.19
10/20/2022 2:00:00 AM 8.44 47.192 0.147 7.13 1.69 11.19
10/20/2022 2:15:00 AM 8.41 47.138 0.146 7.13 1.68 11.19
10/20/2022 2:30:00 AM 8.38 47.084 0.146 7.13 1.7 11.2
10/20/2022 2:45:00 AM 8.36 47.048 0.146 7.13 1.72 11.2
10/20/2022 3:00:00 AM 8.34 47.012 0.146 7.12 1.7 11.2
10/20/2022 3:15:00 AM 8.31 46.958 0.146 7.12 1.72 11.2
10/20/2022 3:30:00 AM 8.28 46.904 0.146 7.12 1.72 11.21
10/20/2022 3:45:00 AM 8.26 46.868 0.146 7.12 1.81 11.21
10/20/2022 4:00:00 AM 8.23 46.814 0.145 7.11 1.73 11.22
10/20/2022 4:15:00 AM 8.2 46.76 0.145 7.11 1.75 11.22
10/20/2022 4:30:00 AM 8.16 46.688 0.145 7.11 1.78 11.23
10/20/2022 4:45:00 AM 8.13 46.634 0.145 7.11 1.77 11.24
10/20/2022 5:00:00 AM 8.1 46.58 0.145 7.11 1.77 11.25
10/20/2022 5:15:00 AM 8.08 46.544 0.145 7.11 1.73 11.25
10/20/2022 5:30:00 AM 8.05 46.49 0.145 7.11 1.8 11.26
10/20/2022 5:45:00 AM 8.03 46.454 0.145 7.1 1.74 11.27
10/20/2022 6:00:00 AM 8.01 46.418 0.144 7.11 1.71 11.28
10/20/2022 6:15:00 AM 7.97 46.346 0.144 7.1 1.76 11.28
10/20/2022 6:30:00 AM 7.94 46.292 0.144 7.1 1.73 11.3
10/20/2022 6:45:00 AM 7.91 46.238 0.144 7.1 1.69 11.31
10/20/2022 7:00:00 AM 7.89 46.202 0.144 7.1 1.68 11.31
10/20/2022 7:15:00 AM 7.86 46.148 0.144 7.1 1.72 11.33
10/20/2022 7:30:00 AM 7.84 46.112 0.144 7.1 1.73 11.34
10/20/2022 7:45:00 AM 7.81 46.058 0.144 7.1 1.72 11.37
10/20/2022 8:00:00 AM 7.79 46.022 0.144 7.11 1.73 11.42
10/20/2022 8:15:00 AM 7.75 45.95 0.144 7.11 1.74 11.47
10/20/2022 8:30:00 AM 7.73 45.914 0.144 7.12 1.74 11.54
10/20/2022 8:45:00 AM 7.72 45.896 0.144 7.13 1.75 11.61
10/20/2022 9:00:00 AM 7.72 45.896 0.144 7.15 1.71 11.7
10/20/2022 9:15:00 AM 7.74 45.932 0.144 7.16 1.79 11.8
10/20/2022 9:30:00 AM 7.8 46.04 0.144 7.18 1.67 11.92
10/20/2022 9:45:00 AM 7.81 46.058 0.144 7.2 1.74 11.98
10/20/2022 10:00:00 AM 7.85 46.13 0.143 7.21 1.71 12.07
10/20/2022 10:15:00 AM 7.88 46.184 0.143 7.23 1.72 12.14
10/20/2022 10:30:00 AM 7.92 46.256 0.143 7.24 1.73 12.22
10/20/2022 10:45:00 AM 7.98 46.364 0.143 7.26 1.72 12.28
10/20/2022 11:00:00 AM 8.05 46.49 0.143 7.28 1.65 12.35
10/20/2022 11:15:00 AM 8.12 46.616 0.143 7.29 1.65 12.4
10/20/2022 11:30:00 AM 8.19 46.742 0.143 7.31 1.71 12.44
10/20/2022 11:45:00 AM 8.26 46.868 0.143 7.33 1.73 12.47
10/20/2022 12:00:00 PM 8.33 46.994 0.143 7.34 1.69 12.49
10/20/2022 12:15:00 PM 8.39 47.102 0.143 7.35 1.69 12.52
10/20/2022 12:30:00 PM 8.49 47.282 0.143 7.36 1.67 12.54
10/20/2022 12:45:00 PM 8.6 47.48 0.143 7.39 1.81 12.55
10/20/2022 1:00:00 PM 8.7 47.66 0.143 7.4 1.63 12.56
10/20/2022 1:15:00 PM 8.79 47.822 0.143 7.41 1.66 12.56
10/20/2022 1:30:00 PM 8.91 48.038 0.143 7.42 1.68 12.55
10/20/2022 1:45:00 PM 8.99 48.182 0.143 7.43 1.7 12.54
10/20/2022 2:00:00 PM 9.09 48.362 0.143 7.43 1.69 12.53
10/20/2022 2:15:00 PM 9.21 48.578 0.143 7.45 1.68 12.51
10/20/2022 2:30:00 PM 9.4 48.92 0.143 7.46 1.64 12.48
10/20/2022 2:45:00 PM 9.58 49.244 0.143 7.46 1.65 12.43
10/20/2022 3:00:00 PM 9.72 49.496 0.143 7.47 1.75 12.39
10/20/2022 3:15:00 PM 9.85 49.73 0.143 7.46 1.68 12.36
10/20/2022 3:30:00 PM 9.9 49.82 0.143 7.46 1.67 12.31
10/20/2022 3:45:00 PM 9.83 49.694 0.143 7.45 1.73 12.27
10/20/2022 4:00:00 PM 9.69 49.442 0.143 7.44 1.71 12.19
10/20/2022 4:15:00 PM 9.57 49.226 0.144 7.43 1.69 12.11
10/20/2022 4:30:00 PM 9.49 49.082 0.144 7.42 1.75 12.03
10/20/2022 4:45:00 PM 9.43 48.974 0.144 7.4 1.75 11.95
10/20/2022 5:00:00 PM 9.35 48.83 0.145 7.39 1.79 11.86
10/20/2022 5:15:00 PM 9.29 48.722 0.145 7.37 1.73 11.79
10/20/2022 5:30:00 PM 9.25 48.65 0.145 7.35 1.74 11.73
10/20/2022 5:45:00 PM 9.2 48.56 0.145 7.33 1.71 11.68
10/20/2022 6:00:00 PM 9.15 48.47 0.145 7.32 1.85 11.62
10/20/2022 6:15:00 PM 9.09 48.362 0.146 7.3 1.71 11.56
10/20/2022 6:30:00 PM 9.02 48.236 0.146 7.28 1.72 11.5
10/20/2022 6:45:00 PM 8.95 48.11 0.146 7.27 1.76 11.44
10/20/2022 7:00:00 PM 8.89 48.002 0.146 7.25 1.72 11.39
10/20/2022 7:15:00 PM 8.82 47.876 0.146 7.24 1.79 11.35
10/20/2022 7:30:00 PM 8.78 47.804 0.146 7.23 1.76 11.32
10/20/2022 7:45:00 PM 8.74 47.732 0.147 7.22 1.82 11.29
10/20/2022 8:00:00 PM 8.71 47.678 0.147 7.21 1.8 11.27
10/20/2022 8:15:00 PM 8.67 47.606 0.147 7.2 1.78 11.26
10/20/2022 8:30:00 PM 8.64 47.552 0.147 7.19 1.8 11.25
10/20/2022 8:45:00 PM 8.61 47.498 0.147 7.19 1.72 11.25
10/20/2022 9:00:00 PM 8.57 47.426 0.147 7.18 1.78 11.25
10/20/2022 9:15:00 PM 8.54 47.372 0.147 7.18 1.75 11.25
10/20/2022 9:30:00 PM 8.5 47.3 0.147 7.17 1.77 11.25
10/20/2022 9:45:00 PM 8.47 47.246 0.147 7.17 1.78 11.26
10/20/2022 10:00:00 PM 8.43 47.174 0.147 7.17 1.78 11.26
10/20/2022 10:15:00 PM 8.39 47.102 0.147 7.16 1.8 11.27
10/20/2022 10:30:00 PM 8.35 47.03 0.147 7.16 1.77 11.28
10/20/2022 10:45:00 PM 8.33 46.994 0.147 7.16 1.76 11.28
10/20/2022 11:00:00 PM 8.3 46.94 0.147 7.15 1.71 11.29
10/20/2022 11:15:00 PM 8.28 46.904 0.147 7.15 1.79 11.29
10/20/2022 11:30:00 PM 8.27 46.886 0.147 7.15 1.93 11.29
10/20/2022 11:45:00 PM 8.25 46.85 0.147 7.14 1.77 11.3
10/21/2022 12:00:00 AM 8.24 46.832 0.147 7.14 1.75 11.3
10/21/2022 12:15:00 AM 8.23 46.814 0.147 7.14 1.73 11.31
10/21/2022 12:30:00 AM 8.21 46.778 0.147 7.14 1.73 11.3
10/21/2022 12:45:00 AM 8.17 46.706 0.147 7.13 1.81 11.31
10/21/2022 1:00:00 AM 8.14 46.652 0.147 7.13 1.74 11.32
10/21/2022 1:15:00 AM 8.09 46.562 0.147 7.13 1.77 11.32
10/21/2022 1:30:00 AM 8.05 46.49 0.147 7.13 1.79 11.33
10/21/2022 1:45:00 AM 8.01 46.418 0.147 7.13 1.74 11.34
10/21/2022 2:00:00 AM 7.98 46.364 0.146 7.13 1.76 11.35
10/21/2022 2:15:00 AM 7.93 46.274 0.146 7.13 1.77 11.36
10/21/2022 2:30:00 AM 7.9 46.22 0.146 7.13 1.76 11.37
10/21/2022 2:45:00 AM 7.86 46.148 0.146 7.12 1.75 11.38
10/21/2022 3:00:00 AM 7.82 46.076 0.146 7.12 1.72 11.39
10/21/2022 3:15:00 AM 7.78 46.004 0.146 7.12 1.75 11.4
10/21/2022 3:30:00 AM 7.74 45.932 0.146 7.12 1.81 11.41
10/21/2022 3:45:00 AM 7.71 45.878 0.146 7.12 1.79 11.43
10/21/2022 4:00:00 AM 7.67 45.806 0.146 7.12 2 11.44
10/21/2022 4:15:00 AM 7.63 45.734 0.146 7.12 1.86 11.45
10/21/2022 4:30:00 AM 7.59 45.662 0.146 7.12 1.91 11.46
10/21/2022 4:45:00 AM 7.55 45.59 0.146 7.12 1.83 11.47
10/21/2022 5:00:00 AM 7.51 45.518 0.146 7.12 1.79 11.48
10/21/2022 5:15:00 AM 7.47 45.446 0.146 7.12 1.92 11.5
10/21/2022 5:30:00 AM 7.43 45.374 0.146 7.11 1.8 11.51
10/21/2022 5:45:00 AM 7.39 45.302 0.146 7.1 1.78 11.53
10/21/2022 6:00:00 AM 7.35 45.23 0.146 7.09 1.78 11.54
10/21/2022 6:15:00 AM 7.31 45.158 0.146 7.09 1.72 11.55
10/21/2022 6:30:00 AM 7.27 45.086 0.146 7.09 1.73 11.57
10/21/2022 6:45:00 AM 7.23 45.014 0.146 7.09 1.71 11.58
10/21/2022 7:00:00 AM 7.2 44.96 0.146 7.09 1.77 11.6
10/21/2022 7:15:00 AM 7.16 44.888 0.146 7.09 1.92 11.6
10/21/2022 7:30:00 AM 7.13 44.834 0.146 7.09 1.72 11.63
10/21/2022 7:45:00 AM 7.1 44.78 0.146 7.1 2.2 11.67
10/21/2022 8:00:00 AM 7.07 44.726 0.146 7.1 2.43 11.72
10/21/2022 8:15:00 AM 7.05 44.69 0.146 7.11 1.69 11.78
10/21/2022 8:30:00 AM 7.03 44.654 0.146 7.12 1.72 11.85
10/21/2022 8:45:00 AM 7.03 44.654 0.146 7.13 1.81 11.92
10/21/2022 9:00:00 AM 7.03 44.654 0.146 7.15 2.12 12
10/21/2022 9:15:00 AM 7.05 44.69 0.146 7.16 1.72 12.09
10/21/2022 9:30:00 AM 7.08 44.744 0.146 7.17 1.66 12.16
10/21/2022 9:45:00 AM 7.12 44.816 0.146 7.18 4.63 12.22
10/21/2022 10:00:00 AM 7.17 44.906 0.145 7.19 13.95 12.28
10/21/2022 10:15:00 AM 7.23 45.014 0.145 7.22 2.87 12.33
10/21/2022 10:30:00 AM 7.3 45.14 0.145 7.22 2.46 12.37
10/21/2022 10:45:00 AM 7.37 45.266 0.145 7.24 3.26 12.4
10/21/2022 11:00:00 AM 7.45 45.41 0.145 7.25 3.06 12.43
10/21/2022 11:15:00 AM 7.55 45.59 0.145 7.25 3.94 12.45
10/21/2022 11:30:00 AM 7.67 45.806 0.145 7.26 2.67 12.47
10/21/2022 11:45:00 AM 7.81 46.058 0.145 7.27 2.87 12.48
10/21/2022 12:00:00 PM 7.96 46.328 0.145 7.29 5.16 12.48
10/21/2022 12:15:00 PM 8.14 46.652 0.145 7.29 1.64 12.49
10/21/2022 12:30:00 PM 8.35 47.03 0.144 7.3 1.66 12.5
10/21/2022 12:45:00 PM 8.59 47.462 0.144 7.31 1.64 12.49
10/21/2022 1:00:00 PM 8.86 47.948 0.144 7.32 1.62 12.47
10/21/2022 1:15:00 PM 9.15 48.47 0.144 7.34 1.69 12.45
10/21/2022 1:30:00 PM 9.44 48.992 0.144 7.34 1.75 12.41
10/21/2022 1:45:00 PM 9.73 49.514 0.144 7.35 1.65 12.37
10/21/2022 2:00:00 PM 9.99 49.982 0.144 7.35 1.7 12.33
10/21/2022 2:15:00 PM 10.21 50.378 0.144 7.36 1.67 12.29
10/21/2022 2:30:00 PM 10.38 50.684 0.144 7.36 1.63 12.24
10/21/2022 2:45:00 PM 10.51 50.918 0.144 7.37 1.71 12.2
10/21/2022 3:00:00 PM 10.61 51.098 0.144 7.38 1.92 12.16
10/21/2022 3:15:00 PM 10.65 51.17 0.144 7.38 1.64 12.12
10/21/2022 3:30:00 PM 10.61 51.098 0.144 7.38 1.69 12.07
10/21/2022 3:45:00 PM 10.5 50.9 0.144 7.38 1.74 12.02
10/21/2022 4:00:00 PM 10.3 50.54 0.144 7.37 1.68 11.96
10/21/2022 4:15:00 PM 10.14 50.252 0.144 7.36 1.69 11.9
10/21/2022 4:30:00 PM 10 50 0.144 7.35 1.7 11.85
10/21/2022 4:45:00 PM 9.89 49.802 0.144 7.34 1.77 11.79
10/21/2022 5:00:00 PM 9.78 49.604 0.144 7.33 1.67 11.72
10/21/2022 5:15:00 PM 9.7 49.46 0.145 7.32 1.67 11.66
10/21/2022 5:30:00 PM 9.66 49.388 0.145 7.3 1.69 11.62
10/21/2022 5:45:00 PM 9.61 49.298 0.145 7.29 1.71 11.57
10/21/2022 6:00:00 PM 9.56 49.208 0.145 7.28 1.81 11.52
10/21/2022 6:15:00 PM 9.5 49.1 0.145 7.27 1.75 11.46
10/21/2022 6:30:00 PM 9.43 48.974 0.145 7.26 1.81 11.39
10/21/2022 6:45:00 PM 9.36 48.848 0.145 7.24 1.77 11.32
10/21/2022 7:00:00 PM 9.29 48.722 0.145 7.22 1.74 11.27
10/21/2022 7:15:00 PM 9.23 48.614 0.146 7.21 1.76 11.22
10/21/2022 7:30:00 PM 9.15 48.47 0.146 7.2 1.79 11.19
10/21/2022 7:45:00 PM 9.08 48.344 0.146 7.19 1.78 11.17
10/21/2022 8:00:00 PM 9.02 48.236 0.146 7.18 1.8 11.15
10/21/2022 8:15:00 PM 8.95 48.11 0.146 7.17 1.73 11.15
10/21/2022 8:30:00 PM 8.88 47.984 0.146 7.17 1.79 11.15
10/21/2022 8:45:00 PM 8.81 47.858 0.146 7.17 1.74 11.15
10/21/2022 9:00:00 PM 8.75 47.75 0.146 7.16 1.87 11.15
10/21/2022 9:15:00 PM 8.67 47.606 0.147 7.16 1.76 11.17
10/21/2022 9:30:00 PM 8.6 47.48 0.147 7.15 1.84 11.18
10/21/2022 9:45:00 PM 8.53 47.354 0.147 7.15 1.8 11.2
10/21/2022 10:00:00 PM 8.45 47.21 0.147 7.14 1.7 11.22
10/21/2022 10:15:00 PM 8.37 47.066 0.148 7.14 1.78 11.24
10/21/2022 10:30:00 PM 8.29 46.922 0.148 7.14 1.81 11.26
10/21/2022 10:45:00 PM 8.22 46.796 0.148 7.14 1.87 11.28
10/21/2022 11:00:00 PM 8.15 46.67 0.148 7.14 1.83 11.3
10/21/2022 11:15:00 PM 8.08 46.544 0.148 7.13 1.76 11.32
10/21/2022 11:30:00 PM 8.01 46.418 0.148 7.13 1.75 11.34
10/21/2022 11:45:00 PM 7.95 46.31 0.148 7.13 1.72 11.37
10/22/2022 12:00:00 AM 7.89 46.202 0.148 7.13 1.7 11.39
10/22/2022 12:15:00 AM 7.83 46.094 0.148 7.13 1.75 11.41
10/22/2022 12:30:00 AM 7.77 45.986 0.148 7.12 1.71 11.43
10/22/2022 12:45:00 AM 7.73 45.914 0.148 7.12 1.75 11.44
10/22/2022 1:00:00 AM 7.68 45.824 0.148 7.12 1.79 11.46
10/22/2022 1:15:00 AM 7.64 45.752 0.148 7.12 1.76 11.47
10/22/2022 1:30:00 AM 7.6 45.68 0.148 7.12 1.82 11.48
10/22/2022 1:45:00 AM 7.57 45.626 0.148 7.11 1.95 11.49
10/22/2022 2:00:00 AM 7.54 45.572 0.148 7.11 1.79 11.5
10/22/2022 2:15:00 AM 7.5 45.5 0.148 7.11 1.78 11.52
10/22/2022 2:30:00 AM 7.48 45.464 0.148 7.11 1.83 11.53
10/22/2022 2:45:00 AM 7.45 45.41 0.148 7.11 1.89 11.54
10/22/2022 3:00:00 AM 7.42 45.356 0.148 7.11 1.95 11.54
10/22/2022 3:15:00 AM 7.4 45.32 0.148 7.11 2.03 11.55
10/22/2022 3:30:00 AM 7.38 45.284 0.148 7.11 1.85 11.56
10/22/2022 3:45:00 AM 7.35 45.23 0.148 7.11 1.72 11.57
10/22/2022 4:00:00 AM 7.32 45.176 0.148 7.11 1.82 11.58
10/22/2022 4:15:00 AM 7.3 45.14 0.148 7.1 1.82 11.58
10/22/2022 4:30:00 AM 7.28 45.104 0.148 7.1 1.72 11.59
10/22/2022 4:45:00 AM 7.26 45.068 0.148 7.1 1.73 11.6
10/22/2022 5:00:00 AM 7.24 45.032 0.148 7.1 1.73 11.61
10/22/2022 5:15:00 AM 7.22 44.996 0.148 7.1 1.82 11.61
10/22/2022 5:30:00 AM 7.2 44.96 0.148 7.1 1.83 11.62
10/22/2022 5:45:00 AM 7.17 44.906 0.148 7.1 1.95 11.63
10/22/2022 6:00:00 AM 7.15 44.87 0.148 7.1 1.67 11.63
10/22/2022 6:15:00 AM 7.13 44.834 0.148 7.1 1.72 11.64
10/22/2022 6:30:00 AM 7.11 44.798 0.148 7.1 1.65 11.65
10/22/2022 6:45:00 AM 7.09 44.762 0.148 7.1 1.64 11.66
10/22/2022 7:00:00 AM 7.07 44.726 0.148 7.1 1.7 11.67
10/22/2022 7:15:00 AM 7.05 44.69 0.148 7.1 1.7 11.68
10/22/2022 7:30:00 AM 7.03 44.654 0.148 7.1 1.69 11.69
10/22/2022 7:45:00 AM 7.02 44.636 0.148 7.1 15.59 11.71
10/22/2022 8:00:00 AM 7 44.6 0.148 7.11 4.99 11.76
10/22/2022 8:15:00 AM 6.99 44.582 0.148 7.11 2.03 11.82
10/22/2022 8:30:00 AM 6.98 44.564 0.148 7.12 1.62 11.88
10/22/2022 8:45:00 AM 6.98 44.564 0.148 7.13 1.9 11.95
10/22/2022 9:00:00 AM 7 44.6 0.148 7.14 2.6 12.03
10/22/2022 9:15:00 AM 7.02 44.636 0.148 7.15 1.76 12.11
10/22/2022 9:30:00 AM 7.06 44.708 0.148 7.16 1.66 12.18
10/22/2022 9:45:00 AM 7.11 44.798 0.147 7.17 1.63 12.25
10/22/2022 10:00:00 AM 7.17 44.906 0.147 7.18 1.62 12.31
10/22/2022 10:15:00 AM 7.25 45.05 0.147 7.19 1.66 12.35
10/22/2022 10:30:00 AM 7.32 45.176 0.147 7.2 1.64 12.39
10/22/2022 10:45:00 AM 7.41 45.338 0.147 7.21 1.7 12.42
10/22/2022 11:00:00 AM 7.5 45.5 0.147 7.22 2.13 12.43
10/22/2022 11:15:00 AM 7.62 45.716 0.147 7.23 1.67 12.46
10/22/2022 11:30:00 AM 7.77 45.986 0.147 7.24 7.34 12.47
10/22/2022 11:45:00 AM 7.93 46.274 0.147 7.25 1.56 12.49
10/22/2022 12:00:00 PM 8.12 46.616 0.146 7.26 1.6 12.5
10/22/2022 12:15:00 PM 8.33 46.994 0.146 7.27 1.61 12.5
10/22/2022 12:30:00 PM 8.56 47.408 0.146 7.28 1.6 12.5
10/22/2022 12:45:00 PM 8.83 47.894 0.146 7.29 1.62 12.49
10/22/2022 1:00:00 PM 9.12 48.416 0.146 7.3 1.65 12.48
10/22/2022 1:15:00 PM 9.41 48.938 0.146 7.31 1.58 12.44
10/22/2022 1:30:00 PM 9.73 49.514 0.146 7.32 1.64 12.41
10/22/2022 1:45:00 PM 10.05 50.09 0.146 7.33 1.61 12.36
10/22/2022 2:00:00 PM 10.34 50.612 0.145 7.34 1.6 12.31
10/22/2022 2:15:00 PM 10.59 51.062 0.145 7.35 1.64 12.27
10/22/2022 2:30:00 PM 10.81 51.458 0.145 7.36 1.56 12.22
10/22/2022 2:45:00 PM 10.97 51.746 0.145 7.36 1.54 12.17
10/22/2022 3:00:00 PM 11.08 51.944 0.145 7.36 1.67 12.12
10/22/2022 3:15:00 PM 11.13 52.034 0.145 7.37 1.66 12.07
10/22/2022 3:30:00 PM 11.11 51.998 0.146 7.37 1.66 12.03
10/22/2022 3:45:00 PM 11 51.8 0.146 7.37 1.66 11.97
10/22/2022 4:00:00 PM 10.81 51.458 0.146 7.36 1.65 11.9
10/22/2022 4:15:00 PM 10.64 51.152 0.146 7.35 1.69 11.83
10/22/2022 4:30:00 PM 10.51 50.918 0.146 7.34 1.68 11.77
10/22/2022 4:45:00 PM 10.4 50.72 0.146 7.33 1.66 11.71
10/22/2022 5:00:00 PM 10.28 50.504 0.146 7.32 1.75 11.64
10/22/2022 5:15:00 PM 10.19 50.342 0.146 7.3 1.65 11.57
10/22/2022 5:30:00 PM 10.13 50.234 0.146 7.29 1.73 11.52
10/22/2022 5:45:00 PM 10.08 50.144 0.147 7.28 1.8 11.48
10/22/2022 6:00:00 PM 10.02 50.036 0.147 7.27 1.72 11.43
10/22/2022 6:15:00 PM 9.95 49.91 0.147 7.25 1.63 11.36
10/22/2022 6:30:00 PM 9.89 49.802 0.147 7.24 1.72 11.29
10/22/2022 6:45:00 PM 9.82 49.676 0.147 7.22 1.82 11.22
10/22/2022 7:00:00 PM 9.76 49.568 0.147 7.21 1.77 11.16
10/22/2022 7:15:00 PM 9.69 49.442 0.148 7.2 1.74 11.12
10/22/2022 7:30:00 PM 9.63 49.334 0.148 7.19 1.73 11.09
10/22/2022 7:45:00 PM 9.57 49.226 0.148 7.18 1.65 11.07
10/22/2022 8:00:00 PM 9.51 49.118 0.148 7.17 1.77 11.05
10/22/2022 8:15:00 PM 9.46 49.028 0.148 7.17 1.77 11.04
10/22/2022 8:30:00 PM 9.4 48.92 0.148 7.16 1.75 11.04
10/22/2022 8:45:00 PM 9.34 48.812 0.148 7.16 1.69 11.04
10/22/2022 9:00:00 PM 9.28 48.704 0.148 7.15 1.73 11.05
10/22/2022 9:15:00 PM 9.23 48.614 0.148 7.15 1.71 11.06
10/22/2022 9:30:00 PM 9.17 48.506 0.148 7.15 1.66 11.07
10/22/2022 9:45:00 PM 9.1 48.38 0.149 7.15 1.66 11.08
10/22/2022 10:00:00 PM 9.04 48.272 0.149 7.14 1.69 11.1
10/22/2022 10:15:00 PM 8.97 48.146 0.149 7.14 1.7 11.11
10/22/2022 10:30:00 PM 8.91 48.038 0.149 7.14 1.62 11.13
10/22/2022 10:45:00 PM 8.84 47.912 0.149 7.14 1.74 11.15
10/22/2022 11:00:00 PM 8.77 47.786 0.149 7.13 1.69 11.16
10/22/2022 11:15:00 PM 8.71 47.678 0.149 7.13 1.71 11.18
10/22/2022 11:30:00 PM 8.64 47.552 0.149 7.12 1.7 11.21
10/22/2022 11:45:00 PM 8.57 47.426 0.15 7.12 1.7 11.23
10/23/2022 12:00:00 AM 8.51 47.318 0.15 7.12 1.64 11.25
10/23/2022 12:15:00 AM 8.44 47.192 0.15 7.12 1.69 11.27
10/23/2022 12:30:00 AM 8.38 47.084 0.15 7.12 1.99 11.29
10/23/2022 12:45:00 AM 8.32 46.976 0.15 7.11 1.81 11.32
10/23/2022 1:00:00 AM 8.27 46.886 0.15 7.11 1.88 11.33
10/23/2022 1:15:00 AM 8.22 46.796 0.15 7.11 1.74 11.35
10/23/2022 1:30:00 AM 8.16 46.688 0.15 7.11 1.73 11.37
10/23/2022 1:45:00 AM 8.11 46.598 0.15 7.11 1.7 11.38
10/23/2022 2:00:00 AM 8.06 46.508 0.15 7.11 1.73 11.4
10/23/2022 2:15:00 AM 8.01 46.418 0.15 7.11 1.68 11.42
10/23/2022 2:30:00 AM 7.97 46.346 0.15 7.1 1.76 11.43
10/23/2022 2:45:00 AM 7.92 46.256 0.15 7.1 1.76 11.44
10/23/2022 3:00:00 AM 7.88 46.184 0.15 7.1 1.73 11.45
10/23/2022 3:15:00 AM 7.85 46.13 0.15 7.1 1.7 11.47
10/23/2022 3:30:00 AM 7.81 46.058 0.149 7.1 1.75 11.48
10/23/2022 3:45:00 AM 7.78 46.004 0.149 7.1 1.76 11.48
10/23/2022 4:00:00 AM 7.75 45.95 0.149 7.1 1.76 11.49
10/23/2022 4:15:00 AM 7.72 45.896 0.149 7.1 1.78 11.5
10/23/2022 4:30:00 AM 7.7 45.86 0.149 7.1 1.82 11.5
10/23/2022 4:45:00 AM 7.68 45.824 0.149 7.1 2.16 11.51
10/23/2022 5:00:00 AM 7.65 45.77 0.149 7.1 1.8 11.52
10/23/2022 5:15:00 AM 7.63 45.734 0.149 7.1 2.03 11.52
10/23/2022 5:30:00 AM 7.61 45.698 0.149 7.09 1.73 11.52
10/23/2022 5:45:00 AM 7.59 45.662 0.149 7.09 1.91 11.53
10/23/2022 6:00:00 AM 7.58 45.644 0.149 7.09 1.72 11.54
10/23/2022 6:15:00 AM 7.57 45.626 0.149 7.09 1.67 11.54
10/23/2022 6:30:00 AM 7.55 45.59 0.15 7.09 1.7 11.55
10/23/2022 6:45:00 AM 7.53 45.554 0.15 7.09 1.7 11.55
10/23/2022 7:00:00 AM 7.51 45.518 0.15 7.09 1.63 11.56
10/23/2022 7:15:00 AM 7.5 45.5 0.15 7.09 1.67 11.57
10/23/2022 7:30:00 AM 7.48 45.464 0.15 7.09 1.73 11.58
10/23/2022 7:45:00 AM 7.47 45.446 0.15 7.09 1.65 11.59
10/23/2022 8:00:00 AM 7.46 45.428 0.15 7.1 1.66 11.63
10/23/2022 8:15:00 AM 7.46 45.428 0.15 7.1 1.59 11.69
10/23/2022 8:30:00 AM 7.47 45.446 0.15 7.11 1.6 11.78
10/23/2022 8:45:00 AM 7.49 45.482 0.15 7.13 1.66 11.88
10/23/2022 9:00:00 AM 7.5 45.5 0.15 7.14 1.63 11.96
10/23/2022 9:15:00 AM 7.51 45.518 0.15 7.15 1.65 12.05
10/23/2022 9:30:00 AM 7.53 45.554 0.15 7.16 1.65 12.13
10/23/2022 9:45:00 AM 7.59 45.662 0.15 7.18 1.62 12.21
10/23/2022 10:00:00 AM 7.68 45.824 0.15 7.19 1.66 12.29
10/23/2022 10:15:00 AM 7.76 45.968 0.15 7.2 1.61 12.33
10/23/2022 10:30:00 AM 7.86 46.148 0.15 7.22 1.72 12.39
10/23/2022 10:45:00 AM 7.93 46.274 0.15 7.23 2.01 12.43
10/23/2022 11:00:00 AM 8.01 46.418 0.15 7.24 1.64 12.47
10/23/2022 11:15:00 AM 8.09 46.562 0.15 7.25 1.61 12.49
10/23/2022 11:30:00 AM 8.19 46.742 0.15 7.27 1.64 12.51
10/23/2022 11:45:00 AM 8.33 46.994 0.149 7.28 1.63 12.54
10/23/2022 12:00:00 PM 8.52 47.336 0.149 7.29 1.68 12.58
10/23/2022 12:15:00 PM 8.74 47.732 0.149 7.31 1.6 12.6
10/23/2022 12:30:00 PM 8.99 48.182 0.149 7.32 1.61 12.6
10/23/2022 12:45:00 PM 9.28 48.704 0.149 7.34 1.58 12.58
10/23/2022 1:00:00 PM 9.48 49.064 0.149 7.34 1.65 12.54
10/23/2022 1:15:00 PM 9.76 49.568 0.149 7.35 1.59 12.51
10/23/2022 1:30:00 PM 10.1 50.18 0.149 7.37 1.59 12.49
10/23/2022 1:45:00 PM 10.43 50.774 0.149 7.38 1.61 12.44
10/23/2022 2:00:00 PM 10.7 51.26 0.149 7.39 1.64 12.39
10/23/2022 2:15:00 PM 10.83 51.494 0.149 7.4 1.61 12.34
10/23/2022 2:30:00 PM 10.94 51.692 0.149 7.41 1.58 12.31
10/23/2022 2:45:00 PM 10.98 51.764 0.149 7.42 1.6 12.28
10/23/2022 3:00:00 PM 11.08 51.944 0.149 7.43 1.59 12.26
10/23/2022 3:15:00 PM 11.12 52.016 0.149 7.44 1.57 12.21
10/23/2022 3:30:00 PM 11.16 52.088 0.149 7.45 1.59 12.19
10/23/2022 3:45:00 PM 11.18 52.124 0.149 7.45 1.62 12.15
10/23/2022 4:00:00 PM 11.2 52.16 0.15 7.45 1.66 12.13
10/23/2022 4:15:00 PM 11.23 52.214 0.15 7.45 1.68 12.09
10/23/2022 4:30:00 PM 11.2 52.16 0.15 7.45 1.62 12.04
10/23/2022 4:45:00 PM 11.15 52.07 0.15 7.44 1.66 11.95
10/23/2022 5:00:00 PM 11.11 51.998 0.15 7.43 1.6 11.9
10/23/2022 5:15:00 PM 11.05 51.89 0.15 7.41 1.66 11.82
10/23/2022 5:30:00 PM 10.99 51.782 0.15 7.4 1.65 11.72
10/23/2022 5:45:00 PM 10.95 51.71 0.15 7.37 1.66 11.61
10/23/2022 6:00:00 PM 10.91 51.638 0.151 7.35 1.65 11.48
10/23/2022 6:15:00 PM 10.87 51.566 0.151 7.32 1.89 11.35
10/23/2022 6:30:00 PM 10.85 51.53 0.151 7.3 2.53 11.23
10/23/2022 6:45:00 PM 10.83 51.494 0.151 7.28 1.71 11.12
10/23/2022 7:00:00 PM 10.82 51.476 0.151 7.26 1.72 11.02
10/23/2022 7:15:00 PM 10.82 51.476 0.152 7.24 1.72 10.94
10/23/2022 7:30:00 PM 10.81 51.458 0.152 7.22 1.73 10.88
10/23/2022 7:45:00 PM 10.79 51.422 0.152 7.21 1.68 10.82
10/23/2022 8:00:00 PM 10.76 51.368 0.152 7.2 1.68 10.79
10/23/2022 8:15:00 PM 10.73 51.314 0.152 7.19 1.69 10.76
10/23/2022 8:30:00 PM 10.71 51.278 0.152 7.18 1.75 10.74
10/23/2022 8:45:00 PM 10.67 51.206 0.152 7.17 1.64 10.73
10/23/2022 9:00:00 PM 10.62 51.116 0.153 7.16 1.83 10.72
10/23/2022 9:15:00 PM 10.56 51.008 0.153 7.15 1.7 10.72
10/23/2022 9:30:00 PM 10.5 50.9 0.153 7.15 1.67 10.72
10/23/2022 9:45:00 PM 10.44 50.792 0.153 7.14 1.66 10.72
10/23/2022 10:00:00 PM 10.38 50.684 0.153 7.13 1.69 10.73
10/23/2022 10:15:00 PM 10.32 50.576 0.153 7.13 1.83 10.73
10/23/2022 10:30:00 PM 10.26 50.468 0.153 7.12 1.61 10.75
10/23/2022 10:45:00 PM 10.19 50.342 0.153 7.12 1.64 10.76
10/23/2022 11:00:00 PM 10.14 50.252 0.154 7.12 1.69 10.77
10/23/2022 11:15:00 PM 10.08 50.144 0.154 7.12 1.69 10.78
10/23/2022 11:30:00 PM 10.02 50.036 0.154 7.11 1.64 10.8
10/23/2022 11:45:00 PM 9.97 49.946 0.154 7.11 1.62 10.81
10/24/2022 12:00:00 AM 9.91 49.838 0.154 7.11 1.64 10.83
10/24/2022 12:15:00 AM 9.86 49.748 0.154 7.11 1.66 10.84
10/24/2022 12:30:00 AM 9.82 49.676 0.154 7.1 1.63 10.86
10/24/2022 12:45:00 AM 9.78 49.604 0.154 7.1 1.65 10.87
10/24/2022 1:00:00 AM 9.74 49.532 0.154 7.1 1.63 10.88
10/24/2022 1:15:00 AM 9.7 49.46 0.154 7.1 1.67 10.89
10/24/2022 1:30:00 AM 9.66 49.388 0.154 7.1 1.63 10.91
10/24/2022 1:45:00 AM 9.63 49.334 0.154 7.1 1.71 10.92
10/24/2022 2:00:00 AM 9.61 49.298 0.154 7.09 1.68 10.93
10/24/2022 2:15:00 AM 9.58 49.244 0.154 7.09 1.68 10.94
10/24/2022 2:30:00 AM 9.56 49.208 0.154 7.09 1.73 10.94
10/24/2022 2:45:00 AM 9.54 49.172 0.154 7.09 1.65 10.95
10/24/2022 3:00:00 AM 9.52 49.136 0.154 7.09 1.62 10.96
10/24/2022 3:15:00 AM 9.5 49.1 0.154 7.09 1.65 10.97
10/24/2022 3:30:00 AM 9.48 49.064 0.154 7.09 1.7 10.97
10/24/2022 3:45:00 AM 9.48 49.064 0.154 7.09 1.65 10.97
10/24/2022 4:00:00 AM 9.47 49.046 0.154 7.08 1.61 10.98
10/24/2022 4:15:00 AM 9.47 49.046 0.154 7.08 1.66 10.98
10/24/2022 4:30:00 AM 9.47 49.046 0.154 7.08 1.65 10.98
10/24/2022 4:45:00 AM 9.47 49.046 0.154 7.08 1.74 10.98
10/24/2022 5:00:00 AM 9.48 49.064 0.154 7.08 1.78 10.97
10/24/2022 5:15:00 AM 9.49 49.082 0.154 7.08 1.69 10.96
10/24/2022 5:30:00 AM 9.5 49.1 0.154 7.08 1.58 10.96
10/24/2022 5:45:00 AM 9.51 49.118 0.154 7.08 1.63 10.96
10/24/2022 6:00:00 AM 9.52 49.136 0.154 7.08 1.8 10.95
10/24/2022 6:15:00 AM 9.54 49.172 0.154 7.08 1.62 10.95
10/24/2022 6:30:00 AM 9.56 49.208 0.154 7.08 1.63 10.94
10/24/2022 6:45:00 AM 9.57 49.226 0.154 7.08 1.77 10.93
10/24/2022 7:00:00 AM 9.59 49.262 0.154 7.07 1.55 10.93
10/24/2022 7:15:00 AM 9.61 49.298 0.154 7.07 1.63 10.92
10/24/2022 7:30:00 AM 9.62 49.316 0.154 7.07 1.66 10.92
10/24/2022 7:45:00 AM 9.64 49.352 0.154 7.07 1.73 10.92
10/24/2022 8:00:00 AM 9.66 49.388 0.154 7.08 1.55 10.94
10/24/2022 8:15:00 AM 9.68 49.424 0.154 7.08 1.58 10.98
10/24/2022 8:30:00 AM 9.71 49.478 0.154 7.09 1.7 11.02
10/24/2022 8:45:00 AM 9.73 49.514 0.154 7.1 1.64 11.09
10/24/2022 9:00:00 AM 9.77 49.586 0.153 7.11 1.55 11.18
10/24/2022 9:15:00 AM 9.81 49.658 0.153 7.13 4.46 11.27
10/24/2022 9:30:00 AM 9.86 49.748 0.153 7.14 2.42 11.36
10/24/2022 9:45:00 AM 9.91 49.838 0.153 7.16 1.59 11.48
10/24/2022 10:00:00 AM 9.97 49.946 0.153 7.17 1.64 11.57
10/24/2022 10:15:00 AM 10.05 50.09 0.152 7.19 1.79 11.67
10/24/2022 10:30:00 AM 10.15 50.27 0.152 7.22 1.61 11.8
10/24/2022 10:45:00 AM 10.28 50.504 0.152 7.24 1.63 11.9
10/24/2022 11:00:00 AM 10.4 50.72 0.152 7.27 1.64 11.97
10/24/2022 11:15:00 AM 10.5 50.9 0.151 7.29 1.94 12.01
10/24/2022 11:30:00 AM 10.63 51.134 0.151 7.31 1.55 12.05
10/24/2022 11:45:00 AM 10.81 51.458 0.151 7.33 1.49 12.08
10/24/2022 12:00:00 PM 10.98 51.764 0.151 7.34 7.55 12.09
10/24/2022 12:15:00 PM 11.13 52.034 0.151 7.36 1.74 12.1
10/24/2022 12:30:00 PM 11.27 52.286 0.151 7.38 1.57 12.1
10/24/2022 12:45:00 PM 11.38 52.484 0.151 7.39 1.78 12.08
10/24/2022 1:00:00 PM 11.4 52.52 0.151 7.4 1.56 12.05
10/24/2022 1:15:00 PM 11.41 52.538 0.151 7.41 1.57 12.01
10/24/2022 1:30:00 PM 11.44 52.592 0.151 7.41 1.6 11.99
10/24/2022 1:45:00 PM 11.48 52.664 0.151 7.42 1.9 11.98
10/24/2022 2:00:00 PM 11.51 52.718 0.151 7.43 1.63 11.96
10/24/2022 2:15:00 PM 11.58 52.844 0.151 7.44 1.5 11.96
10/24/2022 2:30:00 PM 11.7 53.06 0.15 7.45 1.59 11.98
10/24/2022 2:45:00 PM 11.8 53.24 0.151 7.47 1.56 11.97
10/24/2022 3:00:00 PM 11.9 53.42 0.151 7.48 1.51 11.96
10/24/2022 3:15:00 PM 12 53.6 0.151 7.49 1.55 11.94
10/24/2022 3:30:00 PM 12.07 53.726 0.151 7.49 1.64 11.91
10/24/2022 3:45:00 PM 12.1 53.78 0.151 7.5 1.49 11.87
10/24/2022 4:00:00 PM 12.15 53.87 0.151 7.5 1.55 11.85
10/24/2022 4:15:00 PM 12.17 53.906 0.151 7.5 1.49 11.8
10/24/2022 4:30:00 PM 12.18 53.924 0.151 7.5 1.62 11.75
10/24/2022 4:45:00 PM 12.18 53.924 0.152 7.48 1.54 11.7
10/24/2022 5:00:00 PM 12.18 53.924 0.152 7.47 1.51 11.62
10/24/2022 5:15:00 PM 12.17 53.906 0.152 7.46 1.52 11.53
10/24/2022 5:30:00 PM 12.18 53.924 0.152 7.44 1.55 11.44
10/24/2022 5:45:00 PM 12.19 53.942 0.153 7.42 1.64 11.33
10/24/2022 6:00:00 PM 12.19 53.942 0.153 7.39 1.62 11.21
10/24/2022 6:15:00 PM 12.17 53.906 0.153 7.36 1.54 11.06
10/24/2022 6:30:00 PM 12.12 53.816 0.154 7.33 1.56 10.9
10/24/2022 6:45:00 PM 12.08 53.744 0.154 7.3 1.6 10.77
10/24/2022 7:00:00 PM 12.02 53.636 0.155 7.27 1.53 10.67
10/24/2022 7:15:00 PM 11.97 53.546 0.155 7.25 1.7 10.58
10/24/2022 7:30:00 PM 11.91 53.438 0.155 7.23 1.62 10.52
10/24/2022 7:45:00 PM 11.87 53.366 0.156 7.21 1.63 10.47
10/24/2022 8:00:00 PM 11.82 53.276 0.156 7.2 1.54 10.42
10/24/2022 8:15:00 PM 11.78 53.204 0.156 7.19 1.57 10.4
10/24/2022 8:30:00 PM 11.75 53.15 0.157 7.18 1.6 10.37
10/24/2022 8:45:00 PM 11.71 53.078 0.157 7.17 1.69 10.35
10/24/2022 9:00:00 PM 11.68 53.024 0.158 7.16 1.63 10.33
10/24/2022 9:15:00 PM 11.64 52.952 0.158 7.14 1.55 10.31
10/24/2022 9:30:00 PM 11.6 52.88 0.159 7.14 1.57 10.3
10/24/2022 9:45:00 PM 11.57 52.826 0.159 7.13 1.65 10.29
10/24/2022 10:00:00 PM 11.54 52.772 0.159 7.12 1.64 10.28
10/24/2022 10:15:00 PM 11.51 52.718 0.16 7.12 1.53 10.27
10/24/2022 10:30:00 PM 11.48 52.664 0.16 7.11 1.55 10.27
10/24/2022 10:45:00 PM 11.45 52.61 0.16 7.11 1.52 10.27
10/24/2022 11:00:00 PM 11.42 52.556 0.16 7.1 1.63 10.27
10/24/2022 11:15:00 PM 11.41 52.538 0.161 7.1 1.57 10.27
10/24/2022 11:30:00 PM 11.39 52.502 0.161 7.1 1.7 10.27
10/24/2022 11:45:00 PM 11.37 52.466 0.161 7.1 1.53 10.28
10/25/2022 12:00:00 AM 11.35 52.43 0.16 7.1 1.63 10.29
10/25/2022 12:15:00 AM 11.31 52.358 0.16 7.09 1.57 10.31
10/25/2022 12:30:00 AM 11.28 52.304 0.16 7.09 1.6 10.32
10/25/2022 12:45:00 AM 11.24 52.232 0.16 7.09 1.57 10.34
10/25/2022 1:00:00 AM 11.19 52.142 0.16 7.09 1.65 10.36
10/25/2022 1:15:00 AM 11.14 52.052 0.159 7.09 1.52 10.38
10/25/2022 1:30:00 AM 11.09 51.962 0.159 7.09 1.59 10.39
10/25/2022 1:45:00 AM 11.03 51.854 0.159 7.08 1.64 10.41
10/25/2022 2:00:00 AM 10.98 51.764 0.159 7.08 1.57 10.43
10/25/2022 2:15:00 AM 10.93 51.674 0.158 7.08 1.55 10.44
10/25/2022 2:30:00 AM 10.88 51.584 0.158 7.07 1.66 10.46
10/25/2022 2:45:00 AM 10.83 51.494 0.158 7.07 1.63 10.48
10/25/2022 3:00:00 AM 10.79 51.422 0.158 7.07 1.6 10.49
10/25/2022 3:15:00 AM 10.75 51.35 0.157 7.07 1.55 10.5
10/25/2022 3:30:00 AM 10.71 51.278 0.157 7.07 1.67 10.52
10/25/2022 3:45:00 AM 10.67 51.206 0.157 7.07 1.63 10.52
10/25/2022 4:00:00 AM 10.65 51.17 0.157 7.06 1.69 10.54
10/25/2022 4:15:00 AM 10.62 51.116 0.157 7.06 1.56 10.54
10/25/2022 4:30:00 AM 10.6 51.08 0.157 7.06 1.52 10.55
10/25/2022 4:45:00 AM 10.58 51.044 0.157 7.06 1.67 10.54
10/25/2022 5:00:00 AM 10.58 51.044 0.157 7.05 1.66 10.54
10/25/2022 5:15:00 AM 10.58 51.044 0.157 7.05 1.6 10.54
10/25/2022 5:30:00 AM 10.59 51.062 0.157 7.05 1.65 10.53
10/25/2022 5:45:00 AM 10.6 51.08 0.157 7.05 1.61 10.51
10/25/2022 6:00:00 AM 10.62 51.116 0.158 7.04 1.9 10.5
10/25/2022 6:15:00 AM 10.65 51.17 0.158 7.04 1.61 10.49
10/25/2022 6:30:00 AM 10.67 51.206 0.158 7.04 1.5 10.48
10/25/2022 6:45:00 AM 10.7 51.26 0.158 7.04 1.55 10.47
10/25/2022 7:00:00 AM 10.73 51.314 0.158 7.04 1.55 10.46
10/25/2022 7:15:00 AM 10.75 51.35 0.159 7.04 1.5 10.44
10/25/2022 7:30:00 AM 10.78 51.404 0.159 7.04 1.56 10.43
10/25/2022 7:45:00 AM 10.82 51.476 0.159 7.04 1.51 10.44
10/25/2022 8:00:00 AM 10.84 51.512 0.159 7.04 3.28 10.43
10/25/2022 8:15:00 AM 10.88 51.584 0.159 7.04 1.52 10.48
10/25/2022 8:30:00 AM 10.91 51.638 0.159 7.05 1.51 10.54
10/25/2022 8:45:00 AM 10.95 51.71 0.159 7.06 1.49 10.64
10/25/2022 9:00:00 AM 11.01 51.818 0.159 7.07 1.57 10.76
10/25/2022 9:15:00 AM 11.07 51.926 0.159 7.1 1.58 10.91
10/25/2022 9:30:00 AM 11.13 52.034 0.159 7.12 1.5 11.05
10/25/2022 9:45:00 AM 11.19 52.142 0.159 7.14 1.51 11.14
10/25/2022 10:00:00 AM 11.24 52.232 0.159 7.16 1.54 11.22
10/25/2022 10:15:00 AM 11.3 52.34 0.158 7.17 1.67 11.32
10/25/2022 10:30:00 AM 11.4 52.52 0.158 7.2 1.51 11.44
10/25/2022 10:45:00 AM 11.52 52.736 0.158 7.23 1.59 11.55
10/25/2022 11:00:00 AM 11.63 52.934 0.158 7.25 1.55 11.62
10/25/2022 11:15:00 AM 11.72 53.096 0.158 7.27 1.57 11.65
10/25/2022 11:30:00 AM 11.85 53.33 0.158 7.3 1.57 11.7
10/25/2022 11:45:00 AM 12.02 53.636 0.158 7.33 1.77 11.73
10/25/2022 12:00:00 PM 12.16 53.888 0.158 7.36 1.79 11.74
10/25/2022 12:15:00 PM 12.23 54.014 0.158 7.38 1.67 11.74
10/25/2022 12:30:00 PM 12.31 54.158 0.158 7.4 1.77 11.74
10/25/2022 12:45:00 PM 12.37 54.266 0.158 7.42 1.77 11.72
10/25/2022 1:00:00 PM 12.42 54.356 0.158 7.43 1.7 11.7
10/25/2022 1:15:00 PM 12.47 54.446 0.159 7.44 1.72 11.69
10/25/2022 1:30:00 PM 12.53 54.554 0.159 7.45 1.66 11.69
10/25/2022 1:45:00 PM 12.59 54.662 0.159 7.47 1.67 11.67
10/25/2022 2:00:00 PM 12.68 54.824 0.159 7.48 1.68 11.67
10/25/2022 2:15:00 PM 12.77 54.986 0.159 7.49 1.7 11.64
10/25/2022 2:30:00 PM 12.86 55.148 0.159 7.5 1.82 11.64
10/25/2022 2:45:00 PM 12.94 55.292 0.159 7.5 1.77 11.62
10/25/2022 3:00:00 PM 12.98 55.364 0.159 7.5 1.68 11.57
10/25/2022 3:15:00 PM 12.98 55.364 0.159 7.49 1.8 11.51
10/25/2022 3:30:00 PM 12.96 55.328 0.159 7.48 1.81 11.43
10/25/2022 3:45:00 PM 12.96 55.328 0.159 7.46 1.77 11.37
10/25/2022 4:00:00 PM 12.93 55.274 0.16 7.45 1.67 11.29
10/25/2022 4:15:00 PM 12.89 55.202 0.16 7.42 1.74 11.19
10/25/2022 4:30:00 PM 12.86 55.148 0.16 7.41 1.8 11.15
10/25/2022 4:45:00 PM 12.83 55.094 0.16 7.4 1.77 11.1
10/25/2022 5:00:00 PM 12.79 55.022 0.16 7.38 1.75 11.02
10/25/2022 5:15:00 PM 12.74 54.932 0.16 7.36 1.82 10.93
10/25/2022 5:30:00 PM 12.69 54.842 0.16 7.33 1.75 10.81
10/25/2022 5:45:00 PM 12.64 54.752 0.16 7.31 1.8 10.7
10/25/2022 6:00:00 PM 12.58 54.644 0.16 7.28 1.73 10.6
10/25/2022 6:15:00 PM 12.53 54.554 0.16 7.27 1.78 10.51
10/25/2022 6:30:00 PM 12.48 54.464 0.16 7.25 1.73 10.43
10/25/2022 6:45:00 PM 12.41 54.338 0.16 7.23 1.77 10.36
10/25/2022 7:00:00 PM 12.36 54.248 0.16 7.21 1.84 10.31
10/25/2022 7:15:00 PM 12.3 54.14 0.16 7.19 1.82 10.27
10/25/2022 7:30:00 PM 12.25 54.05 0.16 7.19 1.88 10.24
10/25/2022 7:45:00 PM 12.2 53.96 0.16 7.18 1.77 10.22
10/25/2022 8:00:00 PM 12.13 53.834 0.16 7.17 1.83 10.2
10/25/2022 8:15:00 PM 12.07 53.726 0.16 7.16 1.72 10.19
10/25/2022 8:30:00 PM 12.02 53.636 0.159 7.15 1.67 10.19
10/25/2022 8:45:00 PM 11.95 53.51 0.159 7.15 1.68 10.19
10/25/2022 9:00:00 PM 11.88 53.384 0.159 7.14 1.74 10.19
10/25/2022 9:15:00 PM 11.81 53.258 0.159 7.13 1.73 10.19
10/25/2022 9:30:00 PM 11.75 53.15 0.159 7.13 1.72 10.2
10/25/2022 9:45:00 PM 11.7 53.06 0.159 7.12 2.14 10.2
10/25/2022 10:00:00 PM 11.65 52.97 0.159 7.12 1.77 10.21
10/25/2022 10:15:00 PM 11.59 52.862 0.159 7.12 1.73 10.22
10/25/2022 10:30:00 PM 11.55 52.79 0.159 7.11 1.69 10.22
10/25/2022 10:45:00 PM 11.5 52.7 0.159 7.1 1.74 10.2
10/25/2022 11:00:00 PM 11.44 52.592 0.159 7.1 1.71 10.2
10/25/2022 11:15:00 PM 11.39 52.502 0.159 7.1 1.71 10.21
10/25/2022 11:30:00 PM 11.35 52.43 0.159 7.09 1.71 10.22
10/25/2022 11:45:00 PM 11.31 52.358 0.159 7.09 1.71 10.22
10/26/2022 12:00:00 AM 11.28 52.304 0.159 7.09 1.78 10.21
10/26/2022 12:15:00 AM 11.26 52.268 0.159 7.09 1.63 10.22
10/26/2022 12:30:00 AM 11.24 52.232 0.159 7.08 1.7 10.22
10/26/2022 12:45:00 AM 11.22 52.196 0.16 7.08 1.75 10.22
10/26/2022 1:00:00 AM 11.19 52.142 0.16 7.07 1.72 10.22
10/26/2022 1:15:00 AM 11.17 52.106 0.16 7.08 1.7 10.22
10/26/2022 1:30:00 AM 11.14 52.052 0.16 7.08 1.76 10.22
10/26/2022 1:45:00 AM 11.1 51.98 0.16 7.07 1.61 10.22
10/26/2022 2:00:00 AM 11.06 51.908 0.16 7.07 1.59 10.23
10/26/2022 2:15:00 AM 11.03 51.854 0.16 7.07 2.4 10.23
10/26/2022 2:30:00 AM 10.99 51.782 0.161 7.07 1.69 10.23
10/26/2022 2:45:00 AM 10.95 51.71 0.161 7.06 1.66 10.24
10/26/2022 3:00:00 AM 10.91 51.638 0.161 7.06 1.75 10.24
10/26/2022 3:15:00 AM 10.87 51.566 0.161 7.06 1.84 10.25
10/26/2022 3:30:00 AM 10.84 51.512 0.161 7.06 1.69 10.26
10/26/2022 3:45:00 AM 10.8 51.44 0.161 7.06 1.65 10.27
10/26/2022 4:00:00 AM 10.76 51.368 0.161 7.06 1.61 10.27
10/26/2022 4:15:00 AM 10.72 51.296 0.161 7.05 1.66 10.28
10/26/2022 4:30:00 AM 10.68 51.224 0.161 7.05 1.72 10.28
10/26/2022 4:45:00 AM 10.65 51.17 0.161 7.05 1.71 10.29
10/26/2022 5:00:00 AM 10.61 51.098 0.161 7.05 1.67 10.3
10/26/2022 5:15:00 AM 10.58 51.044 0.161 7.06 1.68 10.31
10/26/2022 5:30:00 AM 10.55 50.99 0.161 7.05 1.95 10.32
10/26/2022 5:45:00 AM 10.53 50.954 0.161 7.05 2.9 10.33
10/26/2022 6:00:00 AM 10.52 50.936 0.161 7.05 1.73 10.33
10/26/2022 6:15:00 AM 10.51 50.918 0.161 7.05 1.71 10.34
10/26/2022 6:30:00 AM 10.49 50.882 0.161 7.05 1.71 10.33
10/26/2022 6:45:00 AM 10.48 50.864 0.161 7.05 1.86 10.35
10/26/2022 7:00:00 AM 10.46 50.828 0.161 7.05 1.66 10.36
10/26/2022 7:15:00 AM 10.45 50.81 0.161 7.05 2.62 10.35
10/26/2022 7:30:00 AM 10.44 50.792 0.16 7.05 1.66 10.36
10/26/2022 7:45:00 AM 10.42 50.756 0.16 7.05 1.67 10.38
10/26/2022 8:00:00 AM 10.4 50.72 0.16 7.06 1.65 10.42
10/26/2022 8:15:00 AM 10.37 50.666 0.16 7.06 1.66 10.48
10/26/2022 8:30:00 AM 10.36 50.648 0.16 7.08 1.67 10.57
10/26/2022 8:45:00 AM 10.36 50.648 0.16 7.09 1.62 10.69
10/26/2022 9:00:00 AM 10.4 50.72 0.16 7.11 1.73 10.84
10/26/2022 9:15:00 AM 10.45 50.81 0.16 7.13 1.72 10.99
10/26/2022 9:30:00 AM 10.48 50.864 0.159 7.14 1.6 11.09
10/26/2022 9:45:00 AM 10.53 50.954 0.159 7.16 1.83 11.18
10/26/2022 10:00:00 AM 10.62 51.116 0.159 7.18 1.66 11.3
10/26/2022 10:15:00 AM 10.74 51.332 0.159 7.2 3.25 11.43
10/26/2022 10:30:00 AM 10.88 51.584 0.159 7.23 1.71 11.53
10/26/2022 10:45:00 AM 10.96 51.728 0.159 7.25 1.59 11.58
10/26/2022 11:00:00 AM 11.01 51.818 0.159 7.27 1.61 11.59
10/26/2022 11:15:00 AM 11.13 52.034 0.159 7.3 1.9 11.67
10/26/2022 11:30:00 AM 11.21 52.178 0.159 7.34 2.59 11.68
10/26/2022 11:45:00 AM 11.3 52.34 0.159 7.35 2.29 11.65
10/26/2022 12:00:00 PM 11.4 52.52 0.159 7.37 2.27 11.64
10/26/2022 12:15:00 PM 11.48 52.664 0.16 7.4 2.33 11.62
10/26/2022 12:30:00 PM 11.54 52.772 0.16 7.42 2.3 11.59
10/26/2022 12:45:00 PM 11.61 52.898 0.16 7.41 2.03 11.57
10/26/2022 1:00:00 PM 11.66 52.988 0.16 7.43 2.28 11.55
10/26/2022 1:15:00 PM 11.68 53.024 0.16 7.41 2.04 11.48
10/26/2022 1:30:00 PM 11.7 53.06 0.16 7.41 2.05 11.46
10/26/2022 1:45:00 PM 11.72 53.096 0.16 7.4 2.19 11.48
10/26/2022 2:00:00 PM 11.73 53.114 0.159 7.42 2.02 11.47
10/26/2022 2:15:00 PM 11.68 53.024 0.159 7.41 2 11.36
10/26/2022 2:30:00 PM 11.62 52.916 0.159 7.39 1.97 11.27
10/26/2022 2:45:00 PM 11.56 52.808 0.159 7.35 2.02 11.21
10/26/2022 3:00:00 PM 11.51 52.718 0.159 7.35 1.97 11.16
10/26/2022 3:15:00 PM 11.46 52.628 0.159 7.32 1.93 11.13
10/26/2022 3:30:00 PM 11.41 52.538 0.159 7.33 2.05 11.09
10/26/2022 3:45:00 PM 11.37 52.466 0.158 7.31 1.97 11.07
10/26/2022 4:00:00 PM 11.32 52.376 0.158 7.3 2 11.04
10/26/2022 4:15:00 PM 11.28 52.304 0.158 7.29 1.95 11.06
10/26/2022 4:30:00 PM 11.24 52.232 0.158 7.29 1.93 11.05
10/26/2022 4:45:00 PM 11.18 52.124 0.158 7.29 2.29 11.06
10/26/2022 5:00:00 PM 11.09 51.962 0.158 7.28 2.38 11.02
10/26/2022 5:15:00 PM 10.98 51.764 0.158 7.28 2.96 10.96
10/26/2022 5:30:00 PM 10.89 51.602 0.158 7.25 2.48 10.91
10/26/2022 5:45:00 PM 10.81 51.458 0.158 7.24 2.44 10.87
10/26/2022 6:00:00 PM 10.74 51.332 0.159 7.22 2.41 10.83
10/26/2022 6:15:00 PM 10.68 51.224 0.159 7.2 2.39 10.79
10/26/2022 6:30:00 PM 10.62 51.116 0.159 7.19 2.32 10.76
10/26/2022 6:45:00 PM 10.58 51.044 0.159 7.19 2.45 10.73
10/26/2022 7:00:00 PM 10.57 51.026 0.159 7.17 2.35 10.71
10/26/2022 7:15:00 PM 10.56 51.008 0.159 7.16 2.57 10.69
10/26/2022 7:30:00 PM 10.57 51.026 0.159 7.16 2.24 10.67
10/26/2022 7:45:00 PM 10.58 51.044 0.16 7.15 2.32 10.64
10/26/2022 8:00:00 PM 10.61 51.098 0.16 7.14 2.26 10.63
10/26/2022 8:15:00 PM 10.65 51.17 0.16 7.14 2.27 10.6
10/26/2022 8:30:00 PM 10.71 51.278 0.16 7.14 2.12 10.57
10/26/2022 8:45:00 PM 10.78 51.404 0.161 7.14 2.08 10.55
10/26/2022 9:00:00 PM 10.84 51.512 0.161 7.13 2.02 10.52
10/26/2022 9:15:00 PM 10.91 51.638 0.162 7.13 2.08 10.5
10/26/2022 9:30:00 PM 10.97 51.746 0.162 7.13 2.11 10.46
10/26/2022 9:45:00 PM 11.06 51.908 0.163 7.13 1.97 10.44
10/26/2022 10:00:00 PM 11.14 52.052 0.163 7.12 1.94 10.41
10/26/2022 10:15:00 PM 11.22 52.196 0.163 7.12 2 10.39
10/26/2022 10:30:00 PM 11.28 52.304 0.164 7.12 2.06 10.37
10/26/2022 10:45:00 PM 11.32 52.376 0.164 7.11 2.14 10.35
10/26/2022 11:00:00 PM 11.33 52.394 0.164 7.12 2.02 10.35
10/26/2022 11:15:00 PM 11.32 52.376 0.164 7.11 2.08 10.35
10/26/2022 11:30:00 PM 11.31 52.358 0.164 7.11 2.03 10.35
10/26/2022 11:45:00 PM 11.29 52.322 0.164 7.11 1.97 10.36
10/27/2022 12:00:00 AM 11.26 52.268 0.164 7.12 2 10.38
10/27/2022 12:15:00 AM 11.24 52.232 0.163 7.11 2.08 10.38
10/27/2022 12:30:00 AM 11.22 52.196 0.163 7.1 2.09 10.39
10/27/2022 12:45:00 AM 11.21 52.178 0.163 7.1 2.02 10.39
10/27/2022 1:00:00 AM 11.19 52.142 0.163 7.1 2.02 10.4
10/27/2022 1:15:00 AM 11.17 52.106 0.163 7.1 2.05 10.41
10/27/2022 1:30:00 AM 11.15 52.07 0.163 7.1 2.09 10.41
10/27/2022 1:45:00 AM 11.13 52.034 0.163 7.1 2.1 10.42
10/27/2022 2:00:00 AM 11.12 52.016 0.163 7.09 2.07 10.42
10/27/2022 2:15:00 AM 11.1 51.98 0.163 7.09 2.18 10.43
10/27/2022 2:30:00 AM 11.09 51.962 0.163 7.1 2.02 10.44
10/27/2022 2:45:00 AM 11.08 51.944 0.163 7.1 2.1 10.43
10/27/2022 3:00:00 AM 11.07 51.926 0.163 7.1 2.19 10.44
10/27/2022 3:15:00 AM 11.07 51.926 0.163 7.1 2.08 10.43
10/27/2022 3:30:00 AM 11.07 51.926 0.163 7.1 2.08 10.43
10/27/2022 3:45:00 AM 11.09 51.962 0.163 7.11 2.73 10.43
10/27/2022 4:00:00 AM 11.1 51.98 0.163 7.1 2.05 10.43
10/27/2022 4:15:00 AM 11.13 52.034 0.163 7.1 1.98 10.42
10/27/2022 4:30:00 AM 11.14 52.052 0.164 7.1 2.06 10.41
10/27/2022 4:45:00 AM 11.15 52.07 0.164 7.1 2.05 10.41
10/27/2022 5:00:00 AM 11.16 52.088 0.164 7.1 2.03 10.4
10/27/2022 5:15:00 AM 11.17 52.106 0.164 7.1 2.11 10.4
10/27/2022 5:30:00 AM 11.19 52.142 0.164 7.11 2.84 10.39
10/27/2022 5:45:00 AM 11.2 52.16 0.164 7.11 2.03 10.38
10/27/2022 6:00:00 AM 11.21 52.178 0.165 7.11 2.02 10.38
10/27/2022 6:15:00 AM 11.21 52.178 0.165 7.11 1.99 10.37
10/27/2022 6:30:00 AM 11.22 52.196 0.165 7.1 2.01 10.37
10/27/2022 6:45:00 AM 11.22 52.196 0.165 7.1 1.95 10.36
10/27/2022 7:00:00 AM 11.25 52.25 0.165 7.1 1.92 10.35
10/27/2022 7:15:00 AM 11.28 52.304 0.166 7.1 1.94 10.35
10/27/2022 7:30:00 AM 11.3 52.34 0.166 7.1 2 10.34
10/27/2022 7:45:00 AM 11.31 52.358 0.166 7.1 1.95 10.35
10/27/2022 8:00:00 AM 11.3 52.34 0.166 7.1 1.94 10.38
10/27/2022 8:15:00 AM 11.31 52.358 0.166 7.11 2 10.41
10/27/2022 8:30:00 AM 11.32 52.376 0.166 7.12 1.92 10.47
10/27/2022 8:45:00 AM 11.32 52.376 0.167 7.13 1.88 10.52
10/27/2022 9:00:00 AM 11.32 52.376 0.167 7.14 1.89 10.59
10/27/2022 9:15:00 AM 11.32 52.376 0.167 7.15 1.96 10.65
10/27/2022 9:30:00 AM 11.34 52.412 0.167 7.16 1.91 10.74
10/27/2022 9:45:00 AM 11.36 52.448 0.167 7.17 1.87 10.81
10/27/2022 10:00:00 AM 11.38 52.484 0.167 7.19 1.91 10.88
10/27/2022 10:15:00 AM 11.42 52.556 0.166 7.2 1.94 10.93
10/27/2022 10:30:00 AM 11.44 52.592 0.166 7.21 1.88 10.98
10/27/2022 10:45:00 AM 11.47 52.646 0.166 7.22 1.87 11.03
10/27/2022 11:00:00 AM 11.5 52.7 0.166 7.23 1.91 11.08
10/27/2022 11:15:00 AM 11.55 52.79 0.166 7.25 1.91 11.12
10/27/2022 11:30:00 AM 11.62 52.916 0.166 7.25 1.99 11.16
10/27/2022 11:45:00 AM 11.71 53.078 0.166 7.27 2.01 11.2
10/27/2022 12:00:00 PM 11.81 53.258 0.166 7.28 2.01 11.25
10/27/2022 12:15:00 PM 11.96 53.528 0.166 7.29 1.96 11.28
10/27/2022 12:30:00 PM 12.11 53.798 0.166 7.3 2.05 11.31
10/27/2022 12:45:00 PM 12.28 54.104 0.166 7.31 1.94 11.33
10/27/2022 1:00:00 PM 12.46 54.428 0.166 7.33 2.01 11.35
10/27/2022 1:15:00 PM 12.65 54.77 0.166 7.33 2.01 11.35
10/27/2022 1:30:00 PM 12.83 55.094 0.166 7.34 1.91 11.35
10/27/2022 1:45:00 PM 12.99 55.382 0.166 7.35 1.98 11.34
10/27/2022 2:00:00 PM 13.12 55.616 0.166 7.35 1.95 11.32
10/27/2022 2:15:00 PM 13.21 55.778 0.166 7.36 2.27 11.3
10/27/2022 2:30:00 PM 13.28 55.904 0.166 7.37 1.97 11.28
10/27/2022 2:45:00 PM 13.31 55.958 0.166 7.36 1.99 11.26
10/27/2022 3:00:00 PM 13.28 55.904 0.166 7.37 2.1 11.23
10/27/2022 3:15:00 PM 13.2 55.76 0.166 7.36 1.97 11.19
10/27/2022 3:30:00 PM 13.08 55.544 0.166 7.36 1.94 11.13
10/27/2022 3:45:00 PM 12.9 55.22 0.166 7.34 1.92 11.06
10/27/2022 4:00:00 PM 12.72 54.896 0.167 7.32 2.28 10.95
10/27/2022 4:15:00 PM 12.62 54.716 0.166 7.31 2.04 10.92
10/27/2022 4:30:00 PM 12.51 54.518 0.166 7.3 2.03 10.87
10/27/2022 4:45:00 PM 12.44 54.392 0.166 7.28 1.97 10.83
10/27/2022 5:00:00 PM 12.33 54.194 0.167 7.28 1.93 10.78
10/27/2022 5:15:00 PM 12.27 54.086 0.167 7.27 1.92 10.74
10/27/2022 5:30:00 PM 12.21 53.978 0.167 7.26 1.88 10.71
10/27/2022 5:45:00 PM 12.15 53.87 0.167 7.25 1.97 10.67
10/27/2022 6:00:00 PM 12.09 53.762 0.167 7.25 2.01 10.62
10/27/2022 6:15:00 PM 12.01 53.618 0.167 7.24 2.02 10.56
10/27/2022 6:30:00 PM 11.93 53.474 0.167 7.24 2.03 10.5
10/27/2022 6:45:00 PM 11.86 53.348 0.167 7.21 2.04 10.44
10/27/2022 7:00:00 PM 11.79 53.222 0.167 7.18 2.07 10.4
10/27/2022 7:15:00 PM 11.72 53.096 0.168 7.17 2.23 10.37
10/27/2022 7:30:00 PM 11.66 52.988 0.168 7.17 2.15 10.35
10/27/2022 7:45:00 PM 11.6 52.88 0.168 7.16 2.26 10.34
10/27/2022 8:00:00 PM 11.55 52.79 0.168 7.16 2.02 10.33
10/27/2022 8:15:00 PM 11.49 52.682 0.168 7.14 2.08 10.34
10/27/2022 8:30:00 PM 11.43 52.574 0.168 7.13 2.1 10.34
10/27/2022 8:45:00 PM 11.37 52.466 0.168 7.12 2.12 10.34
10/27/2022 9:00:00 PM 11.31 52.358 0.168 7.12 2.17 10.35
10/27/2022 9:15:00 PM 11.25 52.25 0.168 7.13 2.12 10.35
10/27/2022 9:30:00 PM 11.18 52.124 0.168 7.13 2.15 10.37
10/27/2022 9:45:00 PM 11.12 52.016 0.168 7.12 2.16 10.38
10/27/2022 10:00:00 PM 11.06 51.908 0.168 7.11 2.12 10.39
10/27/2022 10:15:00 PM 11 51.8 0.168 7.11 2.18 10.41
10/27/2022 10:30:00 PM 10.95 51.71 0.168 7.1 2.07 10.43
10/27/2022 10:45:00 PM 10.89 51.602 0.168 7.1 2.06 10.44
10/27/2022 11:00:00 PM 10.84 51.512 0.168 7.09 2.13 10.45
10/27/2022 11:15:00 PM 10.79 51.422 0.168 7.09 2.2 10.47
10/27/2022 11:30:00 PM 10.74 51.332 0.168 7.09 2.23 10.48
10/27/2022 11:45:00 PM 10.69 51.242 0.168 7.09 2.26 10.5
10/28/2022 12:00:00 AM 10.65 51.17 0.168 7.09 2.55 10.51
10/28/2022 12:15:00 AM 10.61 51.098 0.168 7.09 2.24 10.52
10/28/2022 12:30:00 AM 10.57 51.026 0.168 7.09 2.23 10.54
10/28/2022 12:45:00 AM 10.54 50.972 0.168 7.08 2.16 10.55
10/28/2022 1:00:00 AM 10.5 50.9 0.168 7.09 2.1 10.56
10/28/2022 1:15:00 AM 10.46 50.828 0.168 7.09 2.17 10.58
10/28/2022 1:30:00 AM 10.42 50.756 0.168 7.09 2.17 10.59
10/28/2022 1:45:00 AM 10.39 50.702 0.168 7.09 2.23 10.6
10/28/2022 2:00:00 AM 10.36 50.648 0.168 7.08 2.15 10.61
10/28/2022 2:15:00 AM 10.32 50.576 0.168 7.08 2.19 10.62
10/28/2022 2:30:00 AM 10.29 50.522 0.168 7.08 2.33 10.63
10/28/2022 2:45:00 AM 10.26 50.468 0.168 7.08 2.17 10.63
10/28/2022 3:00:00 AM 10.23 50.414 0.168 7.08 2.13 10.64
10/28/2022 3:15:00 AM 10.2 50.36 0.168 7.08 2.14 10.66
10/28/2022 3:30:00 AM 10.17 50.306 0.168 7.08 2.14 10.66
10/28/2022 3:45:00 AM 10.14 50.252 0.168 7.08 2.15 10.67
10/28/2022 4:00:00 AM 10.11 50.198 0.168 7.09 2.15 10.67
10/28/2022 4:15:00 AM 10.08 50.144 0.168 7.08 2.26 10.69
10/28/2022 4:30:00 AM 10.06 50.108 0.168 7.08 2.12 10.7
10/28/2022 4:45:00 AM 10.03 50.054 0.168 7.08 2.29 10.7
10/28/2022 5:00:00 AM 10 50 0.168 7.08 2.18 10.71
10/28/2022 5:15:00 AM 9.98 49.964 0.168 7.08 2.19 10.71
10/28/2022 5:30:00 AM 9.96 49.928 0.168 7.08 2.22 10.72
10/28/2022 5:45:00 AM 9.94 49.892 0.168 7.07 2.23 10.73
10/28/2022 6:00:00 AM 9.91 49.838 0.168 7.08 2.31 10.73
10/28/2022 6:15:00 AM 9.88 49.784 0.168 7.08 2.24 10.74
10/28/2022 6:30:00 AM 9.86 49.748 0.168 7.08 2.31 10.75
10/28/2022 6:45:00 AM 9.83 49.694 0.168 7.08 2.28 10.76
10/28/2022 7:00:00 AM 9.81 49.658 0.168 7.08 2.21 10.76
10/28/2022 7:15:00 AM 9.79 49.622 0.168 7.08 2.21 10.77
10/28/2022 7:30:00 AM 9.76 49.568 0.168 7.08 2.26 10.78
10/28/2022 7:45:00 AM 9.74 49.532 0.168 7.08 2.22 10.79
10/28/2022 8:00:00 AM 9.72 49.496 0.168 7.08 2.22 10.83
10/28/2022 8:15:00 AM 9.71 49.478 0.168 7.09 2.29 10.89
10/28/2022 8:30:00 AM 9.7 49.46 0.168 7.1 2.29 10.97
10/28/2022 8:45:00 AM 9.7 49.46 0.168 7.11 2.36 11.05
10/28/2022 9:00:00 AM 9.71 49.478 0.168 7.12 2.36 11.13
10/28/2022 9:15:00 AM 9.72 49.496 0.168 7.14 2.45 11.23
10/28/2022 9:30:00 AM 9.74 49.532 0.168 7.14 2.27 11.32
10/28/2022 9:45:00 AM 9.77 49.586 0.168 7.16 2.33 11.41
10/28/2022 10:00:00 AM 9.82 49.676 0.168 7.17 2.42 11.49
10/28/2022 10:15:00 AM 9.87 49.766 0.167 7.18 5.46 11.57
10/28/2022 10:30:00 AM 9.94 49.892 0.167 7.2 2.46 11.64
10/28/2022 10:45:00 AM 10.01 50.018 0.167 7.21 2.48 11.71
10/28/2022 11:00:00 AM 10.08 50.144 0.167 7.21 2.5 11.78
10/28/2022 11:15:00 AM 10.17 50.306 0.167 7.22 2.47 11.85
10/28/2022 11:30:00 AM 10.28 50.504 0.167 7.23 2.43 11.92
10/28/2022 11:45:00 AM 10.37 50.666 0.166 7.25 2.46 11.97
10/28/2022 12:00:00 PM 10.46 50.828 0.166 7.27 2.52 12
10/28/2022 12:15:00 PM 10.57 51.026 0.166 7.28 2.52 12.01
10/28/2022 12:30:00 PM 10.74 51.332 0.166 7.29 2.45 12.03
10/28/2022 12:45:00 PM 10.93 51.674 0.166 7.3 2.53 12.03
10/28/2022 1:00:00 PM 11.14 52.052 0.165 7.31 2.45 12.04
10/28/2022 1:15:00 PM 11.34 52.412 0.165 7.32 2.44 12.04
10/28/2022 1:30:00 PM 11.48 52.664 0.165 7.34 2.62 12.04
10/28/2022 1:45:00 PM 11.56 52.808 0.165 7.35 2.58 12.03
10/28/2022 2:00:00 PM 11.65 52.97 0.165 7.36 2.51 12.02
10/28/2022 2:15:00 PM 11.72 53.096 0.165 7.37 2.42 12.02
10/28/2022 2:30:00 PM 11.81 53.258 0.165 7.37 2.45 12.01
10/28/2022 2:45:00 PM 11.88 53.384 0.165 7.37 2.45 11.99
10/28/2022 3:00:00 PM 11.9 53.42 0.165 7.37 2.41 11.97
10/28/2022 3:15:00 PM 11.86 53.348 0.165 7.37 2.48 11.96
10/28/2022 3:30:00 PM 11.78 53.204 0.165 7.37 2.51 11.92
10/28/2022 3:45:00 PM 11.73 53.114 0.165 7.37 2.5 11.88
10/28/2022 4:00:00 PM 11.69 53.042 0.166 7.37 2.46 11.89
10/28/2022 4:15:00 PM 11.66 52.988 0.164 7.37 2.62 11.88
10/28/2022 4:30:00 PM 11.59 52.862 0.166 7.36 2.9 11.82
10/28/2022 4:45:00 PM 11.48 52.664 0.167 7.34 2.86 11.72
10/28/2022 5:00:00 PM 11.39 52.502 0.167 7.33 2.61 11.66
10/28/2022 5:15:00 PM 11.33 52.394 0.167 7.31 2.66 11.57
10/28/2022 5:30:00 PM 11.25 52.25 0.167 7.29 2.65 11.49
10/28/2022 5:45:00 PM 11.16 52.088 0.167 7.28 2.5 11.42
10/28/2022 6:00:00 PM 11.07 51.926 0.168 7.26 2.57 11.29
10/28/2022 6:15:00 PM 10.96 51.728 0.168 7.23 2.53 11.16
10/28/2022 6:30:00 PM 10.85 51.53 0.168 7.21 2.64 11.04
10/28/2022 6:45:00 PM 10.75 51.35 0.168 7.19 2.56 10.95
10/28/2022 7:00:00 PM 10.64 51.152 0.168 7.18 2.65 10.89
10/28/2022 7:15:00 PM 10.53 50.954 0.169 7.16 2.64 10.83
10/28/2022 7:30:00 PM 10.42 50.756 0.169 7.15 2.59 10.8
10/28/2022 7:45:00 PM 10.31 50.558 0.169 7.15 2.71 10.78
10/28/2022 8:00:00 PM 10.21 50.378 0.169 7.14 2.64 10.77
10/28/2022 8:15:00 PM 10.1 50.18 0.169 7.13 2.55 10.77
10/28/2022 8:30:00 PM 10 50 0.17 7.12 2.64 10.78
10/28/2022 8:45:00 PM 9.89 49.802 0.17 7.12 2.55 10.79
10/28/2022 9:00:00 PM 9.78 49.604 0.17 7.12 2.63 10.8
10/28/2022 9:15:00 PM 9.68 49.424 0.17 7.11 2.59 10.81
10/28/2022 9:30:00 PM 9.57 49.226 0.17 7.11 2.63 10.83
10/28/2022 9:45:00 PM 9.47 49.046 0.17 7.11 2.59 10.86
10/28/2022 10:00:00 PM 9.38 48.884 0.17 7.11 2.67 10.87
10/28/2022 10:15:00 PM 9.29 48.722 0.171 7.1 2.57 10.89
10/28/2022 10:30:00 PM 9.2 48.56 0.171 7.1 2.54 10.91
10/28/2022 10:45:00 PM 9.12 48.416 0.171 7.1 2.56 10.93
10/28/2022 11:00:00 PM 9.05 48.29 0.171 7.1 2.53 10.95
10/28/2022 11:15:00 PM 8.97 48.146 0.171 7.1 2.58 10.96
10/28/2022 11:30:00 PM 8.91 48.038 0.171 7.09 2.59 10.98
10/28/2022 11:45:00 PM 8.85 47.93 0.171 7.09 2.62 11
10/29/2022 12:00:00 AM 8.79 47.822 0.17 7.09 2.58 11.01
10/29/2022 12:15:00 AM 8.74 47.732 0.17 7.09 2.51 11.03
10/29/2022 12:30:00 AM 8.69 47.642 0.17 7.09 2.55 11.04
10/29/2022 12:45:00 AM 8.65 47.57 0.17 7.09 2.6 11.05
10/29/2022 1:00:00 AM 8.61 47.498 0.17 7.09 2.52 11.06
10/29/2022 1:15:00 AM 8.58 47.444 0.17 7.09 2.48 11.07
10/29/2022 1:30:00 AM 8.55 47.39 0.17 7.09 2.47 11.08
10/29/2022 1:45:00 AM 8.52 47.336 0.17 7.08 2.53 11.09
10/29/2022 2:00:00 AM 8.49 47.282 0.17 7.08 2.51 11.1
10/29/2022 2:15:00 AM 8.47 47.246 0.17 7.08 2.48 11.11
10/29/2022 2:30:00 AM 8.44 47.192 0.17 7.08 2.49 11.11
10/29/2022 2:45:00 AM 8.42 47.156 0.17 7.08 2.46 11.12
10/29/2022 3:00:00 AM 8.4 47.12 0.17 7.08 2.47 11.13
10/29/2022 3:15:00 AM 8.37 47.066 0.17 7.08 2.53 11.13
10/29/2022 3:30:00 AM 8.35 47.03 0.17 7.08 2.51 11.14
10/29/2022 3:45:00 AM 8.32 46.976 0.17 7.08 2.53 11.15
10/29/2022 4:00:00 AM 8.29 46.922 0.17 7.08 2.42 11.16
10/29/2022 4:15:00 AM 8.26 46.868 0.17 7.08 2.55 11.17
10/29/2022 4:30:00 AM 8.23 46.814 0.17 7.08 2.48 11.18
10/29/2022 4:45:00 AM 8.2 46.76 0.17 7.08 2.47 11.19
10/29/2022 5:00:00 AM 8.17 46.706 0.17 7.08 2.5 11.2
10/29/2022 5:15:00 AM 8.14 46.652 0.17 7.07 2.48 11.21
10/29/2022 5:30:00 AM 8.11 46.598 0.17 7.07 2.51 11.22
10/29/2022 5:45:00 AM 8.07 46.526 0.17 7.07 2.51 11.23
10/29/2022 6:00:00 AM 8.04 46.472 0.17 7.06 2.48 11.24
10/29/2022 6:15:00 AM 8.01 46.418 0.17 7.06 2.46 11.25
10/29/2022 6:30:00 AM 7.98 46.364 0.17 7.06 2.46 11.26
10/29/2022 6:45:00 AM 7.94 46.292 0.17 7.06 2.47 11.28
10/29/2022 7:00:00 AM 7.92 46.256 0.17 7.06 2.51 11.28
10/29/2022 7:15:00 AM 7.89 46.202 0.17 7.06 2.52 11.29
10/29/2022 7:30:00 AM 7.85 46.13 0.17 7.06 2.47 11.3
10/29/2022 7:45:00 AM 7.83 46.094 0.17 7.06 2.47 11.32
10/29/2022 8:00:00 AM 7.8 46.04 0.17 7.06 2.5 11.37
10/29/2022 8:15:00 AM 7.78 46.004 0.17 7.07 2.46 11.43
10/29/2022 8:30:00 AM 7.77 45.986 0.17 7.08 2.45 11.49
10/29/2022 8:45:00 AM 7.76 45.968 0.17 7.09 2.42 11.56
10/29/2022 9:00:00 AM 7.75 45.95 0.17 7.1 2.48 11.65
10/29/2022 9:15:00 AM 7.76 45.968 0.17 7.11 2.52 11.73
10/29/2022 9:30:00 AM 7.78 46.004 0.17 7.12 2.52 11.81
10/29/2022 9:45:00 AM 7.81 46.058 0.169 7.13 2.55 11.9
10/29/2022 10:00:00 AM 7.88 46.184 0.169 7.14 2.46 11.96
10/29/2022 10:15:00 AM 7.96 46.328 0.169 7.15 2.47 12.03
10/29/2022 10:30:00 AM 8.04 46.472 0.169 7.16 2.49 12.08
10/29/2022 10:45:00 AM 8.13 46.634 0.169 7.17 2.52 12.12
10/29/2022 11:00:00 AM 8.23 46.814 0.169 7.18 2.46 12.16
10/29/2022 11:15:00 AM 8.32 46.976 0.169 7.18 2.57 12.18
10/29/2022 11:30:00 AM 8.47 47.246 0.169 7.19 2.45 12.24
10/29/2022 11:45:00 AM 8.62 47.516 0.169 7.2 2.51 12.24
10/29/2022 12:00:00 PM 8.8 47.84 0.168 7.21 2.48 12.29
10/29/2022 12:15:00 PM 9.01 48.218 0.168 7.22 2.49 12.31
10/29/2022 12:30:00 PM 9.25 48.65 0.168 7.23 2.55 12.32
10/29/2022 12:45:00 PM 9.52 49.136 0.168 7.24 2.53 12.33
10/29/2022 1:00:00 PM 9.78 49.604 0.168 7.25 2.48 12.32
10/29/2022 1:15:00 PM 10.06 50.108 0.167 7.25 2.53 12.31
10/29/2022 1:30:00 PM 10.35 50.63 0.167 7.26 2.54 12.29
10/29/2022 1:45:00 PM 10.63 51.134 0.167 7.27 2.5 12.27
10/29/2022 2:00:00 PM 10.87 51.566 0.167 7.28 2.55 12.23
10/29/2022 2:15:00 PM 11.09 51.962 0.166 7.29 2.53 12.19
10/29/2022 2:30:00 PM 11.25 52.25 0.166 7.28 2.55 12.15
10/29/2022 2:45:00 PM 11.37 52.466 0.166 7.29 2.48 12.1
10/29/2022 3:00:00 PM 11.44 52.592 0.166 7.29 2.54 12.04
10/29/2022 3:15:00 PM 11.46 52.628 0.166 7.3 2.57 11.99
10/29/2022 3:30:00 PM 11.4 52.52 0.166 7.3 2.58 11.92
10/29/2022 3:45:00 PM 11.25 52.25 0.166 7.3 2.54 11.84
10/29/2022 4:00:00 PM 11.02 51.836 0.166 7.29 2.55 11.73
10/29/2022 4:15:00 PM 10.84 51.512 0.166 7.28 2.51 11.66
10/29/2022 4:30:00 PM 10.67 51.206 0.167 7.27 2.58 11.59
10/29/2022 4:45:00 PM 10.55 50.99 0.167 7.26 2.53 11.52
10/29/2022 5:00:00 PM 10.4 50.72 0.167 7.25 2.56 11.42
10/29/2022 5:15:00 PM 10.3 50.54 0.167 7.24 2.53 11.37
10/29/2022 5:30:00 PM 10.23 50.414 0.167 7.23 2.56 11.32
10/29/2022 5:45:00 PM 10.14 50.252 0.167 7.22 2.52 11.28
10/29/2022 6:00:00 PM 10.05 50.09 0.167 7.21 2.57 11.22
10/29/2022 6:15:00 PM 9.96 49.928 0.167 7.2 2.59 11.16
10/29/2022 6:30:00 PM 9.85 49.73 0.167 7.19 2.58 11.1
10/29/2022 6:45:00 PM 9.75 49.55 0.168 7.18 2.62 11.05
10/29/2022 7:00:00 PM 9.65 49.37 0.168 7.17 2.66 11
10/29/2022 7:15:00 PM 9.55 49.19 0.168 7.15 2.63 10.98
10/29/2022 7:30:00 PM 9.44 48.992 0.168 7.15 2.55 10.97
10/29/2022 7:45:00 PM 9.33 48.794 0.168 7.14 2.63 10.96
10/29/2022 8:00:00 PM 9.22 48.596 0.168 7.14 2.62 10.97
10/29/2022 8:15:00 PM 9.11 48.398 0.168 7.13 2.74 10.99
10/29/2022 8:30:00 PM 9 48.2 0.168 7.13 2.74 11.01
10/29/2022 8:45:00 PM 8.88 47.984 0.168 7.12 2.68 11.04
10/29/2022 9:00:00 PM 8.77 47.786 0.168 7.12 2.76 11.07
10/29/2022 9:15:00 PM 8.65 47.57 0.168 7.11 2.76 11.11
10/29/2022 9:30:00 PM 8.54 47.372 0.168 7.11 2.72 11.15
10/29/2022 9:45:00 PM 8.42 47.156 0.168 7.11 2.72 11.18
10/29/2022 10:00:00 PM 8.32 46.976 0.168 7.11 2.7 11.21
10/29/2022 10:15:00 PM 8.21 46.778 0.168 7.1 2.75 11.24
10/29/2022 10:30:00 PM 8.11 46.598 0.168 7.1 2.71 11.28
10/29/2022 10:45:00 PM 8.02 46.436 0.168 7.1 2.75 11.31
10/29/2022 11:00:00 PM 7.94 46.292 0.168 7.1 2.81 11.33
10/29/2022 11:15:00 PM 7.86 46.148 0.168 7.1 2.76 11.35
10/29/2022 11:30:00 PM 7.79 46.022 0.168 7.1 3.13 11.36
10/29/2022 11:45:00 PM 7.73 45.914 0.168 7.09 2.76 11.38
10/30/2022 12:00:00 AM 7.68 45.824 0.168 7.09 2.93 11.39
10/30/2022 12:15:00 AM 7.64 45.752 0.168 7.09 3.09 11.39
10/30/2022 12:30:00 AM 7.6 45.68 0.168 7.09 2.78 11.39
10/30/2022 12:45:00 AM 7.57 45.626 0.168 7.09 3.12 11.39
10/30/2022 1:00:00 AM 7.54 45.572 0.168 7.08 2.8 11.4
10/30/2022 1:15:00 AM 7.52 45.536 0.168 7.08 2.86 11.4
10/30/2022 1:30:00 AM 7.5 45.5 0.168 7.08 2.68 11.41
10/30/2022 1:45:00 AM 7.49 45.482 0.168 7.08 2.87 11.41
10/30/2022 2:00:00 AM 7.47 45.446 0.168 7.08 2.67 11.4
10/30/2022 2:15:00 AM 7.46 45.428 0.168 7.08 2.76 11.4
10/30/2022 2:30:00 AM 7.45 45.41 0.169 7.07 2.62 11.4
10/30/2022 2:45:00 AM 7.43 45.374 0.169 7.08 2.56 11.4
10/30/2022 3:00:00 AM 7.42 45.356 0.169 7.08 2.65 11.4
10/30/2022 3:15:00 AM 7.41 45.338 0.169 7.08 3.25 11.4
10/30/2022 3:30:00 AM 7.39 45.302 0.169 7.08 2.7 11.4
10/30/2022 3:45:00 AM 7.37 45.266 0.169 7.08 2.78 11.4
10/30/2022 4:00:00 AM 7.35 45.23 0.169 7.08 2.8 11.41
10/30/2022 4:15:00 AM 7.32 45.176 0.169 7.08 2.68 11.42
10/30/2022 4:30:00 AM 7.3 45.14 0.169 7.08 2.7 11.42
10/30/2022 4:45:00 AM 7.28 45.104 0.169 7.08 2.7 11.43
10/30/2022 5:00:00 AM 7.25 45.05 0.169 7.08 2.73 11.44
10/30/2022 5:15:00 AM 7.23 45.014 0.169 7.08 2.87 11.45
10/30/2022 5:30:00 AM 7.2 44.96 0.168 7.08 2.77 11.46
10/30/2022 5:45:00 AM 7.17 44.906 0.168 7.08 2.72 11.47
10/30/2022 6:00:00 AM 7.14 44.852 0.168 7.08 2.75 11.47
10/30/2022 6:15:00 AM 7.11 44.798 0.168 7.08 2.7 11.49
10/30/2022 6:30:00 AM 7.09 44.762 0.168 7.07 2.68 11.49
10/30/2022 6:45:00 AM 7.06 44.708 0.168 7.08 2.61 11.5
10/30/2022 7:00:00 AM 7.04 44.672 0.168 7.07 2.68 11.51
10/30/2022 7:15:00 AM 7.01 44.618 0.168 7.08 2.71 11.53
10/30/2022 7:30:00 AM 6.98 44.564 0.168 7.08 2.68 11.54
10/30/2022 7:45:00 AM 6.96 44.528 0.168 7.08 2.68 11.55
10/30/2022 8:00:00 AM 6.94 44.492 0.168 7.08 2.65 11.59
10/30/2022 8:15:00 AM 6.93 44.474 0.168 7.09 2.63 11.65
10/30/2022 8:30:00 AM 6.93 44.474 0.168 7.1 2.78 11.74
10/30/2022 8:45:00 AM 6.94 44.492 0.168 7.11 2.66 11.84
10/30/2022 9:00:00 AM 6.95 44.51 0.168 7.12 2.67 11.94
10/30/2022 9:15:00 AM 6.97 44.546 0.168 7.13 2.66 12.03
10/30/2022 9:30:00 AM 7.01 44.618 0.167 7.14 2.68 12.11
10/30/2022 9:45:00 AM 7.07 44.726 0.167 7.15 2.75 12.18
10/30/2022 10:00:00 AM 7.13 44.834 0.167 7.17 2.63 12.24
10/30/2022 10:15:00 AM 7.21 44.978 0.167 7.18 2.59 12.29
10/30/2022 10:30:00 AM 7.31 45.158 0.167 7.19 2.63 12.33
10/30/2022 10:45:00 AM 7.4 45.32 0.167 7.2 2.64 12.36
10/30/2022 11:00:00 AM 7.5 45.5 0.166 7.21 2.58 12.39
10/30/2022 11:15:00 AM 7.6 45.68 0.166 7.22 2.61 12.41
10/30/2022 11:30:00 AM 7.74 45.932 0.166 7.22 2.65 12.43
10/30/2022 11:45:00 AM 7.91 46.238 0.166 7.23 2.6 12.44
10/30/2022 12:00:00 PM 8.1 46.58 0.166 7.24 2.58 12.46
10/30/2022 12:15:00 PM 8.3 46.94 0.165 7.24 2.63 12.48
10/30/2022 12:30:00 PM 8.56 47.408 0.165 7.26 2.59 12.49
10/30/2022 12:45:00 PM 8.81 47.858 0.165 7.27 2.62 12.48
10/30/2022 1:00:00 PM 9.08 48.344 0.165 7.28 2.58 12.48
10/30/2022 1:15:00 PM 9.36 48.848 0.165 7.29 2.54 12.47
10/30/2022 1:30:00 PM 9.65 49.37 0.164 7.3 2.54 12.45
10/30/2022 1:45:00 PM 9.91 49.838 0.164 7.31 2.59 12.43
10/30/2022 2:00:00 PM 10.13 50.234 0.164 7.32 2.57 12.39
10/30/2022 2:15:00 PM 10.3 50.54 0.164 7.33 2.57 12.34
10/30/2022 2:30:00 PM 10.43 50.774 0.164 7.34 2.6 12.3
10/30/2022 2:45:00 PM 10.49 50.882 0.164 7.34 2.51 12.25
10/30/2022 3:00:00 PM 10.51 50.918 0.164 7.34 2.53 12.21
10/30/2022 3:15:00 PM 10.48 50.864 0.164 7.34 2.52 12.17
10/30/2022 3:30:00 PM 10.54 50.972 0.164 7.34 2.44 12.14
10/30/2022 3:45:00 PM 10.53 50.954 0.164 7.35 2.53 12.11
10/30/2022 4:00:00 PM 10.38 50.684 0.164 7.35 2.55 12.08
10/30/2022 4:15:00 PM 10.3 50.54 0.164 7.35 2.54 12.04
10/30/2022 4:30:00 PM 10.28 50.504 0.164 7.35 2.51 12.03
10/30/2022 4:45:00 PM 10.21 50.378 0.164 7.35 2.63 11.98
10/30/2022 5:00:00 PM 10.09 50.162 0.164 7.34 2.57 11.89
10/30/2022 5:15:00 PM 10 50 0.164 7.32 2.55 11.79
10/30/2022 5:30:00 PM 9.92 49.856 0.164 7.31 2.52 11.67
10/30/2022 5:45:00 PM 9.85 49.73 0.165 7.29 2.49 11.55
10/30/2022 6:00:00 PM 9.77 49.586 0.165 7.27 2.52 11.44
10/30/2022 6:15:00 PM 9.7 49.46 0.165 7.25 2.49 11.33
10/30/2022 6:30:00 PM 9.63 49.334 0.165 7.24 2.53 11.23
10/30/2022 6:45:00 PM 9.56 49.208 0.166 7.22 2.54 11.15
10/30/2022 7:00:00 PM 9.5 49.1 0.166 7.21 2.56 11.08
10/30/2022 7:15:00 PM 9.45 49.01 0.166 7.19 2.63 11.03
10/30/2022 7:30:00 PM 9.39 48.902 0.166 7.18 2.55 11
10/30/2022 7:45:00 PM 9.33 48.794 0.167 7.17 2.59 10.98
10/30/2022 8:00:00 PM 9.28 48.704 0.167 7.17 2.58 10.96
10/30/2022 8:15:00 PM 9.21 48.578 0.167 7.16 2.57 10.96
10/30/2022 8:30:00 PM 9.13 48.434 0.167 7.15 2.56 10.97
10/30/2022 8:45:00 PM 9.03 48.254 0.168 7.15 2.6 10.98
10/30/2022 9:00:00 PM 8.92 48.056 0.168 7.14 2.68 11
10/30/2022 9:15:00 PM 8.82 47.876 0.168 7.14 2.54 11.03
10/30/2022 9:30:00 PM 8.72 47.696 0.168 7.14 2.66 11.05
10/30/2022 9:45:00 PM 8.62 47.516 0.169 7.13 2.64 11.08
10/30/2022 10:00:00 PM 8.54 47.372 0.169 7.13 2.73 11.11
10/30/2022 10:15:00 PM 8.46 47.228 0.169 7.13 2.69 11.13
10/30/2022 10:30:00 PM 8.38 47.084 0.169 7.12 2.71 11.15
10/30/2022 10:45:00 PM 8.3 46.94 0.169 7.12 2.68 11.17
10/30/2022 11:00:00 PM 8.22 46.796 0.169 7.12 2.66 11.19
10/30/2022 11:15:00 PM 8.14 46.652 0.169 7.11 2.66 11.21
10/30/2022 11:30:00 PM 8.06 46.508 0.169 7.11 2.67 11.23
10/30/2022 11:45:00 PM 7.99 46.382 0.169 7.11 2.66 11.24
10/31/2022 12:00:00 AM 7.93 46.274 0.169 7.11 2.68 11.25
10/31/2022 12:15:00 AM 7.88 46.184 0.169 7.11 2.69 11.26
10/31/2022 12:30:00 AM 7.84 46.112 0.169 7.11 2.73 11.27
10/31/2022 12:45:00 AM 7.8 46.04 0.169 7.11 2.68 11.28
10/31/2022 1:00:00 AM 7.77 45.986 0.169 7.11 2.75 11.28
10/31/2022 1:15:00 AM 7.74 45.932 0.169 7.11 2.66 11.29
10/31/2022 1:30:00 AM 7.72 45.896 0.169 7.11 2.75 11.29
10/31/2022 1:45:00 AM 7.7 45.86 0.169 7.11 2.67 11.29
10/31/2022 2:00:00 AM 7.71 45.878 0.169 7.11 2.67 11.29
10/31/2022 2:15:00 AM 7.72 45.896 0.169 7.1 2.61 11.29
10/31/2022 2:30:00 AM 7.73 45.914 0.169 7.1 2.63 11.29
10/31/2022 2:45:00 AM 7.74 45.932 0.168 7.1 2.92 11.28
10/31/2022 3:00:00 AM 7.73 45.914 0.168 7.1 2.66 11.28
10/31/2022 3:15:00 AM 7.74 45.932 0.168 7.1 2.74 11.27
10/31/2022 3:30:00 AM 7.75 45.95 0.168 7.1 2.73 11.27
10/31/2022 3:45:00 AM 7.77 45.986 0.168 7.1 2.74 11.26
10/31/2022 4:00:00 AM 7.79 46.022 0.168 7.1 2.77 11.25
10/31/2022 4:15:00 AM 7.79 46.022 0.168 7.1 2.66 11.25
10/31/2022 4:30:00 AM 7.8 46.04 0.168 7.09 2.59 11.25
10/31/2022 4:45:00 AM 7.82 46.076 0.168 7.1 2.68 11.24
10/31/2022 5:00:00 AM 7.84 46.112 0.168 7.09 2.64 11.24
10/31/2022 5:15:00 AM 7.83 46.094 0.168 7.09 2.63 11.24
10/31/2022 5:30:00 AM 7.81 46.058 0.168 7.09 2.68 11.24
10/31/2022 5:45:00 AM 7.8 46.04 0.168 7.09 2.64 11.24
10/31/2022 6:00:00 AM 7.77 45.986 0.168 7.09 2.68 11.24
10/31/2022 6:15:00 AM 7.76 45.968 0.168 7.09 2.66 11.24
10/31/2022 6:30:00 AM 7.74 45.932 0.168 7.09 2.65 11.24
10/31/2022 6:45:00 AM 7.72 45.896 0.168 7.09 2.75 11.25
10/31/2022 7:00:00 AM 7.71 45.878 0.168 7.09 2.65 11.25
10/31/2022 7:15:00 AM 7.7 45.86 0.168 7.09 2.66 11.25
10/31/2022 7:30:00 AM 7.71 45.878 0.168 7.09 2.71 11.26
10/31/2022 7:45:00 AM 7.7 45.86 0.168 7.09 2.62 11.27
10/31/2022 8:00:00 AM 7.71 45.878 0.168 7.1 2.67 11.31
10/31/2022 8:15:00 AM 7.76 45.968 0.168 7.11 2.64 11.4
10/31/2022 8:30:00 AM 7.8 46.04 0.168 7.12 2.63 11.49
10/31/2022 8:45:00 AM 7.83 46.094 0.168 7.13 2.7 11.55
10/31/2022 9:00:00 AM 7.88 46.184 0.168 7.14 2.68 11.63
10/31/2022 9:15:00 AM 7.93 46.274 0.168 7.15 2.65 11.71
10/31/2022 9:30:00 AM 7.98 46.364 0.168 7.16 2.65 11.81
10/31/2022 9:45:00 AM 8.07 46.526 0.168 7.17 2.64 11.92
10/31/2022 10:00:00 AM 8.14 46.652 0.167 7.19 2.67 11.99
10/31/2022 10:15:00 AM 8.23 46.814 0.167 7.2 2.66 12.06
10/31/2022 10:30:00 AM 8.32 46.976 0.167 7.21 2.7 12.13
10/31/2022 10:45:00 AM 8.42 47.156 0.167 7.23 2.62 12.19
10/31/2022 11:00:00 AM 8.51 47.318 0.167 7.24 2.62 12.23
10/31/2022 11:15:00 AM 8.6 47.48 0.167 7.25 2.64 12.26
10/31/2022 11:30:00 AM 8.72 47.696 0.166 7.25 2.59 12.29
10/31/2022 11:45:00 AM 8.86 47.948 0.166 7.26 2.52 12.32
10/31/2022 12:00:00 PM 8.96 48.128 0.166 7.25 2.53 12.3
10/31/2022 12:15:00 PM 9.09 48.362 0.166 7.24 2.57 12.29
10/31/2022 12:30:00 PM 9.27 48.686 0.166 7.24 2.53 12.3
10/31/2022 12:45:00 PM 9.41 48.938 0.165 7.24 2.45 12.3
10/31/2022 1:00:00 PM 9.5 49.1 0.165 7.24 2.43 12.26
10/31/2022 1:15:00 PM 9.59 49.262 0.165 7.24 2.36 12.22
10/31/2022 1:30:00 PM 9.66 49.388 0.165 7.23 2.67 12.2
10/31/2022 1:45:00 PM 9.73 49.514 0.164 7.23 2.44 12.17
10/31/2022 2:00:00 PM 9.85 49.73 0.164 7.23 2.34 12.15
10/31/2022 2:15:00 PM 9.96 49.928 0.164 7.23 2.34 12.15
10/31/2022 2:30:00 PM 10.03 50.054 0.164 7.24 2.28 12.13
10/31/2022 2:45:00 PM 10.09 50.162 0.164 7.23 2.32 12.07
10/31/2022 3:00:00 PM 10.13 50.234 0.164 7.23 2.25 12.02
10/31/2022 3:15:00 PM 10.18 50.324 0.163 7.24 2.24 12
10/31/2022 3:30:00 PM 10.21 50.378 0.163 7.24 2.36 11.95
10/31/2022 3:45:00 PM 10.24 50.432 0.163 7.23 2.3 11.87
10/31/2022 4:00:00 PM 10.26 50.468 0.163 7.24 2.26 11.82
10/31/2022 4:15:00 PM 10.27 50.486 0.163 7.23 2.21 11.76
10/31/2022 4:30:00 PM 10.29 50.522 0.163 7.22 2.21 11.67
10/31/2022 4:45:00 PM 10.31 50.558 0.163 7.21 2.27 11.6
10/31/2022 5:00:00 PM 10.33 50.594 0.163 7.2 2.27 11.52
10/31/2022 5:15:00 PM 10.35 50.63 0.163 7.19 2.18 11.43
10/31/2022 5:30:00 PM 10.36 50.648 0.163 7.17 2.19 11.29
10/31/2022 5:45:00 PM 10.36 50.648 0.163 7.15 2.09 11.13
10/31/2022 6:00:00 PM 10.36 50.648 0.163 7.13 2.34 10.95
10/31/2022 6:15:00 PM 10.36 50.648 0.163 7.11 2.22 10.77
10/31/2022 6:30:00 PM 10.35 50.63 0.164 7.09 2.22 10.55
10/31/2022 6:45:00 PM 10.34 50.612 0.164 7.06 2.12 10.33
10/31/2022 7:00:00 PM 10.33 50.594 0.164 7.04 2.21 10.14
10/31/2022 7:15:00 PM 10.33 50.594 0.164 7.03 2.18 9.97
10/31/2022 7:30:00 PM 10.33 50.594 0.164 7.01 2.1 9.82
10/31/2022 7:45:00 PM 10.33 50.594 0.165 7 2.22 9.66
10/31/2022 8:00:00 PM 10.33 50.594 0.165 6.98 2.15 9.54
10/31/2022 8:15:00 PM 10.33 50.594 0.165 6.97 2.05 9.43
10/31/2022 8:30:00 PM 10.33 50.594 0.165 6.96 2.17 9.29
10/31/2022 8:45:00 PM 10.33 50.594 0.165 6.95 2.39 9.25
10/31/2022 9:00:00 PM 10.33 50.594 0.165 6.93 2.13 9.16
10/31/2022 9:15:00 PM 10.33 50.594 0.165 6.93 2.19 9.09
10/31/2022 9:30:00 PM 10.33 50.594 0.165 6.92 2.42 8.99
10/31/2022 9:45:00 PM 10.33 50.594 0.164 6.91 2.04 8.98
10/31/2022 10:00:00 PM 10.32 50.576 0.164 6.91 2.11 8.87
10/31/2022 10:15:00 PM 10.32 50.576 0.164 6.9 2.15 8.81
10/31/2022 10:30:00 PM 10.33 50.594 0.164 6.89 2.14 8.76
10/31/2022 10:45:00 PM 10.33 50.594 0.164 6.88 2.02 8.69
10/31/2022 11:00:00 PM 10.34 50.612 0.164 6.88 2.02 8.62
10/31/2022 11:15:00 PM 10.34 50.612 0.163 6.87 2.21 8.58
10/31/2022 11:30:00 PM 10.34 50.612 0.163 6.86 1.99 8.55
10/31/2022 11:45:00 PM 10.35 50.63 0.163 6.85 3.99 8.51
11/1/2022 12:00:00 AM 10.35 50.63 0.163 6.85 1.96 8.52
11/1/2022 12:15:00 AM 10.35 50.63 0.163 6.85 1.98 8.5
11/1/2022 12:30:00 AM 10.36 50.648 0.163 6.85 1.88 8.48
11/1/2022 12:45:00 AM 10.36 50.648 0.163 6.84 1.92 8.46
11/1/2022 1:00:00 AM 10.37 50.666 0.163 6.84 1.94 8.46
11/1/2022 1:15:00 AM 10.37 50.666 0.163 6.84 1.93 8.48
11/1/2022 1:30:00 AM 10.38 50.684 0.163 6.84 1.86 8.49
11/1/2022 1:45:00 AM 10.38 50.684 0.162 6.84 1.87 8.5
11/1/2022 2:00:00 AM 10.38 50.684 0.162 6.84 1.91 8.51
11/1/2022 2:15:00 AM 10.39 50.702 0.162 6.84 1.93 8.54
11/1/2022 2:30:00 AM 10.39 50.702 0.162 6.84 2.06 8.51
11/1/2022 2:45:00 AM 10.4 50.72 0.162 6.83 1.89 8.53
11/1/2022 3:00:00 AM 10.4 50.72 0.162 6.84 1.85 8.52
11/1/2022 3:15:00 AM 10.41 50.738 0.162 6.83 2.22 8.53
11/1/2022 3:30:00 AM 10.41 50.738 0.161 6.83 1.85 8.56
11/1/2022 3:45:00 AM 10.42 50.756 0.161 6.83 1.89 8.53
11/1/2022 4:00:00 AM 10.42 50.756 0.161 6.83 1.84 8.57
11/1/2022 4:15:00 AM 10.43 50.774 0.161 6.83 1.84 8.58
11/1/2022 4:30:00 AM 10.43 50.774 0.161 6.83 1.82 8.56
11/1/2022 4:45:00 AM 10.44 50.792 0.16 6.83 1.85 8.6
11/1/2022 5:00:00 AM 10.44 50.792 0.16 6.83 1.81 8.57
11/1/2022 5:15:00 AM 10.45 50.81 0.159 6.82 2.18 8.56
11/1/2022 5:30:00 AM 10.45 50.81 0.159 6.82 1.9 8.5
11/1/2022 5:45:00 AM 10.45 50.81 0.159 6.81 1.9 8.43
11/1/2022 6:00:00 AM 10.46 50.828 0.159 6.81 2.06 8.43
11/1/2022 6:15:00 AM 10.46 50.828 0.158 6.8 1.85 8.43
11/1/2022 6:30:00 AM 10.47 50.846 0.158 6.8 1.94 8.37
11/1/2022 6:45:00 AM 10.47 50.846 0.157 6.8 1.89 8.38
11/1/2022 7:00:00 AM 10.48 50.864 0.157 6.8 1.88 8.35
11/1/2022 7:15:00 AM 10.48 50.864 0.157 6.79 1.94 8.32
11/1/2022 7:30:00 AM 10.49 50.882 0.157 6.79 1.92 8.31
11/1/2022 7:45:00 AM 10.49 50.882 0.156 6.79 2.32 8.32
11/1/2022 8:00:00 AM 10.5 50.9 0.156 6.79 3.46 8.21
11/1/2022 8:15:00 AM 10.51 50.918 0.156 6.79 2.08 8.29
11/1/2022 8:30:00 AM 10.51 50.918 0.156 6.78 1.92 8.33
11/1/2022 8:45:00 AM 10.53 50.954 0.155 6.79 1.94 8.45
11/1/2022 9:00:00 AM 10.54 50.972 0.153 6.8 2.13 8.59
11/1/2022 9:15:00 AM 10.56 51.008 0.152 6.81 2.35 8.7
11/1/2022 9:30:00 AM 10.6 51.08 0.151 6.81 2.42 8.76
11/1/2022 9:45:00 AM 10.63 51.134 0.15 6.81 5.14 8.98
11/1/2022 10:00:00 AM 10.69 51.242 0.149 6.83 3.04 9.13
11/1/2022 10:15:00 AM 10.74 51.332 0.147 6.84 3.82 9.19
11/1/2022 10:30:00 AM 10.81 51.458 0.146 6.87 4.49 9.39
11/1/2022 10:45:00 AM 10.88 51.584 0.145 6.88 4.63 9.59
11/1/2022 11:00:00 AM 10.97 51.746 0.145 6.89 3.97 9.84
11/1/2022 11:15:00 AM 11.09 51.962 0.145 6.86 3.18 9.98
11/1/2022 11:30:00 AM 11.22 52.196 0.145 6.88 2.7 10.32
11/1/2022 11:45:00 AM 11.35 52.43 0.146 6.88 2.31 10.62
11/1/2022 12:00:00 PM 11.51 52.718 0.145 6.88 2.17 10.82
11/1/2022 12:15:00 PM 11.69 53.042 0.145 6.88 2.03 11.03
11/1/2022 12:30:00 PM 11.92 53.456 0.145 6.89 1.95 11.21
11/1/2022 12:45:00 PM 12.09 53.762 0.145 6.9 1.88 11.25
11/1/2022 1:00:00 PM 12.28 54.104 0.144 6.93 1.98 11.26
11/1/2022 1:15:00 PM 12.46 54.428 0.144 6.91 1.9 11.34
11/1/2022 1:30:00 PM 12.63 54.734 0.144 6.93 1.87 11.26
11/1/2022 1:45:00 PM 12.78 55.004 0.144 6.92 1.81 11.32
11/1/2022 2:00:00 PM 12.97 55.346 0.144 6.93 1.79 11.34
11/1/2022 2:15:00 PM 13.2 55.76 0.144 6.93 2 11.31
11/1/2022 2:30:00 PM 13.34 56.012 0.143 6.94 1.9 11.27
11/1/2022 2:45:00 PM 13.49 56.282 0.143 6.95 1.87 11.19
11/1/2022 3:00:00 PM 13.7 56.66 0.143 6.92 1.85 11.15
11/1/2022 3:15:00 PM 14 57.2 0.143 6.91 1.72 11.11
11/1/2022 3:30:00 PM 14.24 57.632 0.142 6.92 1.88 11.03
11/1/2022 3:45:00 PM 14.51 58.118 0.142 6.94 1.8 10.96
11/1/2022 4:00:00 PM 14.66 58.388 0.142 6.96 1.92 10.88
11/1/2022 4:15:00 PM 14.81 58.658 0.142 6.96 1.82 10.74
11/1/2022 4:30:00 PM 14.87 58.766 0.142 6.95 1.91 10.51
11/1/2022 4:45:00 PM 14.93 58.874 0.142 6.95 1.92 10.24
11/1/2022 5:00:00 PM 14.95 58.91 0.143 6.94 1.87 10.05
11/1/2022 5:15:00 PM 14.94 58.892 0.143 6.93 1.87 9.89
11/1/2022 5:30:00 PM 14.92 58.856 0.143 6.92 1.91 9.74
11/1/2022 5:45:00 PM 14.82 58.676 0.143 6.89 1.89 9.57
11/1/2022 6:00:00 PM 14.68 58.424 0.144 6.87 1.87 9.36
11/1/2022 6:15:00 PM 14.52 58.136 0.144 6.89 1.9 9.12
11/1/2022 6:30:00 PM 14.33 57.794 0.145 6.89 1.85 8.88
11/1/2022 6:45:00 PM 14.12 57.416 0.145 6.86 1.93 8.67
11/1/2022 7:00:00 PM 13.93 57.074 0.146 6.88 2.18 8.49
11/1/2022 7:15:00 PM 13.75 56.75 0.146 6.84 2.04 8.31
11/1/2022 7:30:00 PM 13.57 56.426 0.147 6.86 1.95 8.19
11/1/2022 7:45:00 PM 13.38 56.084 0.147 6.87 1.95 8.09
11/1/2022 8:00:00 PM 13.21 55.778 0.148 6.86 1.88 8.01
11/1/2022 8:15:00 PM 13.07 55.526 0.148 6.84 1.89 7.93
11/1/2022 8:30:00 PM 12.96 55.328 0.149 6.85 1.86 7.91
11/1/2022 8:45:00 PM 12.86 55.148 0.149 6.84 1.91 7.88
11/1/2022 9:00:00 PM 12.79 55.022 0.149 6.85 1.88 7.83
11/1/2022 9:15:00 PM 12.7 54.86 0.15 6.84 2.05 7.83
11/1/2022 9:30:00 PM 12.61 54.698 0.15 6.85 2.08 7.83
11/1/2022 9:45:00 PM 12.54 54.572 0.15 6.84 1.84 7.84
11/1/2022 10:00:00 PM 12.47 54.446 0.15 6.84 1.92 7.85
11/1/2022 10:15:00 PM 12.4 54.32 0.15 6.83 1.86 7.87
11/1/2022 10:30:00 PM 12.31 54.158 0.15 6.84 1.89 7.88
11/1/2022 10:45:00 PM 12.19 53.942 0.15 6.82 1.87 7.91
11/1/2022 11:00:00 PM 12.09 53.762 0.15 6.84 1.84 7.89
11/1/2022 11:15:00 PM 12.02 53.636 0.15 6.83 1.8 7.9
11/1/2022 11:30:00 PM 11.92 53.456 0.151 6.83 1.82 7.84
11/1/2022 11:45:00 PM 11.8 53.24 0.15 6.84 1.87 7.95
11/2/2022 12:00:00 AM 11.67 53.006 0.15 6.84 2.04 8.06
11/2/2022 12:15:00 AM 11.54 52.772 0.15 6.84 1.89 8.15
11/2/2022 12:30:00 AM 11.43 52.574 0.149 6.86 1.94 8.28
11/2/2022 12:45:00 AM 11.33 52.394 0.149 6.85 1.83 8.37
11/2/2022 1:00:00 AM 11.23 52.214 0.149 6.86 1.85 8.52
11/2/2022 1:15:00 AM 11.16 52.088 0.149 6.87 1.83 8.68
11/2/2022 1:30:00 AM 11.1 51.98 0.149 6.87 4.54 8.77
11/2/2022 1:45:00 AM 11.07 51.926 0.149 6.87 1.92 8.79
11/2/2022 2:00:00 AM 11.06 51.908 0.149 6.86 2.02 8.8
11/2/2022 2:15:00 AM 11.05 51.89 0.148 6.86 1.92 8.85
11/2/2022 2:30:00 AM 11.04 51.872 0.148 6.87 1.96 8.88
11/2/2022 2:45:00 AM 11.02 51.836 0.148 6.87 1.77 8.86
11/2/2022 3:00:00 AM 11 51.8 0.148 6.87 1.79 8.89
11/2/2022 3:15:00 AM 11 51.8 0.148 6.86 1.78 8.93
11/2/2022 3:30:00 AM 10.98 51.764 0.148 6.86 1.91 8.91
11/2/2022 3:45:00 AM 10.98 51.764 0.148 6.86 1.78 8.95
11/2/2022 4:00:00 AM 10.96 51.728 0.148 6.84 1.75 8.94
11/2/2022 4:15:00 AM 10.95 51.71 0.148 6.85 1.83 8.96
11/2/2022 4:30:00 AM 10.93 51.674 0.148 6.85 1.77 8.96
11/2/2022 4:45:00 AM 10.91 51.638 0.148 6.85 1.72 8.97
11/2/2022 5:00:00 AM 10.89 51.602 0.148 6.86 1.78 8.98
11/2/2022 5:15:00 AM 10.88 51.584 0.148 6.87 1.74 9.04
11/2/2022 5:30:00 AM 10.87 51.566 0.148 6.87 1.76 9.06
11/2/2022 5:45:00 AM 10.85 51.53 0.148 6.86 1.86 9.08
11/2/2022 6:00:00 AM 10.82 51.476 0.148 6.86 1.84 9.08
11/2/2022 6:15:00 AM 10.8 51.44 0.148 6.86 1.74 9.16
11/2/2022 6:30:00 AM 10.78 51.404 0.148 6.86 1.78 9.13
11/2/2022 6:45:00 AM 10.74 51.332 0.148 6.86 1.74 9.14
11/2/2022 7:00:00 AM 10.72 51.296 0.148 6.85 1.73 9.1
11/2/2022 7:15:00 AM 10.7 51.26 0.148 6.84 1.77 9.14
11/2/2022 7:30:00 AM 10.67 51.206 0.148 6.84 1.78 9.15
11/2/2022 7:45:00 AM 10.64 51.152 0.149 6.84 1.74 9.16
11/2/2022 8:00:00 AM 10.62 51.116 0.149 6.86 1.73 9.17
11/2/2022 8:15:00 AM 10.6 51.08 0.149 6.88 2.83 9.23
11/2/2022 8:30:00 AM 10.6 51.08 0.149 6.86 5.13 9.04
11/2/2022 8:45:00 AM 10.6 51.08 0.149 6.89 3.51 9.37
11/2/2022 9:00:00 AM 10.6 51.08 0.149 6.91 1.79 9.6
11/2/2022 9:15:00 AM 10.61 51.098 0.149 6.91 1.68 9.74
11/2/2022 9:30:00 AM 10.63 51.134 0.149 6.92 1.64 9.9
11/2/2022 9:45:00 AM 10.66 51.188 0.149 6.92 1.69 10.14
11/2/2022 10:00:00 AM 10.71 51.278 0.148 6.93 2.02 10.38
11/2/2022 10:15:00 AM 10.76 51.368 0.148 6.95 1.72 10.58
11/2/2022 10:30:00 AM 10.84 51.512 0.148 6.96 1.71 10.85
11/2/2022 10:45:00 AM 10.97 51.746 0.148 7.01 1.73 11.15
11/2/2022 11:00:00 AM 11.08 51.944 0.147 6.99 1.77 11.33
11/2/2022 11:15:00 AM 11.21 52.178 0.147 7.01 1.75 11.45
11/2/2022 11:30:00 AM 11.27 52.286 0.147 7.01 1.67 11.5
11/2/2022 11:45:00 AM 11.3 52.34 0.147 7.05 1.8 11.58
11/2/2022 12:00:00 PM 11.39 52.502 0.147 7.05 2.21 11.61
11/2/2022 12:15:00 PM 11.65 52.97 0.147 7.01 1.91 11.71
11/2/2022 12:30:00 PM 11.94 53.492 0.147 7.02 1.71 11.73
11/2/2022 12:45:00 PM 12.25 54.05 0.147 7.02 1.75 11.71
11/2/2022 1:00:00 PM 12.54 54.572 0.147 7.11 1.72 11.67
11/2/2022 1:15:00 PM 12.86 55.148 0.148 7.07 1.7 11.62
11/2/2022 1:30:00 PM 13.15 55.67 0.148 7.07 1.71 11.56
11/2/2022 1:45:00 PM 13.5 56.3 0.148 7.13 1.8 11.52
11/2/2022 2:00:00 PM 13.88 56.984 0.148 7.08 1.7 11.49
11/2/2022 2:15:00 PM 14.28 57.704 0.148 7.07 1.66 11.39
11/2/2022 2:30:00 PM 14.58 58.244 0.148 7.07 1.69 11.28
11/2/2022 2:45:00 PM 14.91 58.838 0.148 7.06 1.73 11.2
11/2/2022 3:00:00 PM 15.17 59.306 0.148 7.06 1.69 11.05
11/2/2022 3:15:00 PM 15.41 59.738 0.149 7.08 1.72 10.96
11/2/2022 3:30:00 PM 15.59 60.062 0.149 7.07 1.76 10.83
11/2/2022 3:45:00 PM 15.66 60.188 0.149 7.13 1.71 10.7
11/2/2022 4:00:00 PM 15.71 60.278 0.149 7.1 1.77 10.57
11/2/2022 4:15:00 PM 15.72 60.296 0.149 7.1 1.74 10.45
11/2/2022 4:30:00 PM 15.7 60.26 0.15 7.08 1.88 10.4
11/2/2022 4:45:00 PM 15.62 60.116 0.15 7.08 1.71 10.31
11/2/2022 5:00:00 PM 15.39 59.702 0.151 7.1 1.85 10.25
11/2/2022 5:15:00 PM 15.08 59.144 0.151 7.1 1.8 10.07
11/2/2022 5:30:00 PM 14.72 58.496 0.152 7.1 1.84 9.95
11/2/2022 5:45:00 PM 14.35 57.83 0.153 7.09 1.86 9.8
11/2/2022 6:00:00 PM 13.97 57.146 0.154 7.07 1.95 9.65
11/2/2022 6:15:00 PM 13.59 56.462 0.155 7.06 1.96 9.5
11/2/2022 6:30:00 PM 13.29 55.922 0.155 7.05 1.83 9.37
11/2/2022 6:45:00 PM 12.99 55.382 0.156 7.03 1.93 9.29
11/2/2022 7:00:00 PM 12.75 54.95 0.156 7.02 1.92 9.18
11/2/2022 7:15:00 PM 12.5 54.5 0.157 7.01 2.12 9.11
11/2/2022 7:30:00 PM 12.26 54.068 0.157 7.01 1.93 9.09
11/2/2022 7:45:00 PM 12.04 53.672 0.158 7 1.91 9.05
11/2/2022 8:00:00 PM 11.86 53.348 0.158 6.99 1.85 9.05
11/2/2022 8:15:00 PM 11.69 53.042 0.158 6.99 1.91 9.03
11/2/2022 8:30:00 PM 11.54 52.772 0.158 6.98 1.91 9.01
11/2/2022 8:45:00 PM 11.39 52.502 0.158 6.98 2.16 9.06
11/2/2022 9:00:00 PM 11.26 52.268 0.158 6.98 2.01 9.13
11/2/2022 9:15:00 PM 11.14 52.052 0.158 6.97 1.87 9.12
11/2/2022 9:30:00 PM 11.04 51.872 0.158 6.97 1.92 9.11
11/2/2022 9:45:00 PM 10.94 51.692 0.158 6.97 1.8 9.08
11/2/2022 10:00:00 PM 10.83 51.494 0.158 6.96 1.86 9.14
11/2/2022 10:15:00 PM 10.76 51.368 0.158 6.95 1.82 9.15
11/2/2022 10:30:00 PM 10.67 51.206 0.158 6.95 1.77 9.2
11/2/2022 10:45:00 PM 10.6 51.08 0.158 6.95 1.79 9.21
11/2/2022 11:00:00 PM 10.51 50.918 0.158 6.94 1.85 9.23
11/2/2022 11:15:00 PM 10.42 50.756 0.158 6.92 1.79 9.24
11/2/2022 11:30:00 PM 10.35 50.63 0.158 6.94 1.79 9.26
11/2/2022 11:45:00 PM 10.27 50.486 0.158 6.94 1.9 9.3
11/3/2022 12:00:00 AM 10.2 50.36 0.158 6.93 1.81 9.35
11/3/2022 12:15:00 AM 10.11 50.198 0.158 6.93 1.78 9.35
11/3/2022 12:30:00 AM 10.04 50.072 0.158 6.94 1.76 9.37
11/3/2022 12:45:00 AM 9.96 49.928 0.158 6.93 1.77 9.43
11/3/2022 1:00:00 AM 9.89 49.802 0.158 6.92 1.78 9.4
11/3/2022 1:15:00 AM 9.82 49.676 0.158 6.9 1.76 9.48
11/3/2022 1:30:00 AM 9.72 49.496 0.158 6.9 1.8 9.55
11/3/2022 1:45:00 AM 9.65 49.37 0.158 6.9 1.78 9.57
11/3/2022 2:00:00 AM 9.57 49.226 0.158 6.88 1.75 9.6
11/3/2022 2:15:00 AM 9.49 49.082 0.158 6.9 1.83 9.65
11/3/2022 2:30:00 AM 9.41 48.938 0.158 6.9 1.76 9.68
11/3/2022 2:45:00 AM 9.34 48.812 0.158 6.9 1.71 9.73
11/3/2022 3:00:00 AM 9.27 48.686 0.158 6.9 1.72 9.75
11/3/2022 3:15:00 AM 9.22 48.596 0.158 6.9 1.73 9.81
11/3/2022 3:30:00 AM 9.16 48.488 0.158 6.9 1.8 9.81
11/3/2022 3:45:00 AM 9.09 48.362 0.158 6.9 1.82 9.85
11/3/2022 4:00:00 AM 9.03 48.254 0.158 6.9 1.81 9.89
11/3/2022 4:15:00 AM 8.97 48.146 0.158 6.91 1.78 9.93
11/3/2022 4:30:00 AM 8.92 48.056 0.158 6.92 1.75 9.97
11/3/2022 4:45:00 AM 8.88 47.984 0.158 6.93 1.74 9.99
11/3/2022 5:00:00 AM 8.85 47.93 0.158 6.93 1.74 10.01
11/3/2022 5:15:00 AM 8.8 47.84 0.158 6.93 1.75 10.03
11/3/2022 5:30:00 AM 8.76 47.768 0.158 6.93 1.77 10.07
11/3/2022 5:45:00 AM 8.73 47.714 0.158 6.93 1.71 10.09
11/3/2022 6:00:00 AM 8.69 47.642 0.158 6.93 1.69 10.11
11/3/2022 6:15:00 AM 8.66 47.588 0.158 6.92 1.72 10.09
11/3/2022 6:30:00 AM 8.64 47.552 0.158 6.9 1.71 10.07
11/3/2022 6:45:00 AM 8.6 47.48 0.158 6.9 1.77 10.13
11/3/2022 7:00:00 AM 8.57 47.426 0.158 6.91 1.69 10.14
11/3/2022 7:15:00 AM 8.54 47.372 0.159 6.9 1.71 10.1
11/3/2022 7:30:00 AM 8.51 47.318 0.159 6.92 1.72 10.14
11/3/2022 7:45:00 AM 8.46 47.228 0.159 6.92 1.71 10.14
11/3/2022 8:00:00 AM 8.43 47.174 0.159 6.91 1.7 10.19
11/3/2022 8:15:00 AM 8.39 47.102 0.159 6.92 1.67 10.19
11/3/2022 8:30:00 AM 8.38 47.084 0.159 6.92 1.71 10.22
11/3/2022 8:45:00 AM 8.38 47.084 0.159 6.94 1.84 10.26
11/3/2022 9:00:00 AM 8.38 47.084 0.159 6.94 1.65 10.34
11/3/2022 9:15:00 AM 8.39 47.102 0.159 6.94 1.63 10.43
11/3/2022 9:30:00 AM 8.41 47.138 0.158 6.95 1.68 10.77
11/3/2022 9:45:00 AM 8.43 47.174 0.158 6.96 1.68 10.9
11/3/2022 10:00:00 AM 8.5 47.3 0.157 6.98 1.85 11.2
11/3/2022 10:15:00 AM 8.58 47.444 0.157 7 2.02 11.47
11/3/2022 10:30:00 AM 8.68 47.624 0.157 7.01 6.61 11.64
11/3/2022 10:45:00 AM 8.81 47.858 0.156 7.01 1.92 11.89
11/3/2022 11:00:00 AM 8.92 48.056 0.155 7.03 1.72 12.07
11/3/2022 11:15:00 AM 8.95 48.11 0.155 7.05 1.64 12.2
11/3/2022 11:30:00 AM 8.98 48.164 0.154 7.06 1.7 12.24
11/3/2022 11:45:00 AM 9.11 48.398 0.154 7.07 1.62 12.32
11/3/2022 12:00:00 PM 9.36 48.848 0.154 7.07 1.66 12.37
11/3/2022 12:15:00 PM 9.65 49.37 0.153 7.08 1.6 12.37
11/3/2022 12:30:00 PM 10.03 50.054 0.153 7.06 1.61 12.34
11/3/2022 12:45:00 PM 10.43 50.774 0.153 7.05 1.58 12.31
11/3/2022 1:00:00 PM 10.77 51.386 0.152 7.06 1.65 12.26
11/3/2022 1:15:00 PM 11.19 52.142 0.152 7.07 1.74 12.18
11/3/2022 1:30:00 PM 11.54 52.772 0.152 7.07 1.71 12.12
11/3/2022 1:45:00 PM 11.95 53.51 0.152 7.09 1.59 12.06
11/3/2022 2:00:00 PM 12.45 54.41 0.152 7.08 1.58 11.95
11/3/2022 2:15:00 PM 12.9 55.22 0.151 7.09 1.58 11.87
11/3/2022 2:30:00 PM 13.21 55.778 0.151 7.1 1.58 11.76
11/3/2022 2:45:00 PM 13.55 56.39 0.151 7.09 1.58 11.65
11/3/2022 3:00:00 PM 13.82 56.876 0.151 7.1 1.62 11.53
11/3/2022 3:15:00 PM 14.17 57.506 0.151 7.09 1.64 11.35
11/3/2022 3:30:00 PM 14.33 57.794 0.151 7.09 1.66 11.21
11/3/2022 3:45:00 PM 14.45 58.01 0.151 7.11 1.74 11.08
11/3/2022 4:00:00 PM 14.56 58.208 0.151 7.09 1.67 10.95
11/3/2022 4:15:00 PM 14.68 58.424 0.151 7.1 1.78 10.89
11/3/2022 4:30:00 PM 14.69 58.442 0.151 7.11 1.63 10.76
11/3/2022 4:45:00 PM 14.64 58.352 0.151 7.1 1.59 10.66
11/3/2022 5:00:00 PM 14.48 58.064 0.151 7.12 1.62 10.53
11/3/2022 5:15:00 PM 14.32 57.776 0.151 7.11 1.67 10.38
11/3/2022 5:30:00 PM 14.08 57.344 0.152 7.08 1.73 10.18
11/3/2022 5:45:00 PM 13.76 56.768 0.153 7.07 1.69 10.02
11/3/2022 6:00:00 PM 13.44 56.192 0.154 7.07 2.01 9.88
11/3/2022 6:15:00 PM 13.12 55.616 0.154 7.06 1.8 9.74
11/3/2022 6:30:00 PM 12.8 55.04 0.155 7.05 1.74 9.62
11/3/2022 6:45:00 PM 12.5 54.5 0.156 7.05 1.73 9.51
11/3/2022 7:00:00 PM 12.22 53.996 0.156 7.04 1.72 9.43
11/3/2022 7:15:00 PM 11.97 53.546 0.157 7.04 1.94 9.36
11/3/2022 7:30:00 PM 11.74 53.132 0.157 7.03 1.7 9.29
11/3/2022 7:45:00 PM 11.5 52.7 0.158 7.02 1.72 9.3
11/3/2022 8:00:00 PM 11.31 52.358 0.158 7.02 1.74 9.27
11/3/2022 8:15:00 PM 11.1 51.98 0.158 7 2.75 9.23
11/3/2022 8:30:00 PM 10.94 51.692 0.159 7 1.73 9.24
11/3/2022 8:45:00 PM 10.76 51.368 0.159 6.99 1.71 9.2
11/3/2022 9:00:00 PM 10.61 51.098 0.159 6.99 1.74 9.22
11/3/2022 9:15:00 PM 10.46 50.828 0.159 6.97 1.67 9.24
11/3/2022 9:30:00 PM 10.32 50.576 0.159 6.98 1.65 9.27
11/3/2022 9:45:00 PM 10.16 50.288 0.159 6.96 1.76 9.32
11/3/2022 10:00:00 PM 10.04 50.072 0.159 6.96 1.69 9.31
11/3/2022 10:15:00 PM 9.91 49.838 0.159 6.96 1.66 9.37
11/3/2022 10:30:00 PM 9.8 49.64 0.159 6.96 1.69 9.4
11/3/2022 10:45:00 PM 9.69 49.442 0.159 6.95 1.63 9.45
11/3/2022 11:00:00 PM 9.58 49.244 0.159 6.95 1.73 9.49
11/3/2022 11:15:00 PM 9.49 49.082 0.159 6.95 1.67 9.5
11/3/2022 11:30:00 PM 9.39 48.902 0.159 6.95 1.68 9.53
11/3/2022 11:45:00 PM 9.32 48.776 0.159 6.96 1.7 9.54
11/4/2022 12:00:00 AM 9.24 48.632 0.159 6.95 1.69 9.57
11/4/2022 12:15:00 AM 9.16 48.488 0.159 6.95 1.79 9.59
11/4/2022 12:30:00 AM 9.08 48.344 0.159 6.95 1.65 9.68
11/4/2022 12:45:00 AM 9.02 48.236 0.159 6.95 1.64 9.65
11/4/2022 1:00:00 AM 8.95 48.11 0.159 6.95 1.64 9.71
11/4/2022 1:15:00 AM 8.88 47.984 0.159 6.94 1.68 9.69
11/4/2022 1:30:00 AM 8.82 47.876 0.158 6.94 1.76 9.74
11/4/2022 1:45:00 AM 8.76 47.768 0.158 6.94 1.63 9.77
11/4/2022 2:00:00 AM 8.69 47.642 0.158 6.94 1.58 9.83
11/4/2022 2:15:00 AM 8.61 47.498 0.158 6.94 1.66 9.9
11/4/2022 2:30:00 AM 8.56 47.408 0.158 6.94 1.62 9.86
11/4/2022 2:45:00 AM 8.48 47.264 0.158 6.95 1.66 9.91
11/4/2022 3:00:00 AM 8.42 47.156 0.158 6.93 1.63 9.94
11/4/2022 3:15:00 AM 8.34 47.012 0.158 6.93 1.65 9.96
11/4/2022 3:30:00 AM 8.28 46.904 0.158 6.92 1.62 10.04
11/4/2022 3:45:00 AM 8.21 46.778 0.158 6.93 2.06 10.08
11/4/2022 4:00:00 AM 8.15 46.67 0.158 6.94 2.29 10.11
11/4/2022 4:15:00 AM 8.09 46.562 0.157 6.94 1.63 10.14
11/4/2022 4:30:00 AM 8.02 46.436 0.157 6.94 1.68 10.11
11/4/2022 4:45:00 AM 7.97 46.346 0.157 6.95 2.01 10.16
11/4/2022 5:00:00 AM 7.9 46.22 0.157 6.95 1.82 10.18
11/4/2022 5:15:00 AM 7.85 46.13 0.157 6.95 1.77 10.21
11/4/2022 5:30:00 AM 7.77 45.986 0.157 6.95 1.8 10.24
11/4/2022 5:45:00 AM 7.74 45.932 0.157 6.95 1.77 10.3
11/4/2022 6:00:00 AM 7.69 45.842 0.157 6.95 1.76 10.3
11/4/2022 6:15:00 AM 7.63 45.734 0.157 6.95 1.75 10.31
11/4/2022 6:30:00 AM 7.57 45.626 0.157 6.93 1.69 10.33
11/4/2022 6:45:00 AM 7.53 45.554 0.157 6.93 1.7 10.35
11/4/2022 7:00:00 AM 7.49 45.482 0.157 6.93 1.65 10.33
11/4/2022 7:15:00 AM 7.44 45.392 0.157 6.93 1.65 10.38
11/4/2022 7:30:00 AM 7.4 45.32 0.157 6.92 1.9 10.4
11/4/2022 7:45:00 AM 7.35 45.23 0.157 6.92 1.62 10.39
11/4/2022 8:00:00 AM 7.31 45.158 0.157 6.92 1.66 10.47
11/4/2022 8:15:00 AM 7.29 45.122 0.157 6.93 1.64 10.49
11/4/2022 8:30:00 AM 7.27 45.086 0.157 6.93 1.61 10.58
11/4/2022 8:45:00 AM 7.24 45.032 0.157 6.95 1.64 10.78
11/4/2022 9:00:00 AM 7.26 45.068 0.157 6.97 1.54 11.01
11/4/2022 9:15:00 AM 7.27 45.086 0.156 6.98 1.52 11.26
11/4/2022 9:30:00 AM 7.28 45.104 0.156 7 1.56 11.46
11/4/2022 9:45:00 AM 7.31 45.158 0.155 7.01 1.51 11.7
11/4/2022 10:00:00 AM 7.33 45.194 0.155 7.02 1.57 11.85
11/4/2022 10:15:00 AM 7.38 45.284 0.155 7.03 1.55 12.02
11/4/2022 10:30:00 AM 7.42 45.356 0.154 7.04 1.63 12.08
11/4/2022 10:45:00 AM 7.52 45.536 0.154 7.05 1.53 12.21
11/4/2022 11:00:00 AM 7.64 45.752 0.153 7.06 1.57 12.36
11/4/2022 11:15:00 AM 7.77 45.986 0.153 7.07 1.65 12.39
11/4/2022 11:30:00 AM 7.94 46.292 0.152 7.08 1.54 12.48
11/4/2022 11:45:00 AM 8.17 46.706 0.152 7.09 1.64 12.52
11/4/2022 12:00:00 PM 8.46 47.228 0.152 7.09 1.52 12.52
11/4/2022 12:15:00 PM 8.89 48.002 0.151 7.08 1.54 12.52
11/4/2022 12:30:00 PM 9.36 48.848 0.151 7.09 1.52 12.52
11/4/2022 12:45:00 PM 9.79 49.622 0.151 7.09 1.56 12.49
11/4/2022 1:00:00 PM 10.25 50.45 0.15 7.09 1.65 12.44
11/4/2022 1:15:00 PM 10.76 51.368 0.15 7.09 1.54 12.35
11/4/2022 1:30:00 PM 11.11 51.998 0.15 7.09 1.47 12.24
11/4/2022 1:45:00 PM 11.58 52.844 0.15 7.09 1.47 12.14
11/4/2022 2:00:00 PM 12.04 53.672 0.149 7.08 1.53 12.02
11/4/2022 2:15:00 PM 12.43 54.374 0.149 7.1 1.51 11.86
11/4/2022 2:30:00 PM 12.92 55.256 0.149 7.09 1.45 11.8
11/4/2022 2:45:00 PM 13.2 55.76 0.149 7.08 1.54 11.71
11/4/2022 3:00:00 PM 13.51 56.318 0.149 7.08 1.87 11.54
11/4/2022 3:15:00 PM 13.88 56.984 0.149 7.09 1.5 11.45
11/4/2022 3:30:00 PM 14.15 57.47 0.148 7.07 1.64 11.34
11/4/2022 3:45:00 PM 14.32 57.776 0.148 7.1 1.59 11.22
11/4/2022 4:00:00 PM 14.51 58.118 0.148 7.1 1.55 11.07
11/4/2022 4:15:00 PM 14.67 58.406 0.148 7.1 1.55 10.99
11/4/2022 4:30:00 PM 14.79 58.622 0.148 7.11 1.56 10.86
11/4/2022 4:45:00 PM 14.85 58.73 0.148 7.12 1.58 10.79
11/4/2022 5:00:00 PM 14.81 58.658 0.148 7.13 1.57 10.65
11/4/2022 5:15:00 PM 14.74 58.532 0.149 7.1 1.59 10.48
11/4/2022 5:30:00 PM 14.66 58.388 0.149 7.1 1.67 10.36
11/4/2022 5:45:00 PM 14.53 58.154 0.149 7.1 1.68 10.16
11/4/2022 6:00:00 PM 14.33 57.794 0.15 7.08 1.6 9.93
11/4/2022 6:15:00 PM 14.1 57.38 0.15 7.06 1.68 9.68
11/4/2022 6:30:00 PM 13.88 56.984 0.151 7.04 1.7 9.43
11/4/2022 6:45:00 PM 13.61 56.498 0.152 7.04 1.65 9.3
11/4/2022 7:00:00 PM 13.38 56.084 0.153 7.03 1.75 9.14
11/4/2022 7:15:00 PM 13.12 55.616 0.154 7.02 1.97 9.05
11/4/2022 7:30:00 PM 12.89 55.202 0.154 7.01 1.7 8.96
11/4/2022 7:45:00 PM 12.61 54.698 0.155 7.01 1.71 9
11/4/2022 8:00:00 PM 12.32 54.176 0.155 7.02 1.86 9.09
11/4/2022 8:15:00 PM 12.05 53.69 0.155 7.02 1.68 9.22
11/4/2022 8:30:00 PM 11.76 53.168 0.156 7.02 1.77 9.34
11/4/2022 8:45:00 PM 11.52 52.736 0.156 7.03 1.75 9.5
11/4/2022 9:00:00 PM 11.29 52.322 0.156 7.04 1.93 9.58
11/4/2022 9:15:00 PM 11.15 52.07 0.156 7.05 1.86 9.68
11/4/2022 9:30:00 PM 11.05 51.89 0.156 7.05 1.76 9.74
11/4/2022 9:45:00 PM 10.97 51.746 0.157 7.05 1.82 9.78
11/4/2022 10:00:00 PM 10.91 51.638 0.157 7.05 1.93 9.81
11/4/2022 10:15:00 PM 10.85 51.53 0.157 7.05 1.75 9.87
11/4/2022 10:30:00 PM 10.8 51.44 0.157 7.05 1.77 9.91
11/4/2022 10:45:00 PM 10.73 51.314 0.157 7.05 2.22 9.94
11/4/2022 11:00:00 PM 10.67 51.206 0.157 7.04 1.72 9.99
11/4/2022 11:15:00 PM 10.6 51.08 0.157 7.04 1.74 10.02
11/4/2022 11:30:00 PM 10.53 50.954 0.157 7.04 2 10.06
11/4/2022 11:45:00 PM 10.45 50.81 0.157 7.05 1.78 10.08
11/5/2022 12:00:00 AM 10.37 50.666 0.157 7.04 1.82 10.12
11/5/2022 12:15:00 AM 10.3 50.54 0.157 7.05 1.75 10.2
11/5/2022 12:30:00 AM 10.24 50.432 0.158 7.05 1.85 10.22
11/5/2022 12:45:00 AM 10.2 50.36 0.158 7.05 1.99 10.23
11/5/2022 1:00:00 AM 10.16 50.288 0.159 7.05 1.88 10.23
11/5/2022 1:15:00 AM 10.13 50.234 0.16 7.05 1.88 10.25
11/5/2022 1:30:00 AM 10.11 50.198 0.161 7.05 1.82 10.27
11/5/2022 1:45:00 AM 10.1 50.18 0.162 7.05 1.79 10.27
11/5/2022 2:00:00 AM 10.1 50.18 0.162 7.05 1.85 10.27
11/5/2022 2:15:00 AM 10.1 50.18 0.163 7.05 1.93 10.27
11/5/2022 2:30:00 AM 10.1 50.18 0.164 7.06 1.82 10.27
11/5/2022 2:45:00 AM 10.09 50.162 0.165 7.05 1.88 10.27
11/5/2022 3:00:00 AM 10.1 50.18 0.165 7.05 1.92 10.27
11/5/2022 3:15:00 AM 10.1 50.18 0.166 7.05 1.93 10.29
11/5/2022 3:30:00 AM 10.11 50.198 0.167 7.05 1.92 10.29
11/5/2022 3:45:00 AM 10.12 50.216 0.167 7.05 1.89 10.3
11/5/2022 4:00:00 AM 10.14 50.252 0.168 7.04 1.87 10.3
11/5/2022 4:15:00 AM 10.16 50.288 0.168 7.05 1.85 10.31
11/5/2022 4:30:00 AM 10.18 50.324 0.168 7.05 1.83 10.32
11/5/2022 4:45:00 AM 10.2 50.36 0.169 7.05 1.91 10.32
11/5/2022 5:00:00 AM 10.22 50.396 0.169 7.04 1.91 10.31
11/5/2022 5:15:00 AM 10.24 50.432 0.169 7.05 1.87 10.32
11/5/2022 5:30:00 AM 10.25 50.45 0.17 7.05 1.97 10.32
11/5/2022 5:45:00 AM 10.25 50.45 0.17 7.05 1.96 10.31
11/5/2022 6:00:00 AM 10.24 50.432 0.17 7.05 1.92 10.32
11/5/2022 6:15:00 AM 10.25 50.45 0.17 7.05 1.87 10.33
11/5/2022 6:30:00 AM 10.25 50.45 0.17 7.05 1.83 10.33
11/5/2022 6:45:00 AM 10.25 50.45 0.171 7.04 1.85 10.35
11/5/2022 7:00:00 AM 10.24 50.432 0.171 7.04 1.88 10.34
11/5/2022 7:15:00 AM 10.24 50.432 0.171 7.05 1.88 10.35
11/5/2022 7:30:00 AM 10.26 50.468 0.171 7.04 1.89 10.35
11/5/2022 7:45:00 AM 10.28 50.504 0.171 7.04 1.94 10.35
11/5/2022 8:00:00 AM 10.32 50.576 0.171 7.04 1.85 10.37
11/5/2022 8:15:00 AM 10.34 50.612 0.171 7.05 1.84 10.4
11/5/2022 8:30:00 AM 10.39 50.702 0.171 7.06 1.89 10.5
11/5/2022 8:45:00 AM 10.45 50.81 0.171 7.07 1.81 10.61
11/5/2022 9:00:00 AM 10.52 50.936 0.171 7.09 1.85 10.73
11/5/2022 9:15:00 AM 10.59 51.062 0.171 7.1 1.81 10.83
11/5/2022 9:30:00 AM 10.67 51.206 0.171 7.11 1.78 10.92
11/5/2022 9:45:00 AM 10.76 51.368 0.171 7.13 1.83 11.02
11/5/2022 10:00:00 AM 10.87 51.566 0.17 7.15 1.87 11.13
11/5/2022 10:15:00 AM 10.99 51.782 0.17 7.17 1.96 11.22
11/5/2022 10:30:00 AM 11.12 52.016 0.17 7.18 1.78 11.3
11/5/2022 10:45:00 AM 11.25 52.25 0.17 7.2 1.82 11.35
11/5/2022 11:00:00 AM 11.35 52.43 0.17 7.22 2.33 11.36
11/5/2022 11:15:00 AM 11.44 52.592 0.17 7.23 1.85 11.36
11/5/2022 11:30:00 AM 11.53 52.754 0.17 7.24 1.91 11.38
11/5/2022 11:45:00 AM 11.6 52.88 0.17 7.25 1.86 11.38
11/5/2022 12:00:00 PM 11.68 53.024 0.17 7.26 1.83 11.38
11/5/2022 12:15:00 PM 11.75 53.15 0.17 7.26 1.95 11.37
11/5/2022 12:30:00 PM 11.84 53.312 0.17 7.28 1.8 11.37
11/5/2022 12:45:00 PM 11.94 53.492 0.17 7.28 1.83 11.35
11/5/2022 1:00:00 PM 12.02 53.636 0.17 7.29 1.75 11.33
11/5/2022 1:15:00 PM 12.09 53.762 0.17 7.3 1.86 11.32
11/5/2022 1:30:00 PM 12.16 53.888 0.17 7.31 1.84 11.32
11/5/2022 1:45:00 PM 12.23 54.014 0.17 7.31 1.77 11.27
11/5/2022 2:00:00 PM 12.29 54.122 0.17 7.3 1.84 11.25
11/5/2022 2:15:00 PM 12.36 54.248 0.17 7.31 1.98 11.22
11/5/2022 2:30:00 PM 12.43 54.374 0.17 7.31 2.2 11.2
11/5/2022 2:45:00 PM 12.49 54.482 0.17 7.32 1.87 11.19
11/5/2022 3:00:00 PM 12.59 54.662 0.17 7.32 1.86 11.19
11/5/2022 3:15:00 PM 12.65 54.77 0.17 7.33 1.8 11.13
11/5/2022 3:30:00 PM 12.73 54.914 0.169 7.32 1.77 11.11
11/5/2022 3:45:00 PM 12.78 55.004 0.169 7.32 1.91 11.07
11/5/2022 4:00:00 PM 12.86 55.148 0.169 7.32 1.8 11.05
11/5/2022 4:15:00 PM 12.9 55.22 0.169 7.32 1.69 11.02
11/5/2022 4:30:00 PM 12.93 55.274 0.169 7.32 1.84 11.01
11/5/2022 4:45:00 PM 12.98 55.364 0.169 7.32 1.95 10.97
11/5/2022 5:00:00 PM 13 55.4 0.169 7.32 2 10.9
11/5/2022 5:15:00 PM 13.02 55.436 0.17 7.3 2.14 10.83
11/5/2022 5:30:00 PM 13.03 55.454 0.17 7.29 1.94 10.71
11/5/2022 5:45:00 PM 13.03 55.454 0.17 7.28 2.08 10.57
11/5/2022 6:00:00 PM 13.03 55.454 0.17 7.24 1.81 10.39
11/5/2022 6:15:00 PM 13.04 55.472 0.17 7.22 1.82 10.24
11/5/2022 6:30:00 PM 13.03 55.454 0.171 7.2 1.78 10.12
11/5/2022 6:45:00 PM 13.04 55.472 0.171 7.18 1.8 10.02
11/5/2022 7:00:00 PM 13.06 55.508 0.171 7.17 1.83 9.9
11/5/2022 7:15:00 PM 13.05 55.49 0.171 7.16 1.8 9.84
11/5/2022 7:30:00 PM 13.02 55.436 0.171 7.15 1.85 9.78
11/5/2022 7:45:00 PM 12.98 55.364 0.172 7.14 1.79 9.73
11/5/2022 8:00:00 PM 12.98 55.364 0.172 7.13 1.82 9.71
11/5/2022 8:15:00 PM 12.98 55.364 0.172 7.12 1.79 9.66
11/5/2022 8:30:00 PM 12.99 55.382 0.172 7.11 1.81 9.63
11/5/2022 8:45:00 PM 13 55.4 0.172 7.11 1.75 9.61
11/5/2022 9:00:00 PM 13 55.4 0.172 7.11 1.81 9.58
11/5/2022 9:15:00 PM 13 55.4 0.172 7.1 1.81 9.58
11/5/2022 9:30:00 PM 13.02 55.436 0.172 7.1 1.88 9.57
11/5/2022 9:45:00 PM 13.03 55.454 0.173 7.09 1.78 9.56
11/5/2022 10:00:00 PM 13.02 55.436 0.173 7.09 1.84 9.54
11/5/2022 10:15:00 PM 13 55.4 0.173 7.08 1.82 9.53
11/5/2022 10:30:00 PM 12.99 55.382 0.173 7.07 1.83 9.52
11/5/2022 10:45:00 PM 12.99 55.382 0.173 7.08 1.76 9.51
11/5/2022 11:00:00 PM 13 55.4 0.173 7.08 1.71 9.52
11/5/2022 11:15:00 PM 13.01 55.418 0.173 7.08 1.88 9.52
11/5/2022 11:30:00 PM 13.01 55.418 0.173 7.08 1.83 9.52
11/5/2022 11:45:00 PM 13.01 55.418 0.173 7.08 1.73 9.51
11/6/2022 12:00:00 AM 13.02 55.436 0.173 7.08 1.83 9.5
11/6/2022 12:15:00 AM 13.01 55.418 0.173 7.08 1.77 9.51
11/6/2022 12:30:00 AM 13.02 55.436 0.173 7.07 1.76 9.52
11/6/2022 12:45:00 AM 13.01 55.418 0.173 7.08 1.86 9.52
11/6/2022 1:00:00 AM 13.01 55.418 0.173 7.07 1.79 9.51
11/6/2022 1:15:00 AM 13 55.4 0.173 7.07 1.77 9.52
11/6/2022 1:30:00 AM 13.01 55.418 0.173 7.07 1.76 9.53
11/6/2022 1:45:00 AM 13.03 55.454 0.173 7.07 1.82 9.53
11/6/2022 2:00:00 AM 13.05 55.49 0.173 7.07 1.79 9.52
11/6/2022 2:15:00 AM 13.06 55.508 0.173 7.07 1.91 9.51
11/6/2022 2:30:00 AM 13.07 55.526 0.173 7.07 1.8 9.51
11/6/2022 2:45:00 AM 13.07 55.526 0.173 7.07 1.75 9.51
11/6/2022 3:00:00 AM 13.06 55.508 0.173 7.07 2.15 9.51
11/6/2022 3:15:00 AM 13.05 55.49 0.173 7.07 1.8 9.52
11/6/2022 3:30:00 AM 13.03 55.454 0.173 7.07 1.78 9.52
11/6/2022 3:45:00 AM 13.02 55.436 0.173 7.06 1.76 9.52
11/6/2022 4:00:00 AM 13.02 55.436 0.173 7.06 1.81 9.52
11/6/2022 4:15:00 AM 13.01 55.418 0.173 7.06 1.76 9.54
11/6/2022 4:30:00 AM 12.98 55.364 0.173 7.06 1.73 9.55
11/6/2022 4:45:00 AM 12.95 55.31 0.173 7.06 1.71 9.57
11/6/2022 5:00:00 AM 12.94 55.292 0.173 7.06 1.71 9.57
11/6/2022 5:15:00 AM 12.94 55.292 0.173 7.06 1.77 9.57
11/6/2022 5:30:00 AM 12.92 55.256 0.173 7.06 1.74 9.57
11/6/2022 5:45:00 AM 12.92 55.256 0.173 7.06 1.79 9.57
11/6/2022 6:00:00 AM 12.93 55.274 0.173 7.06 1.65 9.58
11/6/2022 6:15:00 AM 12.91 55.238 0.173 7.06 1.83 9.57
11/6/2022 6:30:00 AM 12.91 55.238 0.173 7.06 1.69 9.58
11/6/2022 6:45:00 AM 12.91 55.238 0.173 7.06 1.73 9.57
11/6/2022 7:00:00 AM 12.94 55.292 0.172 7.06 1.8 9.58
11/6/2022 7:15:00 AM 12.92 55.256 0.172 7.05 1.85 9.58
11/6/2022 7:30:00 AM 12.91 55.238 0.172 7.05 1.8 9.61
11/6/2022 7:45:00 AM 12.91 55.238 0.172 7.06 1.75 9.67
11/6/2022 8:00:00 AM 12.92 55.256 0.172 7.07 1.72 9.74
11/6/2022 8:15:00 AM 12.92 55.256 0.172 7.08 1.74 9.89
11/6/2022 8:30:00 AM 12.94 55.292 0.171 7.09 1.75 10.07
11/6/2022 8:45:00 AM 12.99 55.382 0.171 7.11 1.73 10.29
11/6/2022 9:00:00 AM 13.07 55.526 0.171 7.13 1.81 10.45
11/6/2022 9:15:00 AM 13.17 55.706 0.17 7.15 1.79 10.61
11/6/2022 9:30:00 AM 13.29 55.922 0.17 7.17 1.84 10.72
11/6/2022 9:45:00 AM 13.38 56.084 0.17 7.19 1.77 10.81
11/6/2022 10:00:00 AM 13.44 56.192 0.17 7.21 1.77 10.91
11/6/2022 10:15:00 AM 13.5 56.3 0.17 7.23 1.71 10.94
11/6/2022 10:30:00 AM 13.52 56.336 0.17 7.25 1.74 10.97
11/6/2022 10:45:00 AM 13.53 56.354 0.17 7.25 1.74 10.94
11/6/2022 11:00:00 AM 13.57 56.426 0.17 7.24 1.79 10.97
11/6/2022 11:15:00 AM 13.73 56.714 0.17 7.26 1.72 11
11/6/2022 11:30:00 AM 13.9 57.02 0.17 7.28 1.67 11.04
11/6/2022 11:45:00 AM 14.12 57.416 0.169 7.3 1.71 11.04
11/6/2022 12:00:00 PM 14.33 57.794 0.169 7.31 1.71 11.02
11/6/2022 12:15:00 PM 14.62 58.316 0.169 7.32 1.69 11.02
11/6/2022 12:30:00 PM 14.87 58.766 0.169 7.33 1.76 10.97
11/6/2022 12:45:00 PM 15.05 59.09 0.169 7.34 1.71 10.94
11/6/2022 1:00:00 PM 15.15 59.27 0.169 7.34 1.65 10.91
11/6/2022 1:15:00 PM 15.33 59.594 0.169 7.35 1.68 10.89
11/6/2022 1:30:00 PM 15.57 60.026 0.169 7.35 1.66 10.86
11/6/2022 1:45:00 PM 15.81 60.458 0.169 7.36 1.66 10.82
11/6/2022 2:00:00 PM 15.96 60.728 0.169 7.35 1.7 10.75
11/6/2022 2:15:00 PM 15.96 60.728 0.169 7.35 1.71 10.71
11/6/2022 2:30:00 PM 15.9 60.62 0.169 7.35 1.67 10.66
11/6/2022 2:45:00 PM 15.85 60.53 0.169 7.35 1.81 10.62
11/6/2022 3:00:00 PM 15.75 60.35 0.169 7.34 1.83 10.55
11/6/2022 3:15:00 PM 15.64 60.152 0.169 7.33 1.83 10.47
11/6/2022 3:30:00 PM 15.5 59.9 0.169 7.33 1.73 10.35
11/6/2022 3:45:00 PM 15.43 59.774 0.169 7.3 2.32 10.21
11/6/2022 4:00:00 PM 15.39 59.702 0.169 7.29 1.69 10.14
11/6/2022 4:15:00 PM 15.34 59.612 0.17 7.28 1.95 10.05
11/6/2022 4:30:00 PM 15.29 59.522 0.17 7.26 1.7 9.96
11/6/2022 4:45:00 PM 15.25 59.45 0.17 7.24 1.67 9.82
11/6/2022 5:00:00 PM 15.2 59.36 0.17 7.22 1.71 9.69
11/6/2022 5:15:00 PM 15.15 59.27 0.17 7.2 1.72 9.55
11/6/2022 5:30:00 PM 15.13 59.234 0.171 7.18 1.74 9.44
11/6/2022 5:45:00 PM 15.09 59.162 0.171 7.17 1.72 9.34
11/6/2022 6:00:00 PM 15.06 59.108 0.171 7.15 1.81 9.26
11/6/2022 6:15:00 PM 15 59 0.171 7.14 1.76 9.18
11/6/2022 6:30:00 PM 14.91 58.838 0.172 7.12 1.72 9.15
11/6/2022 6:45:00 PM 14.81 58.658 0.172 7.11 1.69 9.14
11/6/2022 7:00:00 PM 14.71 58.478 0.172 7.1 1.75 9.12
11/6/2022 7:15:00 PM 14.62 58.316 0.172 7.1 2.43 9.11
11/6/2022 7:30:00 PM 14.54 58.172 0.172 7.09 1.77 9.1
11/6/2022 7:45:00 PM 14.46 58.028 0.172 7.09 1.66 9.12
11/6/2022 8:00:00 PM 14.39 57.902 0.172 7.08 1.72 9.11
11/6/2022 8:15:00 PM 14.33 57.794 0.173 7.07 1.7 9.1
11/6/2022 8:30:00 PM 14.25 57.65 0.173 7.07 1.8 9.14
11/6/2022 8:45:00 PM 14.18 57.524 0.173 7.07 1.71 9.15
11/6/2022 9:00:00 PM 14.11 57.398 0.173 7.06 1.73 9.14
11/6/2022 9:15:00 PM 14.05 57.29 0.173 7.06 1.74 9.16
11/6/2022 9:30:00 PM 14 57.2 0.173 7.06 1.67 9.18
11/6/2022 9:45:00 PM 13.95 57.11 0.173 7.05 1.69 9.19
11/6/2022 10:00:00 PM 13.91 57.038 0.173 7.05 1.7 9.2
11/6/2022 10:15:00 PM 13.85 56.93 0.173 7.04 1.67 9.21
11/6/2022 10:30:00 PM 13.79 56.822 0.174 7.04 1.69 9.24
11/6/2022 10:45:00 PM 13.75 56.75 0.174 7.04 1.83 9.25
11/6/2022 11:00:00 PM 13.72 56.696 0.174 7.04 1.72 9.28
11/6/2022 11:15:00 PM 13.66 56.588 0.174 7.04 2.03 9.3
11/6/2022 11:30:00 PM 13.61 56.498 0.174 7.04 1.71 9.32
11/6/2022 11:45:00 PM 13.54 56.372 0.174 7.03 1.64 9.34
11/7/2022 12:00:00 AM 13.48 56.264 0.174 7.03 1.77 9.34
11/7/2022 12:15:00 AM 13.41 56.138 0.174 7.03 1.82 9.37
11/7/2022 12:30:00 AM 13.33 55.994 0.174 7.03 1.78 9.37
11/7/2022 12:45:00 AM 13.26 55.868 0.174 7.03 1.7 9.4
11/7/2022 1:00:00 AM 13.19 55.742 0.174 7.02 1.74 9.41
11/7/2022 1:15:00 AM 13.13 55.634 0.174 7.02 1.7 9.43
11/7/2022 1:30:00 AM 13.08 55.544 0.174 7.01 1.75 9.44
11/7/2022 1:45:00 AM 13.06 55.508 0.174 7.02 1.75 9.46
11/7/2022 2:00:00 AM 13.05 55.49 0.174 7.01 1.69 9.46
11/7/2022 2:15:00 AM 13.03 55.454 0.174 7 1.71 9.45
11/7/2022 2:30:00 AM 13.02 55.436 0.174 6.99 1.7 9.45
11/7/2022 2:45:00 AM 13.01 55.418 0.174 7 1.69 9.45
11/7/2022 3:00:00 AM 12.97 55.346 0.174 7 1.74 9.47
11/7/2022 3:15:00 AM 12.93 55.274 0.174 6.99 1.65 9.49
11/7/2022 3:30:00 AM 12.88 55.184 0.174 7 1.7 9.51
11/7/2022 3:45:00 AM 12.83 55.094 0.173 7 1.73 9.54
11/7/2022 4:00:00 AM 12.78 55.004 0.173 7 1.68 9.55
11/7/2022 4:15:00 AM 12.74 54.932 0.173 7 1.7 9.56
11/7/2022 4:30:00 AM 12.7 54.86 0.173 7.01 1.74 9.57
11/7/2022 4:45:00 AM 12.65 54.77 0.173 7.01 1.72 9.59
11/7/2022 5:00:00 AM 12.61 54.698 0.173 7.01 1.71 9.59
11/7/2022 5:15:00 AM 12.57 54.626 0.173 7.01 1.69 9.59
11/7/2022 5:30:00 AM 12.53 54.554 0.173 7.01 1.78 9.61
11/7/2022 5:45:00 AM 12.49 54.482 0.173 7.01 1.71 9.62
11/7/2022 6:00:00 AM 12.46 54.428 0.173 7.01 1.69 9.62
11/7/2022 6:15:00 AM 12.42 54.356 0.173 7.01 1.69 9.64
11/7/2022 6:30:00 AM 12.38 54.284 0.173 7.01 1.7 9.65
11/7/2022 6:45:00 AM 12.34 54.212 0.173 7.01 1.82 9.67
11/7/2022 7:00:00 AM 12.3 54.14 0.173 7.01 1.89 9.7
11/7/2022 7:15:00 AM 12.27 54.086 0.173 7.02 2.07 9.76
11/7/2022 7:30:00 AM 12.24 54.032 0.173 7.03 1.75 9.82
11/7/2022 7:45:00 AM 12.22 53.996 0.173 7.04 1.66 9.91
11/7/2022 8:00:00 AM 12.21 53.978 0.172 7.05 1.63 10.01
11/7/2022 8:15:00 AM 12.22 53.996 0.172 7.06 1.81 10.12
11/7/2022 8:30:00 AM 12.24 54.032 0.172 7.07 2.24 10.21
11/7/2022 8:45:00 AM 12.28 54.104 0.172 7.09 1.64 10.35
11/7/2022 9:00:00 AM 12.34 54.212 0.172 7.11 1.73 10.46
11/7/2022 9:15:00 AM 12.41 54.338 0.171 7.13 1.69 10.56
11/7/2022 9:30:00 AM 12.51 54.518 0.171 7.14 1.61 10.65
11/7/2022 9:45:00 AM 12.62 54.716 0.171 7.16 1.6 10.72
11/7/2022 10:00:00 AM 12.72 54.896 0.171 7.18 1.6 10.81
11/7/2022 10:15:00 AM 12.81 55.058 0.17 7.19 1.64 10.85
11/7/2022 10:30:00 AM 12.92 55.256 0.17 7.21 1.6 10.9
11/7/2022 10:45:00 AM 13.06 55.508 0.17 7.23 1.63 10.95
11/7/2022 11:00:00 AM 13.22 55.796 0.17 7.24 1.69 10.98
11/7/2022 11:15:00 AM 13.38 56.084 0.17 7.25 1.6 11.02
11/7/2022 11:30:00 AM 13.55 56.39 0.17 7.27 1.69 11.03
11/7/2022 11:45:00 AM 13.75 56.75 0.17 7.28 1.72 11.05
11/7/2022 12:00:00 PM 14 57.2 0.17 7.29 1.75 11.06
11/7/2022 12:15:00 PM 14.22 57.596 0.17 7.3 1.55 11.06
11/7/2022 12:30:00 PM 14.45 58.01 0.17 7.32 1.74 11.05
11/7/2022 12:45:00 PM 14.67 58.406 0.169 7.33 1.56 11.03
11/7/2022 1:00:00 PM 14.87 58.766 0.169 7.34 1.57 11.01
11/7/2022 1:15:00 PM 15.05 59.09 0.169 7.34 1.73 10.98
11/7/2022 1:30:00 PM 15.15 59.27 0.169 7.36 1.59 10.96
11/7/2022 1:45:00 PM 15.22 59.396 0.169 7.36 1.62 10.93
11/7/2022 2:00:00 PM 15.22 59.396 0.169 7.36 1.62 10.89
11/7/2022 2:15:00 PM 15.22 59.396 0.169 7.36 1.6 10.83
11/7/2022 2:30:00 PM 15.16 59.288 0.169 7.36 1.6 10.8
11/7/2022 2:45:00 PM 15.03 59.054 0.169 7.36 1.67 10.73
11/7/2022 3:00:00 PM 14.84 58.712 0.169 7.36 1.63 10.64
11/7/2022 3:15:00 PM 14.62 58.316 0.169 7.34 1.57 10.55
11/7/2022 3:30:00 PM 14.36 57.848 0.169 7.33 1.58 10.45
11/7/2022 3:45:00 PM 14.15 57.47 0.17 7.31 7.9 10.36
11/7/2022 4:00:00 PM 13.97 57.146 0.17 7.29 1.86 10.23
11/7/2022 4:15:00 PM 13.84 56.912 0.17 7.27 1.84 10.14
11/7/2022 4:30:00 PM 13.75 56.75 0.17 7.25 1.66 10.07
11/7/2022 4:45:00 PM 13.66 56.588 0.17 7.23 1.69 10.03
11/7/2022 5:00:00 PM 13.55 56.39 0.17 7.22 1.6 9.94
11/7/2022 5:15:00 PM 13.44 56.192 0.171 7.2 1.66 9.88
11/7/2022 5:30:00 PM 13.32 55.976 0.171 7.19 1.67 9.82
11/7/2022 5:45:00 PM 13.21 55.778 0.171 7.17 1.63 9.77
11/7/2022 6:00:00 PM 13.1 55.58 0.171 7.16 1.9 9.74
11/7/2022 6:15:00 PM 12.99 55.382 0.171 7.15 1.67 9.72
11/7/2022 6:30:00 PM 12.87 55.166 0.171 7.14 1.73 9.71
11/7/2022 6:45:00 PM 12.75 54.95 0.172 7.13 1.65 9.71
11/7/2022 7:00:00 PM 12.64 54.752 0.172 7.13 1.72 9.71
11/7/2022 7:15:00 PM 12.53 54.554 0.172 7.12 1.7 9.71
11/7/2022 7:30:00 PM 12.42 54.356 0.172 7.12 1.65 9.72
11/7/2022 7:45:00 PM 12.33 54.194 0.172 7.12 1.71 9.75
11/7/2022 8:00:00 PM 12.25 54.05 0.172 7.11 1.74 9.74
11/7/2022 8:15:00 PM 12.16 53.888 0.172 7.11 1.65 9.76
11/7/2022 8:30:00 PM 12.09 53.762 0.172 7.11 1.62 9.78
11/7/2022 8:45:00 PM 12 53.6 0.172 7.11 1.72 9.8
11/7/2022 9:00:00 PM 11.94 53.492 0.172 7.11 1.6 9.8
11/7/2022 9:15:00 PM 11.88 53.384 0.172 7.1 1.62 9.82
11/7/2022 9:30:00 PM 11.82 53.276 0.172 7.1 1.63 9.84
11/7/2022 9:45:00 PM 11.79 53.222 0.172 7.1 1.65 9.83
11/7/2022 10:00:00 PM 11.76 53.168 0.172 7.1 1.63 9.86
11/7/2022 10:15:00 PM 11.72 53.096 0.172 7.1 1.59 9.87
11/7/2022 10:30:00 PM 11.68 53.024 0.173 7.1 1.62 9.89
11/7/2022 10:45:00 PM 11.63 52.934 0.173 7.1 1.64 9.89
11/7/2022 11:00:00 PM 11.56 52.808 0.173 7.1 1.57 9.92
11/7/2022 11:15:00 PM 11.5 52.7 0.173 7.09 1.59 9.94
11/7/2022 11:30:00 PM 11.43 52.574 0.173 7.09 1.6 9.94
11/7/2022 11:45:00 PM 11.36 52.448 0.173 7.09 1.77 9.99
11/8/2022 12:00:00 AM 11.3 52.34 0.173 7.1 1.56 10
11/8/2022 12:15:00 AM 11.24 52.232 0.173 7.1 1.62 10.04
11/8/2022 12:30:00 AM 11.19 52.142 0.173 7.1 1.7 10.06
11/8/2022 12:45:00 AM 11.13 52.034 0.173 7.1 1.65 10.06
11/8/2022 1:00:00 AM 11.07 51.926 0.173 7.1 1.66 10.1
11/8/2022 1:15:00 AM 11 51.8 0.173 7.1 1.59 10.13
11/8/2022 1:30:00 AM 10.92 51.656 0.173 7.09 1.56 10.15
11/8/2022 1:45:00 AM 10.87 51.566 0.173 7.09 1.68 10.17
11/8/2022 2:00:00 AM 10.82 51.476 0.173 7.09 1.84 10.19
11/8/2022 2:15:00 AM 10.77 51.386 0.173 7.09 1.6 10.22
11/8/2022 2:30:00 AM 10.72 51.296 0.173 7.09 1.69 10.23
11/8/2022 2:45:00 AM 10.68 51.224 0.173 7.09 1.63 10.25
11/8/2022 3:00:00 AM 10.63 51.134 0.173 7.09 1.57 10.27
11/8/2022 3:15:00 AM 10.6 51.08 0.173 7.09 2.04 10.27
11/8/2022 3:30:00 AM 10.54 50.972 0.173 7.09 1.68 10.29
11/8/2022 3:45:00 AM 10.5 50.9 0.173 7.09 1.58 10.31
11/8/2022 4:00:00 AM 10.47 50.846 0.173 7.09 1.63 10.33
11/8/2022 4:15:00 AM 10.42 50.756 0.173 7.09 2.17 10.34
11/8/2022 4:30:00 AM 10.38 50.684 0.172 7.09 1.63 10.35
11/8/2022 4:45:00 AM 10.34 50.612 0.172 7.09 1.6 10.37
11/8/2022 5:00:00 AM 10.3 50.54 0.172 7.09 1.65 10.39
11/8/2022 5:15:00 AM 10.24 50.432 0.172 7.09 1.65 10.39
11/8/2022 5:30:00 AM 10.19 50.342 0.172 7.09 1.6 10.42
11/8/2022 5:45:00 AM 10.14 50.252 0.172 7.09 1.62 10.44
11/8/2022 6:00:00 AM 10.1 50.18 0.172 7.09 1.68 10.45
11/8/2022 6:15:00 AM 10.04 50.072 0.172 7.09 1.58 10.47
11/8/2022 6:30:00 AM 9.99 49.982 0.172 7.09 1.61 10.49
11/8/2022 6:45:00 AM 9.94 49.892 0.172 7.09 1.7 10.52
11/8/2022 7:00:00 AM 9.9 49.82 0.172 7.09 1.63 10.53
11/8/2022 7:15:00 AM 9.86 49.748 0.172 7.09 1.56 10.62
11/8/2022 7:30:00 AM 9.88 49.784 0.172 7.1 1.61 10.71
11/8/2022 7:45:00 AM 9.9 49.82 0.172 7.11 1.59 10.83
11/8/2022 8:00:00 AM 9.9 49.82 0.172 7.13 1.62 10.94
11/8/2022 8:15:00 AM 9.9 49.82 0.172 7.14 1.56 11.06
11/8/2022 8:30:00 AM 9.93 49.874 0.171 7.16 1.68 11.19
11/8/2022 8:45:00 AM 9.98 49.964 0.171 7.18 1.61 11.32
11/8/2022 9:00:00 AM 10.02 50.036 0.171 7.19 1.57 11.41
11/8/2022 9:15:00 AM 10.06 50.108 0.171 7.21 1.58 11.48
11/8/2022 9:30:00 AM 10.13 50.234 0.171 7.22 1.58 11.58
11/8/2022 9:45:00 AM 10.2 50.36 0.17 7.24 1.54 11.62
11/8/2022 10:00:00 AM 10.25 50.45 0.17 7.25 1.62 11.69
11/8/2022 10:15:00 AM 10.32 50.576 0.17 7.27 1.57 11.72
11/8/2022 10:30:00 AM 10.42 50.756 0.17 7.28 1.65 11.78
11/8/2022 10:45:00 AM 10.54 50.972 0.17 7.3 1.56 11.8
11/8/2022 11:00:00 AM 10.71 51.278 0.17 7.31 1.58 11.82
11/8/2022 11:15:00 AM 10.89 51.602 0.17 7.32 1.64 11.84
11/8/2022 11:30:00 AM 11.08 51.944 0.17 7.33 1.6 11.84
11/8/2022 11:45:00 AM 11.29 52.322 0.17 7.35 1.62 11.86
11/8/2022 12:00:00 PM 11.54 52.772 0.17 7.36 1.55 11.85
11/8/2022 12:15:00 PM 11.78 53.204 0.17 7.37 1.57 11.84
11/8/2022 12:30:00 PM 12.02 53.636 0.17 7.38 1.65 11.82
11/8/2022 12:45:00 PM 12.27 54.086 0.169 7.39 1.59 11.79
11/8/2022 1:00:00 PM 12.49 54.482 0.169 7.4 1.55 11.76
11/8/2022 1:15:00 PM 12.67 54.806 0.169 7.41 1.57 11.74
11/8/2022 1:30:00 PM 12.81 55.058 0.169 7.41 1.6 11.71
11/8/2022 1:45:00 PM 12.88 55.184 0.169 7.42 1.57 11.67
11/8/2022 2:00:00 PM 12.91 55.238 0.169 7.42 1.64 11.64
11/8/2022 2:15:00 PM 12.92 55.256 0.169 7.43 1.6 11.58
11/8/2022 2:30:00 PM 12.87 55.166 0.169 7.43 1.66 11.54
11/8/2022 2:45:00 PM 12.72 54.896 0.169 7.43 1.54 11.49
11/8/2022 3:00:00 PM 12.55 54.59 0.169 7.42 1.49 11.39
11/8/2022 3:15:00 PM 12.31 54.158 0.169 7.41 1.62 11.32
11/8/2022 3:30:00 PM 12.07 53.726 0.17 7.37 1.64 11.23
11/8/2022 3:45:00 PM 11.86 53.348 0.17 7.38 1.58 11.15
11/8/2022 4:00:00 PM 11.69 53.042 0.17 7.36 1.59 11.02
11/8/2022 4:15:00 PM 11.59 52.862 0.17 7.33 1.68 10.92
11/8/2022 4:30:00 PM 11.55 52.79 0.17 7.31 1.56 10.85
11/8/2022 4:45:00 PM 11.49 52.682 0.17 7.3 1.61 10.77
11/8/2022 5:00:00 PM 11.45 52.61 0.17 7.28 1.62 10.68
11/8/2022 5:15:00 PM 11.4 52.52 0.171 7.26 1.59 10.61
11/8/2022 5:30:00 PM 11.33 52.394 0.171 7.24 1.58 10.54
11/8/2022 5:45:00 PM 11.23 52.214 0.171 7.23 1.58 10.48
11/8/2022 6:00:00 PM 11.12 52.016 0.171 7.21 1.54 10.46
11/8/2022 6:15:00 PM 11.02 51.836 0.171 7.2 1.64 10.42
11/8/2022 6:30:00 PM 10.92 51.656 0.172 7.19 1.59 10.41
11/8/2022 6:45:00 PM 10.83 51.494 0.172 7.18 1.64 10.38
11/8/2022 7:00:00 PM 10.73 51.314 0.172 7.17 1.62 10.41
11/8/2022 7:15:00 PM 10.63 51.134 0.172 7.16 1.73 10.4
11/8/2022 7:30:00 PM 10.55 50.99 0.172 7.16 1.62 10.41
11/8/2022 7:45:00 PM 10.46 50.828 0.172 7.15 1.64 10.43
11/8/2022 8:00:00 PM 10.38 50.684 0.172 7.15 1.67 10.39
11/8/2022 8:15:00 PM 10.3 50.54 0.172 7.15 1.61 10.45
11/8/2022 8:30:00 PM 10.23 50.414 0.172 7.14 1.65 10.45
11/8/2022 8:45:00 PM 10.16 50.288 0.173 7.13 1.58 10.48
11/8/2022 9:00:00 PM 10.09 50.162 0.173 7.14 1.63 10.49
11/8/2022 9:15:00 PM 10.03 50.054 0.173 7.13 1.75 10.5
11/8/2022 9:30:00 PM 9.96 49.928 0.173 7.13 1.6 10.53
11/8/2022 9:45:00 PM 9.9 49.82 0.173 7.13 1.56 10.55
11/8/2022 10:00:00 PM 9.84 49.712 0.173 7.13 1.56 10.57
11/8/2022 10:15:00 PM 9.78 49.604 0.173 7.13 1.81 10.57
11/8/2022 10:30:00 PM 9.72 49.496 0.173 7.13 1.59 10.58
11/8/2022 10:45:00 PM 9.66 49.388 0.173 7.12 1.59 10.61
11/8/2022 11:00:00 PM 9.6 49.28 0.173 7.12 1.57 10.64
11/8/2022 11:15:00 PM 9.53 49.154 0.173 7.12 1.72 10.66
11/8/2022 11:30:00 PM 9.46 49.028 0.173 7.12 1.65 10.68
11/8/2022 11:45:00 PM 9.41 48.938 0.173 7.12 1.57 10.67
11/9/2022 12:00:00 AM 9.34 48.812 0.173 7.12 1.79 10.71
11/9/2022 12:15:00 AM 9.28 48.704 0.173 7.12 1.58 10.71
11/9/2022 12:30:00 AM 9.22 48.596 0.174 7.11 1.6 10.75
11/9/2022 12:45:00 AM 9.16 48.488 0.174 7.12 1.55 10.79
11/9/2022 1:00:00 AM 9.1 48.38 0.174 7.12 1.63 10.78
11/9/2022 1:15:00 AM 9.04 48.272 0.174 7.11 1.64 10.81
11/9/2022 1:30:00 AM 8.98 48.164 0.174 7.11 1.59 10.84
11/9/2022 1:45:00 AM 8.92 48.056 0.174 7.11 1.57 10.86
11/9/2022 2:00:00 AM 8.86 47.948 0.174 7.11 1.63 10.88
11/9/2022 2:15:00 AM 8.8 47.84 0.174 7.1 1.64 10.9
11/9/2022 2:30:00 AM 8.74 47.732 0.174 7.09 1.61 10.93
11/9/2022 2:45:00 AM 8.68 47.624 0.174 7.08 1.6 10.94
11/9/2022 3:00:00 AM 8.62 47.516 0.174 7.08 1.69 10.96
11/9/2022 3:15:00 AM 8.56 47.408 0.174 7.08 1.61 10.96
11/9/2022 3:30:00 AM 8.5 47.3 0.174 7.08 1.64 10.99
11/9/2022 3:45:00 AM 8.45 47.21 0.174 7.08 1.61 11.01
11/9/2022 4:00:00 AM 8.39 47.102 0.174 7.08 1.62 11.03
11/9/2022 4:15:00 AM 8.33 46.994 0.174 7.08 1.88 11.05
11/9/2022 4:30:00 AM 8.28 46.904 0.174 7.08 2.15 11.08
11/9/2022 4:45:00 AM 8.22 46.796 0.174 7.08 1.64 11.08
11/9/2022 5:00:00 AM 8.17 46.706 0.174 7.08 1.58 11.1
11/9/2022 5:15:00 AM 8.12 46.616 0.174 7.08 2.09 11.13
11/9/2022 5:30:00 AM 8.08 46.544 0.174 7.08 1.68 11.13
11/9/2022 5:45:00 AM 8.03 46.454 0.174 7.08 1.66 11.16
11/9/2022 6:00:00 AM 7.98 46.364 0.174 7.08 1.59 11.16
11/9/2022 6:15:00 AM 7.94 46.292 0.173 7.08 1.58 11.18
11/9/2022 6:30:00 AM 7.89 46.202 0.174 7.08 1.63 11.22
11/9/2022 6:45:00 AM 7.84 46.112 0.173 7.08 1.61 11.23
11/9/2022 7:00:00 AM 7.8 46.04 0.173 7.08 1.59 11.25
11/9/2022 7:15:00 AM 7.77 45.986 0.173 7.08 31.25 11.28
11/9/2022 7:30:00 AM 7.74 45.932 0.173 7.09 2.49 11.39
11/9/2022 7:45:00 AM 7.72 45.896 0.173 7.09 1.81 11.49
11/9/2022 8:00:00 AM 7.7 45.86 0.173 7.1 1.67 11.57
11/9/2022 8:15:00 AM 7.71 45.878 0.173 7.13 1.67 11.69
11/9/2022 8:30:00 AM 7.73 45.914 0.173 7.14 1.68 11.79
11/9/2022 8:45:00 AM 7.76 45.968 0.173 7.14 1.67 11.88
11/9/2022 9:00:00 AM 7.82 46.076 0.172 7.17 1.68 11.97
11/9/2022 9:15:00 AM 7.89 46.202 0.172 7.18 1.71 12.06
11/9/2022 9:30:00 AM 7.98 46.364 0.172 7.19 1.69 12.14
11/9/2022 9:45:00 AM 8.08 46.544 0.172 7.21 1.69 12.22
11/9/2022 10:00:00 AM 8.2 46.76 0.172 7.23 1.81 12.26
11/9/2022 10:15:00 AM 8.31 46.958 0.171 7.24 1.65 12.3
11/9/2022 10:30:00 AM 8.45 47.21 0.171 7.25 1.66 12.34
11/9/2022 10:45:00 AM 8.62 47.516 0.171 7.26 1.67 12.36
11/9/2022 11:00:00 AM 8.81 47.858 0.171 7.28 1.65 12.35
11/9/2022 11:15:00 AM 9.05 48.29 0.171 7.29 1.67 12.36
11/9/2022 11:30:00 AM 9.26 48.668 0.171 7.3 1.64 12.38
11/9/2022 11:45:00 AM 9.51 49.118 0.171 7.31 1.61 12.37
11/9/2022 12:00:00 PM 9.81 49.658 0.171 7.33 1.74 12.37
11/9/2022 12:15:00 PM 10.09 50.162 0.171 7.33 1.63 12.36
11/9/2022 12:30:00 PM 10.36 50.648 0.17 7.35 1.68 12.32
11/9/2022 12:45:00 PM 10.61 51.098 0.17 7.36 1.69 12.3
11/9/2022 1:00:00 PM 10.82 51.476 0.17 7.37 1.69 12.29
11/9/2022 1:15:00 PM 10.97 51.746 0.17 7.39 1.67 12.27
11/9/2022 1:30:00 PM 11.07 51.926 0.17 7.39 1.64 12.23
11/9/2022 1:45:00 PM 11.12 52.016 0.17 7.4 1.6 12.16
11/9/2022 2:00:00 PM 11.17 52.106 0.17 7.41 1.63 12.14
11/9/2022 2:15:00 PM 11.19 52.142 0.17 7.39 1.66 12.12
11/9/2022 2:30:00 PM 11.16 52.088 0.17 7.41 1.66 12.09
11/9/2022 2:45:00 PM 11.06 51.908 0.17 7.4 1.61 12.05
11/9/2022 3:00:00 PM 10.94 51.692 0.17 7.42 1.59 12.03
11/9/2022 3:15:00 PM 10.85 51.53 0.17 7.41 1.71 12
11/9/2022 3:30:00 PM 10.76 51.368 0.17 7.42 1.65 11.94
11/9/2022 3:45:00 PM 10.63 51.134 0.17 7.41 1.57 11.83
11/9/2022 4:00:00 PM 10.49 50.882 0.17 7.4 1.71 11.7
11/9/2022 4:15:00 PM 10.4 50.72 0.171 7.37 1.66 11.55
11/9/2022 4:30:00 PM 10.33 50.594 0.171 7.35 1.62 11.42
11/9/2022 4:45:00 PM 10.28 50.504 0.171 7.33 1.68 11.31
11/9/2022 5:00:00 PM 10.22 50.396 0.171 7.32 1.62 11.19
11/9/2022 5:15:00 PM 10.15 50.27 0.171 7.28 1.68 11.09
11/9/2022 5:30:00 PM 10.07 50.126 0.172 7.26 1.64 11
11/9/2022 5:45:00 PM 9.98 49.964 0.172 7.25 1.84 10.94
11/9/2022 6:00:00 PM 9.89 49.802 0.172 7.23 1.76 10.88
11/9/2022 6:15:00 PM 9.8 49.64 0.172 7.22 1.77 10.83
11/9/2022 6:30:00 PM 9.71 49.478 0.172 7.21 1.69 10.82
11/9/2022 6:45:00 PM 9.63 49.334 0.173 7.2 1.63 10.79
11/9/2022 7:00:00 PM 9.54 49.172 0.173 7.19 1.67 10.8
11/9/2022 7:15:00 PM 9.47 49.046 0.173 7.18 1.68 10.78
11/9/2022 7:30:00 PM 9.39 48.902 0.173 7.18 1.76 10.79
11/9/2022 7:45:00 PM 9.32 48.776 0.173 7.17 1.65 10.79
11/9/2022 8:00:00 PM 9.26 48.668 0.173 7.17 1.64 10.78
11/9/2022 8:15:00 PM 9.2 48.56 0.173 7.16 1.7 10.78
11/9/2022 8:30:00 PM 9.15 48.47 0.173 7.16 1.68 10.79
11/9/2022 8:45:00 PM 9.1 48.38 0.173 7.15 1.63 10.78
11/9/2022 9:00:00 PM 9.05 48.29 0.173 7.15 1.72 10.81
11/9/2022 9:15:00 PM 9.01 48.218 0.174 7.15 1.66 10.8
11/9/2022 9:30:00 PM 8.96 48.128 0.174 7.14 1.68 10.83
11/9/2022 9:45:00 PM 8.92 48.056 0.174 7.14 1.71 10.82
11/9/2022 10:00:00 PM 8.88 47.984 0.174 7.14 1.69 10.84
11/9/2022 10:15:00 PM 8.83 47.894 0.174 7.13 1.67 10.85
11/9/2022 10:30:00 PM 8.79 47.822 0.174 7.13 1.59 10.85
11/9/2022 10:45:00 PM 8.73 47.714 0.174 7.13 1.62 10.88
11/9/2022 11:00:00 PM 8.68 47.624 0.175 7.13 1.68 10.89
11/9/2022 11:15:00 PM 8.63 47.534 0.175 7.13 1.71 10.92
11/9/2022 11:30:00 PM 8.58 47.444 0.175 7.13 1.68 10.93
11/9/2022 11:45:00 PM 8.52 47.336 0.175 7.13 1.64 10.95
11/10/2022 12:00:00 AM 8.46 47.228 0.175 7.13 1.7 10.97
11/10/2022 12:15:00 AM 8.4 47.12 0.176 7.13 1.65 10.99
11/10/2022 12:30:00 AM 8.34 47.012 0.176 7.14 1.68 11.02
11/10/2022 12:45:00 AM 8.27 46.886 0.176 7.13 1.66 11.02
11/10/2022 1:00:00 AM 8.22 46.796 0.176 7.13 1.71 11.05
11/10/2022 1:15:00 AM 8.15 46.67 0.177 7.13 1.72 11.07
11/10/2022 1:30:00 AM 8.09 46.562 0.177 7.12 1.87 11.09
11/10/2022 1:45:00 AM 8.03 46.454 0.177 7.13 1.7 11.11
11/10/2022 2:00:00 AM 7.97 46.346 0.177 7.12 1.71 11.13
11/10/2022 2:15:00 AM 7.91 46.238 0.177 7.13 1.69 11.15
11/10/2022 2:30:00 AM 7.85 46.13 0.177 7.12 1.7 11.18
11/10/2022 2:45:00 AM 7.8 46.04 0.177 7.12 1.68 11.21
11/10/2022 3:00:00 AM 7.74 45.932 0.177 7.12 1.7 11.23
11/10/2022 3:15:00 AM 7.68 45.824 0.177 7.12 1.71 11.24
11/10/2022 3:30:00 AM 7.63 45.734 0.177 7.12 1.88 11.27
11/10/2022 3:45:00 AM 7.58 45.644 0.177 7.12 1.75 11.27
11/10/2022 4:00:00 AM 7.53 45.554 0.177 7.12 1.7 11.31
11/10/2022 4:15:00 AM 7.49 45.482 0.177 7.12 1.65 11.31
11/10/2022 4:30:00 AM 7.44 45.392 0.177 7.11 1.64 11.32
11/10/2022 4:45:00 AM 7.39 45.302 0.177 7.11 1.68 11.36
11/10/2022 5:00:00 AM 7.35 45.23 0.177 7.11 1.69 11.35
11/10/2022 5:15:00 AM 7.31 45.158 0.177 7.1 1.65 11.38
11/10/2022 5:30:00 AM 7.27 45.086 0.177 7.1 1.66 11.39
11/10/2022 5:45:00 AM 7.23 45.014 0.177 7.1 1.72 11.4
11/10/2022 6:00:00 AM 7.19 44.942 0.177 7.1 1.67 11.41
11/10/2022 6:15:00 AM 7.16 44.888 0.177 7.1 1.64 11.45
11/10/2022 6:30:00 AM 7.12 44.816 0.177 7.1 1.67 11.45
11/10/2022 6:45:00 AM 7.08 44.744 0.177 7.1 1.71 11.45
11/10/2022 7:00:00 AM 7.06 44.708 0.177 7.1 1.64 11.48
11/10/2022 7:15:00 AM 7.03 44.654 0.176 7.1 1.77 11.52
11/10/2022 7:30:00 AM 7 44.6 0.176 7.1 1.68 11.61
11/10/2022 7:45:00 AM 6.99 44.582 0.176 7.11 1.66 11.7
11/10/2022 8:00:00 AM 6.99 44.582 0.176 7.12 1.65 11.8
11/10/2022 8:15:00 AM 6.99 44.582 0.176 7.13 1.61 11.89
11/10/2022 8:30:00 AM 7 44.6 0.176 7.15 1.68 12
11/10/2022 8:45:00 AM 7.04 44.672 0.175 7.16